<?xml version="1.0" encoding="UTF-8" standalone="no" ?>
<gpx xmlns="http://www.topografix.com/GPX/1/1" xmlns:xsi="http://www.w3.org/2001/XMLSchema-instance" xsi:schemaLocation="http://www.topografix.com/GPX/1/1 http://www.topografix.com/GPX/1/1/gpx.xsd" version="1.1" creator="VisuGPX - https://www.visugpx.com">
  <metadata>
    <name>Cyclo - Vers Mouthe sous la chaleur :)</name>
    <desc><![CDATA[Très jolie rando cyclo vers Mouthe.]]></desc>
  </metadata>
  <trk>
    <name><![CDATA[Cyclo - Vers Mouthe sous la chaleur :)]]></name>
    <trkseg>
      <trkpt lat="46.77101" lon="6.27568">
        <ele>854.9</ele>
        <time>2019-06-03T05:58:49Z</time>
      </trkpt>
      <trkpt lat="46.77101" lon="6.27568">
        <ele>854.9</ele>
        <time>2019-06-03T05:58:54Z</time>
      </trkpt>
      <trkpt lat="46.77101" lon="6.27567">
        <ele>854.9</ele>
        <time>2019-06-03T05:59:02Z</time>
      </trkpt>
      <trkpt lat="46.77097" lon="6.27559">
        <ele>855</ele>
        <time>2019-06-03T05:59:07Z</time>
      </trkpt>
      <trkpt lat="46.77095" lon="6.27556">
        <ele>855</ele>
        <time>2019-06-03T05:59:09Z</time>
      </trkpt>
      <trkpt lat="46.77095" lon="6.27546">
        <ele>855.2</ele>
        <time>2019-06-03T05:59:14Z</time>
      </trkpt>
      <trkpt lat="46.77098" lon="6.27515">
        <ele>852.9</ele>
        <time>2019-06-03T05:59:24Z</time>
      </trkpt>
      <trkpt lat="46.77103" lon="6.27507">
        <ele>852.7</ele>
        <time>2019-06-03T05:59:27Z</time>
      </trkpt>
      <trkpt lat="46.77116" lon="6.27503">
        <ele>851.9</ele>
        <time>2019-06-03T05:59:32Z</time>
      </trkpt>
      <trkpt lat="46.77133" lon="6.27513">
        <ele>851.5</ele>
        <time>2019-06-03T05:59:40Z</time>
      </trkpt>
      <trkpt lat="46.77142" lon="6.27524">
        <ele>851.5</ele>
        <time>2019-06-03T05:59:45Z</time>
      </trkpt>
      <trkpt lat="46.77147" lon="6.27545">
        <ele>852.1</ele>
        <time>2019-06-03T05:59:51Z</time>
      </trkpt>
      <trkpt lat="46.77151" lon="6.27603">
        <ele>853.1</ele>
        <time>2019-06-03T06:00:04Z</time>
      </trkpt>
      <trkpt lat="46.77159" lon="6.2769">
        <ele>852.8</ele>
        <time>2019-06-03T06:00:21Z</time>
      </trkpt>
      <trkpt lat="46.77156" lon="6.27749">
        <ele>853.4</ele>
        <time>2019-06-03T06:00:32Z</time>
      </trkpt>
      <trkpt lat="46.77144" lon="6.27799">
        <ele>854</ele>
        <time>2019-06-03T06:00:41Z</time>
      </trkpt>
      <trkpt lat="46.77119" lon="6.27884">
        <ele>854.9</ele>
        <time>2019-06-03T06:00:56Z</time>
      </trkpt>
      <trkpt lat="46.77093" lon="6.27926">
        <ele>855.7</ele>
        <time>2019-06-03T06:01:07Z</time>
      </trkpt>
      <trkpt lat="46.77067" lon="6.27928">
        <ele>856.8</ele>
        <time>2019-06-03T06:01:16Z</time>
      </trkpt>
      <trkpt lat="46.77025" lon="6.27907">
        <ele>857.1</ele>
        <time>2019-06-03T06:01:29Z</time>
      </trkpt>
      <trkpt lat="46.76998" lon="6.2787">
        <ele>859.7</ele>
        <time>2019-06-03T06:01:40Z</time>
      </trkpt>
      <trkpt lat="46.76965" lon="6.27811">
        <ele>863</ele>
        <time>2019-06-03T06:01:55Z</time>
      </trkpt>
      <trkpt lat="46.7692" lon="6.27753">
        <ele>862.8</ele>
        <time>2019-06-03T06:02:12Z</time>
      </trkpt>
      <trkpt lat="46.76865" lon="6.27704">
        <ele>862.5</ele>
        <time>2019-06-03T06:02:30Z</time>
      </trkpt>
      <trkpt lat="46.768" lon="6.27658">
        <ele>862</ele>
        <time>2019-06-03T06:02:49Z</time>
      </trkpt>
      <trkpt lat="46.76748" lon="6.2762">
        <ele>862</ele>
        <time>2019-06-03T06:03:04Z</time>
      </trkpt>
      <trkpt lat="46.76673" lon="6.27565">
        <ele>863.5</ele>
        <time>2019-06-03T06:03:25Z</time>
      </trkpt>
      <trkpt lat="46.76619" lon="6.27519">
        <ele>864.5</ele>
        <time>2019-06-03T06:03:41Z</time>
      </trkpt>
      <trkpt lat="46.76582" lon="6.27499">
        <ele>865.7</ele>
        <time>2019-06-03T06:03:52Z</time>
      </trkpt>
      <trkpt lat="46.76539" lon="6.275">
        <ele>867.2</ele>
        <time>2019-06-03T06:04:04Z</time>
      </trkpt>
      <trkpt lat="46.76484" lon="6.27498">
        <ele>868.4</ele>
        <time>2019-06-03T06:04:20Z</time>
      </trkpt>
      <trkpt lat="46.76451" lon="6.27526">
        <ele>871.5</ele>
        <time>2019-06-03T06:04:33Z</time>
      </trkpt>
      <trkpt lat="46.76436" lon="6.27563">
        <ele>872.2</ele>
        <time>2019-06-03T06:04:45Z</time>
      </trkpt>
      <trkpt lat="46.76416" lon="6.27608">
        <ele>872.7</ele>
        <time>2019-06-03T06:04:58Z</time>
      </trkpt>
      <trkpt lat="46.76398" lon="6.27668">
        <ele>873.6</ele>
        <time>2019-06-03T06:05:13Z</time>
      </trkpt>
      <trkpt lat="46.76402" lon="6.27736">
        <ele>875.4</ele>
        <time>2019-06-03T06:05:29Z</time>
      </trkpt>
      <trkpt lat="46.76399" lon="6.27769">
        <ele>875.6</ele>
        <time>2019-06-03T06:05:38Z</time>
      </trkpt>
      <trkpt lat="46.76387" lon="6.27806">
        <ele>875.7</ele>
        <time>2019-06-03T06:05:47Z</time>
      </trkpt>
      <trkpt lat="46.76354" lon="6.27897">
        <ele>874.4</ele>
        <time>2019-06-03T06:06:00Z</time>
      </trkpt>
      <trkpt lat="46.76352" lon="6.27925">
        <ele>874.1</ele>
        <time>2019-06-03T06:06:03Z</time>
      </trkpt>
      <trkpt lat="46.76368" lon="6.28013">
        <ele>874.5</ele>
        <time>2019-06-03T06:06:14Z</time>
      </trkpt>
      <trkpt lat="46.76367" lon="6.28043">
        <ele>875.1</ele>
        <time>2019-06-03T06:06:18Z</time>
      </trkpt>
      <trkpt lat="46.76349" lon="6.28157">
        <ele>876.6</ele>
        <time>2019-06-03T06:06:35Z</time>
      </trkpt>
      <trkpt lat="46.76348" lon="6.28176">
        <ele>876.7</ele>
        <time>2019-06-03T06:06:38Z</time>
      </trkpt>
      <trkpt lat="46.7635" lon="6.2819">
        <ele>876.7</ele>
        <time>2019-06-03T06:06:40Z</time>
      </trkpt>
      <trkpt lat="46.76381" lon="6.28309">
        <ele>879</ele>
        <time>2019-06-03T06:07:00Z</time>
      </trkpt>
      <trkpt lat="46.76407" lon="6.28394">
        <ele>882.1</ele>
        <time>2019-06-03T06:07:16Z</time>
      </trkpt>
      <trkpt lat="46.76405" lon="6.28477">
        <ele>884.3</ele>
        <time>2019-06-03T06:07:31Z</time>
      </trkpt>
      <trkpt lat="46.76401" lon="6.2854">
        <ele>885.1</ele>
        <time>2019-06-03T06:07:42Z</time>
      </trkpt>
      <trkpt lat="46.76398" lon="6.28565">
        <ele>885.4</ele>
        <time>2019-06-03T06:07:46Z</time>
      </trkpt>
      <trkpt lat="46.76394" lon="6.28599">
        <ele>885.9</ele>
        <time>2019-06-03T06:07:52Z</time>
      </trkpt>
      <trkpt lat="46.76399" lon="6.28627">
        <ele>886.4</ele>
        <time>2019-06-03T06:07:57Z</time>
      </trkpt>
      <trkpt lat="46.7643" lon="6.28681">
        <ele>887.3</ele>
        <time>2019-06-03T06:08:10Z</time>
      </trkpt>
      <trkpt lat="46.7644" lon="6.287">
        <ele>887.5</ele>
        <time>2019-06-03T06:08:14Z</time>
      </trkpt>
      <trkpt lat="46.76445" lon="6.28734">
        <ele>887.6</ele>
        <time>2019-06-03T06:08:20Z</time>
      </trkpt>
      <trkpt lat="46.76431" lon="6.28828">
        <ele>886.2</ele>
        <time>2019-06-03T06:08:37Z</time>
      </trkpt>
      <trkpt lat="46.76429" lon="6.28876">
        <ele>885.1</ele>
        <time>2019-06-03T06:08:44Z</time>
      </trkpt>
      <trkpt lat="46.76414" lon="6.28964">
        <ele>883.7</ele>
        <time>2019-06-03T06:08:57Z</time>
      </trkpt>
      <trkpt lat="46.7641" lon="6.28987">
        <ele>883.5</ele>
        <time>2019-06-03T06:09:01Z</time>
      </trkpt>
      <trkpt lat="46.76392" lon="6.2906">
        <ele>883.4</ele>
        <time>2019-06-03T06:09:14Z</time>
      </trkpt>
      <trkpt lat="46.76372" lon="6.2912">
        <ele>884.1</ele>
        <time>2019-06-03T06:09:26Z</time>
      </trkpt>
      <trkpt lat="46.76362" lon="6.29137">
        <ele>884.4</ele>
        <time>2019-06-03T06:09:30Z</time>
      </trkpt>
      <trkpt lat="46.76349" lon="6.29151">
        <ele>884.9</ele>
        <time>2019-06-03T06:09:34Z</time>
      </trkpt>
      <trkpt lat="46.7631" lon="6.29194">
        <ele>886.6</ele>
        <time>2019-06-03T06:09:47Z</time>
      </trkpt>
      <trkpt lat="46.76287" lon="6.29244">
        <ele>888.1</ele>
        <time>2019-06-03T06:09:58Z</time>
      </trkpt>
      <trkpt lat="46.76265" lon="6.29274">
        <ele>889.1</ele>
        <time>2019-06-03T06:10:05Z</time>
      </trkpt>
      <trkpt lat="46.7623" lon="6.29295">
        <ele>890.3</ele>
        <time>2019-06-03T06:10:15Z</time>
      </trkpt>
      <trkpt lat="46.76193" lon="6.29325">
        <ele>891.6</ele>
        <time>2019-06-03T06:10:27Z</time>
      </trkpt>
      <trkpt lat="46.76158" lon="6.29365">
        <ele>892.8</ele>
        <time>2019-06-03T06:10:40Z</time>
      </trkpt>
      <trkpt lat="46.76125" lon="6.29408">
        <ele>894.3</ele>
        <time>2019-06-03T06:10:54Z</time>
      </trkpt>
      <trkpt lat="46.76101" lon="6.29439">
        <ele>895.8</ele>
        <time>2019-06-03T06:11:06Z</time>
      </trkpt>
      <trkpt lat="46.76076" lon="6.29473">
        <ele>897.6</ele>
        <time>2019-06-03T06:11:18Z</time>
      </trkpt>
      <trkpt lat="46.76065" lon="6.29488">
        <ele>898.4</ele>
        <time>2019-06-03T06:11:26Z</time>
      </trkpt>
      <trkpt lat="46.76077" lon="6.29486">
        <ele>899</ele>
        <time>2019-06-03T06:11:34Z</time>
      </trkpt>
      <trkpt lat="46.76086" lon="6.29475">
        <ele>899.6</ele>
        <time>2019-06-03T06:11:39Z</time>
      </trkpt>
      <trkpt lat="46.76092" lon="6.29469">
        <ele>899.9</ele>
        <time>2019-06-03T06:11:42Z</time>
      </trkpt>
      <trkpt lat="46.76084" lon="6.29467">
        <ele>900.2</ele>
        <time>2019-06-03T06:11:49Z</time>
      </trkpt>
      <trkpt lat="46.76078" lon="6.29474">
        <ele>900.5</ele>
        <time>2019-06-03T06:11:52Z</time>
      </trkpt>
      <trkpt lat="46.7605" lon="6.29517">
        <ele>902</ele>
        <time>2019-06-03T06:12:06Z</time>
      </trkpt>
      <trkpt lat="46.76042" lon="6.29563">
        <ele>903.3</ele>
        <time>2019-06-03T06:12:15Z</time>
      </trkpt>
      <trkpt lat="46.76026" lon="6.29624">
        <ele>904.9</ele>
        <time>2019-06-03T06:12:27Z</time>
      </trkpt>
      <trkpt lat="46.76018" lon="6.29688">
        <ele>906.1</ele>
        <time>2019-06-03T06:12:39Z</time>
      </trkpt>
      <trkpt lat="46.75982" lon="6.29726">
        <ele>907.5</ele>
        <time>2019-06-03T06:12:51Z</time>
      </trkpt>
      <trkpt lat="46.75934" lon="6.29748">
        <ele>909.1</ele>
        <time>2019-06-03T06:13:05Z</time>
      </trkpt>
      <trkpt lat="46.75899" lon="6.29777">
        <ele>910.3</ele>
        <time>2019-06-03T06:13:16Z</time>
      </trkpt>
      <trkpt lat="46.75861" lon="6.29797">
        <ele>911.6</ele>
        <time>2019-06-03T06:13:27Z</time>
      </trkpt>
      <trkpt lat="46.75825" lon="6.29822">
        <ele>913.1</ele>
        <time>2019-06-03T06:13:38Z</time>
      </trkpt>
      <trkpt lat="46.75789" lon="6.29848">
        <ele>914.8</ele>
        <time>2019-06-03T06:13:49Z</time>
      </trkpt>
      <trkpt lat="46.75767" lon="6.29859">
        <ele>915.8</ele>
        <time>2019-06-03T06:13:56Z</time>
      </trkpt>
      <trkpt lat="46.75733" lon="6.29873">
        <ele>917.1</ele>
        <time>2019-06-03T06:14:06Z</time>
      </trkpt>
      <trkpt lat="46.75697" lon="6.29904">
        <ele>918.7</ele>
        <time>2019-06-03T06:14:18Z</time>
      </trkpt>
      <trkpt lat="46.75676" lon="6.29929">
        <ele>919.7</ele>
        <time>2019-06-03T06:14:26Z</time>
      </trkpt>
      <trkpt lat="46.7564" lon="6.29969">
        <ele>921.5</ele>
        <time>2019-06-03T06:14:39Z</time>
      </trkpt>
      <trkpt lat="46.75605" lon="6.29992">
        <ele>922.8</ele>
        <time>2019-06-03T06:14:50Z</time>
      </trkpt>
      <trkpt lat="46.75558" lon="6.29991">
        <ele>924.6</ele>
        <time>2019-06-03T06:15:04Z</time>
      </trkpt>
      <trkpt lat="46.75507" lon="6.29974">
        <ele>926.3</ele>
        <time>2019-06-03T06:15:18Z</time>
      </trkpt>
      <trkpt lat="46.75459" lon="6.29951">
        <ele>927.9</ele>
        <time>2019-06-03T06:15:33Z</time>
      </trkpt>
      <trkpt lat="46.75417" lon="6.29928">
        <ele>929.2</ele>
        <time>2019-06-03T06:15:48Z</time>
      </trkpt>
      <trkpt lat="46.75383" lon="6.29909">
        <ele>930.4</ele>
        <time>2019-06-03T06:16:01Z</time>
      </trkpt>
      <trkpt lat="46.75371" lon="6.29902">
        <ele>930.8</ele>
        <time>2019-06-03T06:16:08Z</time>
      </trkpt>
      <trkpt lat="46.75374" lon="6.29909">
        <ele>930.9</ele>
        <time>2019-06-03T06:16:14Z</time>
      </trkpt>
      <trkpt lat="46.7538" lon="6.29913">
        <ele>931.1</ele>
        <time>2019-06-03T06:16:17Z</time>
      </trkpt>
      <trkpt lat="46.75387" lon="6.29916">
        <ele>931.3</ele>
        <time>2019-06-03T06:16:22Z</time>
      </trkpt>
      <trkpt lat="46.75416" lon="6.29931">
        <ele>932.3</ele>
        <time>2019-06-03T06:16:36Z</time>
      </trkpt>
      <trkpt lat="46.75444" lon="6.29948">
        <ele>933.4</ele>
        <time>2019-06-03T06:16:50Z</time>
      </trkpt>
      <trkpt lat="46.75446" lon="6.29949">
        <ele>933.5</ele>
        <time>2019-06-03T06:16:51Z</time>
      </trkpt>
      <trkpt lat="46.75439" lon="6.29942">
        <ele>933.8</ele>
        <time>2019-06-03T06:16:57Z</time>
      </trkpt>
      <trkpt lat="46.75434" lon="6.29939">
        <ele>934</ele>
        <time>2019-06-03T06:16:59Z</time>
      </trkpt>
      <trkpt lat="46.75393" lon="6.29914">
        <ele>935.5</ele>
        <time>2019-06-03T06:17:14Z</time>
      </trkpt>
      <trkpt lat="46.75337" lon="6.29887">
        <ele>936.2</ele>
        <time>2019-06-03T06:17:31Z</time>
      </trkpt>
      <trkpt lat="46.75301" lon="6.29866">
        <ele>935.2</ele>
        <time>2019-06-03T06:17:44Z</time>
      </trkpt>
      <trkpt lat="46.75272" lon="6.29852">
        <ele>933.8</ele>
        <time>2019-06-03T06:17:56Z</time>
      </trkpt>
      <trkpt lat="46.7526" lon="6.29844">
        <ele>933.2</ele>
        <time>2019-06-03T06:18:00Z</time>
      </trkpt>
      <trkpt lat="46.75252" lon="6.29839">
        <ele>932.7</ele>
        <time>2019-06-03T06:18:02Z</time>
      </trkpt>
      <trkpt lat="46.75185" lon="6.29766">
        <ele>930.3</ele>
        <time>2019-06-03T06:18:16Z</time>
      </trkpt>
      <trkpt lat="46.75167" lon="6.29748">
        <ele>930</ele>
        <time>2019-06-03T06:18:19Z</time>
      </trkpt>
      <trkpt lat="46.7514" lon="6.29735">
        <ele>929.2</ele>
        <time>2019-06-03T06:18:23Z</time>
      </trkpt>
      <trkpt lat="46.75115" lon="6.29733">
        <ele>928.2</ele>
        <time>2019-06-03T06:18:27Z</time>
      </trkpt>
      <trkpt lat="46.75086" lon="6.29722">
        <ele>926.9</ele>
        <time>2019-06-03T06:18:32Z</time>
      </trkpt>
      <trkpt lat="46.75015" lon="6.29662">
        <ele>925.8</ele>
        <time>2019-06-03T06:18:44Z</time>
      </trkpt>
      <trkpt lat="46.7493" lon="6.29589">
        <ele>924.5</ele>
        <time>2019-06-03T06:18:59Z</time>
      </trkpt>
      <trkpt lat="46.7486" lon="6.29494">
        <ele>914.8</ele>
        <time>2019-06-03T06:19:13Z</time>
      </trkpt>
      <trkpt lat="46.7485" lon="6.29482">
        <ele>913.9</ele>
        <time>2019-06-03T06:19:15Z</time>
      </trkpt>
      <trkpt lat="46.74786" lon="6.29466">
        <ele>912.4</ele>
        <time>2019-06-03T06:19:26Z</time>
      </trkpt>
      <trkpt lat="46.7478" lon="6.29467">
        <ele>912.4</ele>
        <time>2019-06-03T06:19:27Z</time>
      </trkpt>
      <trkpt lat="46.74754" lon="6.29484">
        <ele>911.6</ele>
        <time>2019-06-03T06:19:32Z</time>
      </trkpt>
      <trkpt lat="46.74702" lon="6.29545">
        <ele>911.4</ele>
        <time>2019-06-03T06:19:44Z</time>
      </trkpt>
      <trkpt lat="46.74667" lon="6.29576">
        <ele>913.2</ele>
        <time>2019-06-03T06:19:56Z</time>
      </trkpt>
      <trkpt lat="46.74665" lon="6.29579">
        <ele>913.4</ele>
        <time>2019-06-03T06:20:08Z</time>
      </trkpt>
      <trkpt lat="46.74666" lon="6.29578">
        <ele>913.4</ele>
        <time>2019-06-03T06:20:42Z</time>
      </trkpt>
      <trkpt lat="46.74666" lon="6.29578">
        <ele>913.4</ele>
        <time>2019-06-03T06:20:52Z</time>
      </trkpt>
      <trkpt lat="46.74658" lon="6.29566">
        <ele>914.2</ele>
        <time>2019-06-03T06:20:59Z</time>
      </trkpt>
      <trkpt lat="46.74637" lon="6.29514">
        <ele>915.5</ele>
        <time>2019-06-03T06:21:15Z</time>
      </trkpt>
      <trkpt lat="46.74613" lon="6.29435">
        <ele>916.9</ele>
        <time>2019-06-03T06:21:32Z</time>
      </trkpt>
      <trkpt lat="46.74593" lon="6.29368">
        <ele>917.3</ele>
        <time>2019-06-03T06:21:45Z</time>
      </trkpt>
      <trkpt lat="46.74573" lon="6.29301">
        <ele>919.4</ele>
        <time>2019-06-03T06:21:58Z</time>
      </trkpt>
      <trkpt lat="46.74543" lon="6.29209">
        <ele>920.6</ele>
        <time>2019-06-03T06:22:14Z</time>
      </trkpt>
      <trkpt lat="46.74523" lon="6.29154">
        <ele>921.8</ele>
        <time>2019-06-03T06:22:25Z</time>
      </trkpt>
      <trkpt lat="46.74519" lon="6.2914">
        <ele>922</ele>
        <time>2019-06-03T06:22:28Z</time>
      </trkpt>
      <trkpt lat="46.74506" lon="6.29067">
        <ele>923</ele>
        <time>2019-06-03T06:22:44Z</time>
      </trkpt>
      <trkpt lat="46.74497" lon="6.2899">
        <ele>924.6</ele>
        <time>2019-06-03T06:23:00Z</time>
      </trkpt>
      <trkpt lat="46.74494" lon="6.28963">
        <ele>925.2</ele>
        <time>2019-06-03T06:23:10Z</time>
      </trkpt>
      <trkpt lat="46.74494" lon="6.28963">
        <ele>925.2</ele>
        <time>2019-06-03T06:23:41Z</time>
      </trkpt>
      <trkpt lat="46.74494" lon="6.28962">
        <ele>925.2</ele>
        <time>2019-06-03T06:23:50Z</time>
      </trkpt>
      <trkpt lat="46.74494" lon="6.28958">
        <ele>925.3</ele>
        <time>2019-06-03T06:23:53Z</time>
      </trkpt>
      <trkpt lat="46.74488" lon="6.28936">
        <ele>925.7</ele>
        <time>2019-06-03T06:24:00Z</time>
      </trkpt>
      <trkpt lat="46.74472" lon="6.28859">
        <ele>925.9</ele>
        <time>2019-06-03T06:24:15Z</time>
      </trkpt>
      <trkpt lat="46.74459" lon="6.28803">
        <ele>925.5</ele>
        <time>2019-06-03T06:24:25Z</time>
      </trkpt>
      <trkpt lat="46.74436" lon="6.28688">
        <ele>924.7</ele>
        <time>2019-06-03T06:24:42Z</time>
      </trkpt>
      <trkpt lat="46.74412" lon="6.28576">
        <ele>925.2</ele>
        <time>2019-06-03T06:24:57Z</time>
      </trkpt>
      <trkpt lat="46.74388" lon="6.2843">
        <ele>924.1</ele>
        <time>2019-06-03T06:25:16Z</time>
      </trkpt>
      <trkpt lat="46.74363" lon="6.28279">
        <ele>922.6</ele>
        <time>2019-06-03T06:25:35Z</time>
      </trkpt>
      <trkpt lat="46.74345" lon="6.28162">
        <ele>921.8</ele>
        <time>2019-06-03T06:25:51Z</time>
      </trkpt>
      <trkpt lat="46.74319" lon="6.28015">
        <ele>920.1</ele>
        <time>2019-06-03T06:26:10Z</time>
      </trkpt>
      <trkpt lat="46.74298" lon="6.27881">
        <ele>918.7</ele>
        <time>2019-06-03T06:26:25Z</time>
      </trkpt>
      <trkpt lat="46.74254" lon="6.27754">
        <ele>917.7</ele>
        <time>2019-06-03T06:26:40Z</time>
      </trkpt>
      <trkpt lat="46.74184" lon="6.27631">
        <ele>916.4</ele>
        <time>2019-06-03T06:26:57Z</time>
      </trkpt>
      <trkpt lat="46.74141" lon="6.27502">
        <ele>915.6</ele>
        <time>2019-06-03T06:27:13Z</time>
      </trkpt>
      <trkpt lat="46.74117" lon="6.27333">
        <ele>914.8</ele>
        <time>2019-06-03T06:27:32Z</time>
      </trkpt>
      <trkpt lat="46.74101" lon="6.27153">
        <ele>913.3</ele>
        <time>2019-06-03T06:27:51Z</time>
      </trkpt>
      <trkpt lat="46.74092" lon="6.26988">
        <ele>914.1</ele>
        <time>2019-06-03T06:28:09Z</time>
      </trkpt>
      <trkpt lat="46.74084" lon="6.26896">
        <ele>914.6</ele>
        <time>2019-06-03T06:28:22Z</time>
      </trkpt>
      <trkpt lat="46.74082" lon="6.2688">
        <ele>914.7</ele>
        <time>2019-06-03T06:28:26Z</time>
      </trkpt>
      <trkpt lat="46.7408" lon="6.26893">
        <ele>914.7</ele>
        <time>2019-06-03T06:28:32Z</time>
      </trkpt>
      <trkpt lat="46.74085" lon="6.26963">
        <ele>915.1</ele>
        <time>2019-06-03T06:28:46Z</time>
      </trkpt>
      <trkpt lat="46.74086" lon="6.26976">
        <ele>915.2</ele>
        <time>2019-06-03T06:28:55Z</time>
      </trkpt>
      <trkpt lat="46.74082" lon="6.26973">
        <ele>915.2</ele>
        <time>2019-06-03T06:29:16Z</time>
      </trkpt>
      <trkpt lat="46.74081" lon="6.26974">
        <ele>915.2</ele>
        <time>2019-06-03T06:29:40Z</time>
      </trkpt>
      <trkpt lat="46.74082" lon="6.26973">
        <ele>915.2</ele>
        <time>2019-06-03T06:30:04Z</time>
      </trkpt>
      <trkpt lat="46.74085" lon="6.26968">
        <ele>915.3</ele>
        <time>2019-06-03T06:30:12Z</time>
      </trkpt>
      <trkpt lat="46.74087" lon="6.26931">
        <ele>915.5</ele>
        <time>2019-06-03T06:30:22Z</time>
      </trkpt>
      <trkpt lat="46.74077" lon="6.26818">
        <ele>916.4</ele>
        <time>2019-06-03T06:30:36Z</time>
      </trkpt>
      <trkpt lat="46.74052" lon="6.26658">
        <ele>918.1</ele>
        <time>2019-06-03T06:30:54Z</time>
      </trkpt>
      <trkpt lat="46.74007" lon="6.26497">
        <ele>919.6</ele>
        <time>2019-06-03T06:31:12Z</time>
      </trkpt>
      <trkpt lat="46.73955" lon="6.26349">
        <ele>921.2</ele>
        <time>2019-06-03T06:31:29Z</time>
      </trkpt>
      <trkpt lat="46.73946" lon="6.26334">
        <ele>921.4</ele>
        <time>2019-06-03T06:31:31Z</time>
      </trkpt>
      <trkpt lat="46.73889" lon="6.2625">
        <ele>922.7</ele>
        <time>2019-06-03T06:31:43Z</time>
      </trkpt>
      <trkpt lat="46.73848" lon="6.26104">
        <ele>923.6</ele>
        <time>2019-06-03T06:31:59Z</time>
      </trkpt>
      <trkpt lat="46.73807" lon="6.25968">
        <ele>924.6</ele>
        <time>2019-06-03T06:32:14Z</time>
      </trkpt>
      <trkpt lat="46.73746" lon="6.25841">
        <ele>926.3</ele>
        <time>2019-06-03T06:32:30Z</time>
      </trkpt>
      <trkpt lat="46.73658" lon="6.25721">
        <ele>925.7</ele>
        <time>2019-06-03T06:32:48Z</time>
      </trkpt>
      <trkpt lat="46.73592" lon="6.25591">
        <ele>925.5</ele>
        <time>2019-06-03T06:33:05Z</time>
      </trkpt>
      <trkpt lat="46.73524" lon="6.25436">
        <ele>925.3</ele>
        <time>2019-06-03T06:33:25Z</time>
      </trkpt>
      <trkpt lat="46.73463" lon="6.25298">
        <ele>925.7</ele>
        <time>2019-06-03T06:33:43Z</time>
      </trkpt>
      <trkpt lat="46.73411" lon="6.25174">
        <ele>925.7</ele>
        <time>2019-06-03T06:33:59Z</time>
      </trkpt>
      <trkpt lat="46.73365" lon="6.25056">
        <ele>925.6</ele>
        <time>2019-06-03T06:34:14Z</time>
      </trkpt>
      <trkpt lat="46.73338" lon="6.24956">
        <ele>925.2</ele>
        <time>2019-06-03T06:34:26Z</time>
      </trkpt>
      <trkpt lat="46.73313" lon="6.24792">
        <ele>924.9</ele>
        <time>2019-06-03T06:34:45Z</time>
      </trkpt>
      <trkpt lat="46.73298" lon="6.24642">
        <ele>924.8</ele>
        <time>2019-06-03T06:35:03Z</time>
      </trkpt>
      <trkpt lat="46.7332" lon="6.24533">
        <ele>925.1</ele>
        <time>2019-06-03T06:35:17Z</time>
      </trkpt>
      <trkpt lat="46.7337" lon="6.24426">
        <ele>925.4</ele>
        <time>2019-06-03T06:35:35Z</time>
      </trkpt>
      <trkpt lat="46.73394" lon="6.24377">
        <ele>926.4</ele>
        <time>2019-06-03T06:35:45Z</time>
      </trkpt>
      <trkpt lat="46.73419" lon="6.24303">
        <ele>927.1</ele>
        <time>2019-06-03T06:36:00Z</time>
      </trkpt>
      <trkpt lat="46.73423" lon="6.24266">
        <ele>927.5</ele>
        <time>2019-06-03T06:36:10Z</time>
      </trkpt>
      <trkpt lat="46.73423" lon="6.24266">
        <ele>927.6</ele>
        <time>2019-06-03T06:36:28Z</time>
      </trkpt>
      <trkpt lat="46.73423" lon="6.24266">
        <ele>927.6</ele>
        <time>2019-06-03T06:36:32Z</time>
      </trkpt>
      <trkpt lat="46.73421" lon="6.24262">
        <ele>927.6</ele>
        <time>2019-06-03T06:36:35Z</time>
      </trkpt>
      <trkpt lat="46.73406" lon="6.24212">
        <ele>928.1</ele>
        <time>2019-06-03T06:36:48Z</time>
      </trkpt>
      <trkpt lat="46.73376" lon="6.2411">
        <ele>928.8</ele>
        <time>2019-06-03T06:37:02Z</time>
      </trkpt>
      <trkpt lat="46.73342" lon="6.24025">
        <ele>928.4</ele>
        <time>2019-06-03T06:37:12Z</time>
      </trkpt>
      <trkpt lat="46.73338" lon="6.24017">
        <ele>928.4</ele>
        <time>2019-06-03T06:37:13Z</time>
      </trkpt>
      <trkpt lat="46.73257" lon="6.23899">
        <ele>930.1</ele>
        <time>2019-06-03T06:37:29Z</time>
      </trkpt>
      <trkpt lat="46.73186" lon="6.23823">
        <ele>932.7</ele>
        <time>2019-06-03T06:37:42Z</time>
      </trkpt>
      <trkpt lat="46.73113" lon="6.23734">
        <ele>934.3</ele>
        <time>2019-06-03T06:37:57Z</time>
      </trkpt>
      <trkpt lat="46.73051" lon="6.23616">
        <ele>935.1</ele>
        <time>2019-06-03T06:38:14Z</time>
      </trkpt>
      <trkpt lat="46.73011" lon="6.23508">
        <ele>936</ele>
        <time>2019-06-03T06:38:30Z</time>
      </trkpt>
      <trkpt lat="46.72974" lon="6.23404">
        <ele>936.3</ele>
        <time>2019-06-03T06:38:47Z</time>
      </trkpt>
      <trkpt lat="46.72947" lon="6.23329">
        <ele>936.4</ele>
        <time>2019-06-03T06:39:00Z</time>
      </trkpt>
      <trkpt lat="46.72909" lon="6.23246">
        <ele>937.4</ele>
        <time>2019-06-03T06:39:15Z</time>
      </trkpt>
      <trkpt lat="46.72862" lon="6.23153">
        <ele>937.2</ele>
        <time>2019-06-03T06:39:33Z</time>
      </trkpt>
      <trkpt lat="46.72823" lon="6.23064">
        <ele>937</ele>
        <time>2019-06-03T06:39:52Z</time>
      </trkpt>
      <trkpt lat="46.72804" lon="6.22999">
        <ele>935.8</ele>
        <time>2019-06-03T06:40:09Z</time>
      </trkpt>
      <trkpt lat="46.72786" lon="6.22907">
        <ele>932.9</ele>
        <time>2019-06-03T06:40:26Z</time>
      </trkpt>
      <trkpt lat="46.72783" lon="6.22886">
        <ele>932.8</ele>
        <time>2019-06-03T06:40:29Z</time>
      </trkpt>
      <trkpt lat="46.72768" lon="6.22761">
        <ele>931.5</ele>
        <time>2019-06-03T06:40:47Z</time>
      </trkpt>
      <trkpt lat="46.72753" lon="6.22645">
        <ele>930.6</ele>
        <time>2019-06-03T06:41:04Z</time>
      </trkpt>
      <trkpt lat="46.72731" lon="6.22514">
        <ele>932.1</ele>
        <time>2019-06-03T06:41:22Z</time>
      </trkpt>
      <trkpt lat="46.72701" lon="6.22382">
        <ele>936.2</ele>
        <time>2019-06-03T06:41:41Z</time>
      </trkpt>
      <trkpt lat="46.72678" lon="6.22266">
        <ele>938.7</ele>
        <time>2019-06-03T06:41:59Z</time>
      </trkpt>
      <trkpt lat="46.72658" lon="6.2213">
        <ele>938.7</ele>
        <time>2019-06-03T06:42:21Z</time>
      </trkpt>
      <trkpt lat="46.72636" lon="6.22048">
        <ele>937.5</ele>
        <time>2019-06-03T06:42:36Z</time>
      </trkpt>
      <trkpt lat="46.72632" lon="6.22038">
        <ele>937.2</ele>
        <time>2019-06-03T06:42:38Z</time>
      </trkpt>
      <trkpt lat="46.72626" lon="6.22022">
        <ele>936.9</ele>
        <time>2019-06-03T06:42:41Z</time>
      </trkpt>
      <trkpt lat="46.72586" lon="6.21927">
        <ele>935</ele>
        <time>2019-06-03T06:42:59Z</time>
      </trkpt>
      <trkpt lat="46.72538" lon="6.21843">
        <ele>933.7</ele>
        <time>2019-06-03T06:43:14Z</time>
      </trkpt>
      <trkpt lat="46.72495" lon="6.21781">
        <ele>933.2</ele>
        <time>2019-06-03T06:43:27Z</time>
      </trkpt>
      <trkpt lat="46.72438" lon="6.21679">
        <ele>934.2</ele>
        <time>2019-06-03T06:43:43Z</time>
      </trkpt>
      <trkpt lat="46.72383" lon="6.21538">
        <ele>934.5</ele>
        <time>2019-06-03T06:44:05Z</time>
      </trkpt>
      <trkpt lat="46.72336" lon="6.21413">
        <ele>933.3</ele>
        <time>2019-06-03T06:44:23Z</time>
      </trkpt>
      <trkpt lat="46.72281" lon="6.21275">
        <ele>931.3</ele>
        <time>2019-06-03T06:44:41Z</time>
      </trkpt>
      <trkpt lat="46.72273" lon="6.2126">
        <ele>931</ele>
        <time>2019-06-03T06:44:43Z</time>
      </trkpt>
      <trkpt lat="46.72184" lon="6.2113">
        <ele>930</ele>
        <time>2019-06-03T06:45:01Z</time>
      </trkpt>
      <trkpt lat="46.7211" lon="6.21023">
        <ele>933.7</ele>
        <time>2019-06-03T06:45:19Z</time>
      </trkpt>
      <trkpt lat="46.72064" lon="6.20955">
        <ele>935.2</ele>
        <time>2019-06-03T06:45:36Z</time>
      </trkpt>
      <trkpt lat="46.72021" lon="6.20896">
        <ele>935.5</ele>
        <time>2019-06-03T06:45:54Z</time>
      </trkpt>
      <trkpt lat="46.7198" lon="6.20828">
        <ele>935.1</ele>
        <time>2019-06-03T06:46:11Z</time>
      </trkpt>
      <trkpt lat="46.71932" lon="6.20712">
        <ele>933.7</ele>
        <time>2019-06-03T06:46:30Z</time>
      </trkpt>
      <trkpt lat="46.71912" lon="6.2057">
        <ele>930.5</ele>
        <time>2019-06-03T06:46:48Z</time>
      </trkpt>
      <trkpt lat="46.71899" lon="6.20393">
        <ele>930.1</ele>
        <time>2019-06-03T06:47:06Z</time>
      </trkpt>
      <trkpt lat="46.71866" lon="6.20268">
        <ele>930</ele>
        <time>2019-06-03T06:47:21Z</time>
      </trkpt>
      <trkpt lat="46.71826" lon="6.20151">
        <ele>932.9</ele>
        <time>2019-06-03T06:47:38Z</time>
      </trkpt>
      <trkpt lat="46.71777" lon="6.20056">
        <ele>937.1</ele>
        <time>2019-06-03T06:47:55Z</time>
      </trkpt>
      <trkpt lat="46.71739" lon="6.19982">
        <ele>938.1</ele>
        <time>2019-06-03T06:48:12Z</time>
      </trkpt>
      <trkpt lat="46.71692" lon="6.19897">
        <ele>937.6</ele>
        <time>2019-06-03T06:48:31Z</time>
      </trkpt>
      <trkpt lat="46.71656" lon="6.19829">
        <ele>935.4</ele>
        <time>2019-06-03T06:48:45Z</time>
      </trkpt>
      <trkpt lat="46.71606" lon="6.19733">
        <ele>930.6</ele>
        <time>2019-06-03T06:48:59Z</time>
      </trkpt>
      <trkpt lat="46.71545" lon="6.19626">
        <ele>929.9</ele>
        <time>2019-06-03T06:49:15Z</time>
      </trkpt>
      <trkpt lat="46.71486" lon="6.19554">
        <ele>932.4</ele>
        <time>2019-06-03T06:49:29Z</time>
      </trkpt>
      <trkpt lat="46.71451" lon="6.19524">
        <ele>933.7</ele>
        <time>2019-06-03T06:49:37Z</time>
      </trkpt>
      <trkpt lat="46.71373" lon="6.19475">
        <ele>936.3</ele>
        <time>2019-06-03T06:49:55Z</time>
      </trkpt>
      <trkpt lat="46.71318" lon="6.1944">
        <ele>937.1</ele>
        <time>2019-06-03T06:50:09Z</time>
      </trkpt>
      <trkpt lat="46.71245" lon="6.19405">
        <ele>935.6</ele>
        <time>2019-06-03T06:50:26Z</time>
      </trkpt>
      <trkpt lat="46.71172" lon="6.19353">
        <ele>934.5</ele>
        <time>2019-06-03T06:50:41Z</time>
      </trkpt>
      <trkpt lat="46.71107" lon="6.19301">
        <ele>935.1</ele>
        <time>2019-06-03T06:50:56Z</time>
      </trkpt>
      <trkpt lat="46.711" lon="6.19294">
        <ele>935.1</ele>
        <time>2019-06-03T06:50:58Z</time>
      </trkpt>
      <trkpt lat="46.71042" lon="6.1925">
        <ele>935.4</ele>
        <time>2019-06-03T06:51:14Z</time>
      </trkpt>
      <trkpt lat="46.70993" lon="6.19202">
        <ele>935.2</ele>
        <time>2019-06-03T06:51:30Z</time>
      </trkpt>
      <trkpt lat="46.7099" lon="6.19199">
        <ele>935.2</ele>
        <time>2019-06-03T06:51:31Z</time>
      </trkpt>
      <trkpt lat="46.70982" lon="6.19201">
        <ele>935.1</ele>
        <time>2019-06-03T06:51:41Z</time>
      </trkpt>
      <trkpt lat="46.70982" lon="6.192">
        <ele>935.1</ele>
        <time>2019-06-03T06:51:45Z</time>
      </trkpt>
      <trkpt lat="46.7098" lon="6.19193">
        <ele>935.1</ele>
        <time>2019-06-03T06:51:48Z</time>
      </trkpt>
      <trkpt lat="46.71004" lon="6.19167">
        <ele>934.8</ele>
        <time>2019-06-03T06:52:50Z</time>
      </trkpt>
      <trkpt lat="46.70996" lon="6.19173">
        <ele>934.8</ele>
        <time>2019-06-03T06:53:04Z</time>
      </trkpt>
      <trkpt lat="46.70994" lon="6.19173">
        <ele>934.8</ele>
        <time>2019-06-03T06:53:06Z</time>
      </trkpt>
      <trkpt lat="46.70972" lon="6.19166">
        <ele>934.6</ele>
        <time>2019-06-03T06:53:13Z</time>
      </trkpt>
      <trkpt lat="46.70922" lon="6.19125">
        <ele>934.2</ele>
        <time>2019-06-03T06:53:28Z</time>
      </trkpt>
      <trkpt lat="46.70908" lon="6.19113">
        <ele>933.9</ele>
        <time>2019-06-03T06:53:32Z</time>
      </trkpt>
      <trkpt lat="46.7085" lon="6.19052">
        <ele>934.9</ele>
        <time>2019-06-03T06:53:48Z</time>
      </trkpt>
      <trkpt lat="46.70795" lon="6.18993">
        <ele>936.9</ele>
        <time>2019-06-03T06:54:03Z</time>
      </trkpt>
      <trkpt lat="46.70776" lon="6.18983">
        <ele>937.3</ele>
        <time>2019-06-03T06:54:08Z</time>
      </trkpt>
      <trkpt lat="46.70768" lon="6.18979">
        <ele>937.3</ele>
        <time>2019-06-03T06:54:10Z</time>
      </trkpt>
      <trkpt lat="46.70742" lon="6.18962">
        <ele>937.5</ele>
        <time>2019-06-03T06:54:22Z</time>
      </trkpt>
      <trkpt lat="46.70741" lon="6.18962">
        <ele>937.5</ele>
        <time>2019-06-03T06:54:39Z</time>
      </trkpt>
      <trkpt lat="46.70741" lon="6.18962">
        <ele>937.5</ele>
        <time>2019-06-03T06:54:49Z</time>
      </trkpt>
      <trkpt lat="46.70734" lon="6.1898">
        <ele>937.5</ele>
        <time>2019-06-03T07:09:11Z</time>
      </trkpt>
      <trkpt lat="46.70735" lon="6.18979">
        <ele>937.5</ele>
        <time>2019-06-03T07:09:12Z</time>
      </trkpt>
      <trkpt lat="46.7074" lon="6.18967">
        <ele>937.5</ele>
        <time>2019-06-03T07:09:29Z</time>
      </trkpt>
      <trkpt lat="46.70742" lon="6.18966">
        <ele>937.5</ele>
        <time>2019-06-03T07:09:36Z</time>
      </trkpt>
      <trkpt lat="46.70743" lon="6.18971">
        <ele>937.5</ele>
        <time>2019-06-03T07:09:39Z</time>
      </trkpt>
      <trkpt lat="46.70746" lon="6.18977">
        <ele>937.5</ele>
        <time>2019-06-03T07:09:43Z</time>
      </trkpt>
      <trkpt lat="46.70789" lon="6.18997">
        <ele>937</ele>
        <time>2019-06-03T07:09:58Z</time>
      </trkpt>
      <trkpt lat="46.70844" lon="6.19055">
        <ele>935</ele>
        <time>2019-06-03T07:10:13Z</time>
      </trkpt>
      <trkpt lat="46.70856" lon="6.19068">
        <ele>934.6</ele>
        <time>2019-06-03T07:10:16Z</time>
      </trkpt>
      <trkpt lat="46.70872" lon="6.19084">
        <ele>934</ele>
        <time>2019-06-03T07:10:20Z</time>
      </trkpt>
      <trkpt lat="46.70879" lon="6.19093">
        <ele>933.7</ele>
        <time>2019-06-03T07:10:22Z</time>
      </trkpt>
      <trkpt lat="46.70898" lon="6.19113">
        <ele>933.8</ele>
        <time>2019-06-03T07:10:27Z</time>
      </trkpt>
      <trkpt lat="46.7096" lon="6.19173">
        <ele>934.7</ele>
        <time>2019-06-03T07:10:43Z</time>
      </trkpt>
      <trkpt lat="46.70977" lon="6.19188">
        <ele>934.9</ele>
        <time>2019-06-03T07:10:47Z</time>
      </trkpt>
      <trkpt lat="46.71044" lon="6.19255">
        <ele>935.5</ele>
        <time>2019-06-03T07:11:03Z</time>
      </trkpt>
      <trkpt lat="46.71057" lon="6.19265">
        <ele>935.5</ele>
        <time>2019-06-03T07:11:06Z</time>
      </trkpt>
      <trkpt lat="46.71096" lon="6.19294">
        <ele>935.1</ele>
        <time>2019-06-03T07:11:15Z</time>
      </trkpt>
      <trkpt lat="46.71139" lon="6.19329">
        <ele>934.9</ele>
        <time>2019-06-03T07:11:27Z</time>
      </trkpt>
      <trkpt lat="46.71146" lon="6.19335">
        <ele>934.8</ele>
        <time>2019-06-03T07:11:29Z</time>
      </trkpt>
      <trkpt lat="46.71217" lon="6.1939">
        <ele>935.1</ele>
        <time>2019-06-03T07:11:45Z</time>
      </trkpt>
      <trkpt lat="46.71247" lon="6.19412">
        <ele>935.7</ele>
        <time>2019-06-03T07:11:52Z</time>
      </trkpt>
      <trkpt lat="46.71264" lon="6.19419">
        <ele>936.7</ele>
        <time>2019-06-03T07:11:56Z</time>
      </trkpt>
      <trkpt lat="46.71277" lon="6.19381">
        <ele>937.6</ele>
        <time>2019-06-03T07:12:05Z</time>
      </trkpt>
      <trkpt lat="46.71282" lon="6.19366">
        <ele>937.6</ele>
        <time>2019-06-03T07:12:09Z</time>
      </trkpt>
      <trkpt lat="46.71287" lon="6.19344">
        <ele>937.6</ele>
        <time>2019-06-03T07:12:15Z</time>
      </trkpt>
      <trkpt lat="46.71296" lon="6.19334">
        <ele>937.6</ele>
        <time>2019-06-03T07:12:20Z</time>
      </trkpt>
      <trkpt lat="46.71296" lon="6.19326">
        <ele>937.8</ele>
        <time>2019-06-03T07:12:24Z</time>
      </trkpt>
      <trkpt lat="46.71294" lon="6.19321">
        <ele>937.9</ele>
        <time>2019-06-03T07:12:36Z</time>
      </trkpt>
      <trkpt lat="46.71301" lon="6.19303">
        <ele>938.3</ele>
        <time>2019-06-03T07:12:45Z</time>
      </trkpt>
      <trkpt lat="46.71303" lon="6.1929">
        <ele>938.5</ele>
        <time>2019-06-03T07:12:49Z</time>
      </trkpt>
      <trkpt lat="46.71319" lon="6.1924">
        <ele>939.9</ele>
        <time>2019-06-03T07:13:03Z</time>
      </trkpt>
      <trkpt lat="46.71331" lon="6.19186">
        <ele>941.4</ele>
        <time>2019-06-03T07:13:16Z</time>
      </trkpt>
      <trkpt lat="46.71345" lon="6.19133">
        <ele>942.6</ele>
        <time>2019-06-03T07:13:29Z</time>
      </trkpt>
      <trkpt lat="46.71355" lon="6.19075">
        <ele>944.2</ele>
        <time>2019-06-03T07:13:42Z</time>
      </trkpt>
      <trkpt lat="46.71354" lon="6.19011">
        <ele>946</ele>
        <time>2019-06-03T07:13:56Z</time>
      </trkpt>
      <trkpt lat="46.71358" lon="6.18939">
        <ele>947.6</ele>
        <time>2019-06-03T07:14:11Z</time>
      </trkpt>
      <trkpt lat="46.71386" lon="6.18893">
        <ele>954.1</ele>
        <time>2019-06-03T07:14:24Z</time>
      </trkpt>
      <trkpt lat="46.71409" lon="6.18839">
        <ele>961.3</ele>
        <time>2019-06-03T07:14:37Z</time>
      </trkpt>
      <trkpt lat="46.71407" lon="6.18759">
        <ele>968.6</ele>
        <time>2019-06-03T07:14:53Z</time>
      </trkpt>
      <trkpt lat="46.71391" lon="6.18695">
        <ele>972.3</ele>
        <time>2019-06-03T07:15:08Z</time>
      </trkpt>
      <trkpt lat="46.71373" lon="6.18627">
        <ele>972.6</ele>
        <time>2019-06-03T07:15:24Z</time>
      </trkpt>
      <trkpt lat="46.71367" lon="6.18564">
        <ele>973.3</ele>
        <time>2019-06-03T07:15:38Z</time>
      </trkpt>
      <trkpt lat="46.71395" lon="6.18534">
        <ele>973.6</ele>
        <time>2019-06-03T07:15:48Z</time>
      </trkpt>
      <trkpt lat="46.71448" lon="6.18568">
        <ele>973.6</ele>
        <time>2019-06-03T07:16:02Z</time>
      </trkpt>
      <trkpt lat="46.71492" lon="6.18603">
        <ele>973.7</ele>
        <time>2019-06-03T07:16:15Z</time>
      </trkpt>
      <trkpt lat="46.715" lon="6.18602">
        <ele>973.7</ele>
        <time>2019-06-03T07:16:17Z</time>
      </trkpt>
      <trkpt lat="46.7152" lon="6.18579">
        <ele>973.9</ele>
        <time>2019-06-03T07:16:24Z</time>
      </trkpt>
      <trkpt lat="46.71527" lon="6.18515">
        <ele>974.5</ele>
        <time>2019-06-03T07:16:38Z</time>
      </trkpt>
      <trkpt lat="46.71549" lon="6.18463">
        <ele>974.6</ele>
        <time>2019-06-03T07:16:51Z</time>
      </trkpt>
      <trkpt lat="46.71598" lon="6.18434">
        <ele>974.8</ele>
        <time>2019-06-03T07:17:07Z</time>
      </trkpt>
      <trkpt lat="46.71637" lon="6.1843">
        <ele>978.1</ele>
        <time>2019-06-03T07:17:20Z</time>
      </trkpt>
      <trkpt lat="46.71678" lon="6.18431">
        <ele>983</ele>
        <time>2019-06-03T07:17:33Z</time>
      </trkpt>
      <trkpt lat="46.71711" lon="6.18435">
        <ele>986.6</ele>
        <time>2019-06-03T07:17:43Z</time>
      </trkpt>
      <trkpt lat="46.71757" lon="6.18431">
        <ele>991.6</ele>
        <time>2019-06-03T07:17:57Z</time>
      </trkpt>
      <trkpt lat="46.71799" lon="6.1842">
        <ele>995</ele>
        <time>2019-06-03T07:18:11Z</time>
      </trkpt>
      <trkpt lat="46.71817" lon="6.18418">
        <ele>996.7</ele>
        <time>2019-06-03T07:18:19Z</time>
      </trkpt>
      <trkpt lat="46.71816" lon="6.18411">
        <ele>997.2</ele>
        <time>2019-06-03T07:18:24Z</time>
      </trkpt>
      <trkpt lat="46.71799" lon="6.18417">
        <ele>995.4</ele>
        <time>2019-06-03T07:18:31Z</time>
      </trkpt>
      <trkpt lat="46.71791" lon="6.18419">
        <ele>994.7</ele>
        <time>2019-06-03T07:18:33Z</time>
      </trkpt>
      <trkpt lat="46.71761" lon="6.18423">
        <ele>992.3</ele>
        <time>2019-06-03T07:18:39Z</time>
      </trkpt>
      <trkpt lat="46.71709" lon="6.18429">
        <ele>986.6</ele>
        <time>2019-06-03T07:18:51Z</time>
      </trkpt>
      <trkpt lat="46.71719" lon="6.18434">
        <ele>987.9</ele>
        <time>2019-06-03T07:18:56Z</time>
      </trkpt>
      <trkpt lat="46.71765" lon="6.18425">
        <ele>992.8</ele>
        <time>2019-06-03T07:19:11Z</time>
      </trkpt>
      <trkpt lat="46.71804" lon="6.18419">
        <ele>996</ele>
        <time>2019-06-03T07:19:24Z</time>
      </trkpt>
      <trkpt lat="46.71846" lon="6.18413">
        <ele>1000</ele>
        <time>2019-06-03T07:19:37Z</time>
      </trkpt>
      <trkpt lat="46.71883" lon="6.18412">
        <ele>1003.6</ele>
        <time>2019-06-03T07:19:47Z</time>
      </trkpt>
      <trkpt lat="46.71896" lon="6.18411">
        <ele>1004.7</ele>
        <time>2019-06-03T07:19:50Z</time>
      </trkpt>
      <trkpt lat="46.71917" lon="6.18409">
        <ele>1006.4</ele>
        <time>2019-06-03T07:19:55Z</time>
      </trkpt>
      <trkpt lat="46.71931" lon="6.18408">
        <ele>1007.4</ele>
        <time>2019-06-03T07:19:58Z</time>
      </trkpt>
      <trkpt lat="46.72011" lon="6.18427">
        <ele>1011.4</ele>
        <time>2019-06-03T07:20:14Z</time>
      </trkpt>
      <trkpt lat="46.72054" lon="6.18443">
        <ele>1010.2</ele>
        <time>2019-06-03T07:20:23Z</time>
      </trkpt>
      <trkpt lat="46.72078" lon="6.18452">
        <ele>1009.7</ele>
        <time>2019-06-03T07:20:29Z</time>
      </trkpt>
      <trkpt lat="46.7209" lon="6.18455">
        <ele>1009.4</ele>
        <time>2019-06-03T07:20:32Z</time>
      </trkpt>
      <trkpt lat="46.72136" lon="6.18473">
        <ele>1009</ele>
        <time>2019-06-03T07:20:44Z</time>
      </trkpt>
      <trkpt lat="46.72173" lon="6.18484">
        <ele>1008.7</ele>
        <time>2019-06-03T07:20:55Z</time>
      </trkpt>
      <trkpt lat="46.7219" lon="6.18481">
        <ele>1008.7</ele>
        <time>2019-06-03T07:20:58Z</time>
      </trkpt>
      <trkpt lat="46.72238" lon="6.18455">
        <ele>1009.1</ele>
        <time>2019-06-03T07:21:11Z</time>
      </trkpt>
      <trkpt lat="46.72286" lon="6.18407">
        <ele>1007.1</ele>
        <time>2019-06-03T07:21:25Z</time>
      </trkpt>
      <trkpt lat="46.72299" lon="6.18384">
        <ele>1006.7</ele>
        <time>2019-06-03T07:21:30Z</time>
      </trkpt>
      <trkpt lat="46.72313" lon="6.1836">
        <ele>1006.5</ele>
        <time>2019-06-03T07:21:35Z</time>
      </trkpt>
      <trkpt lat="46.72332" lon="6.18328">
        <ele>1006</ele>
        <time>2019-06-03T07:21:43Z</time>
      </trkpt>
      <trkpt lat="46.72337" lon="6.18318">
        <ele>1005.9</ele>
        <time>2019-06-03T07:21:45Z</time>
      </trkpt>
      <trkpt lat="46.72379" lon="6.18253">
        <ele>1005.1</ele>
        <time>2019-06-03T07:21:54Z</time>
      </trkpt>
      <trkpt lat="46.72383" lon="6.18245">
        <ele>1005</ele>
        <time>2019-06-03T07:21:55Z</time>
      </trkpt>
      <trkpt lat="46.72373" lon="6.18223">
        <ele>1004.8</ele>
        <time>2019-06-03T07:22:03Z</time>
      </trkpt>
      <trkpt lat="46.72353" lon="6.18254">
        <ele>1004.9</ele>
        <time>2019-06-03T07:22:10Z</time>
      </trkpt>
      <trkpt lat="46.72351" lon="6.18266">
        <ele>1005.1</ele>
        <time>2019-06-03T07:22:12Z</time>
      </trkpt>
      <trkpt lat="46.72336" lon="6.1833">
        <ele>1006.3</ele>
        <time>2019-06-03T07:22:23Z</time>
      </trkpt>
      <trkpt lat="46.72336" lon="6.18334">
        <ele>1006.3</ele>
        <time>2019-06-03T07:22:36Z</time>
      </trkpt>
      <trkpt lat="46.72336" lon="6.18334">
        <ele>1006.3</ele>
        <time>2019-06-03T07:22:42Z</time>
      </trkpt>
      <trkpt lat="46.72343" lon="6.18334">
        <ele>1006.2</ele>
        <time>2019-06-03T07:22:50Z</time>
      </trkpt>
      <trkpt lat="46.72343" lon="6.18334">
        <ele>1006.2</ele>
        <time>2019-06-03T07:22:51Z</time>
      </trkpt>
      <trkpt lat="46.72339" lon="6.18349">
        <ele>1006.2</ele>
        <time>2019-06-03T07:23:03Z</time>
      </trkpt>
      <trkpt lat="46.72337" lon="6.18349">
        <ele>1006.3</ele>
        <time>2019-06-03T07:23:20Z</time>
      </trkpt>
      <trkpt lat="46.72343" lon="6.18352">
        <ele>1006.6</ele>
        <time>2019-06-03T07:23:26Z</time>
      </trkpt>
      <trkpt lat="46.72352" lon="6.18356">
        <ele>1007.4</ele>
        <time>2019-06-03T07:23:32Z</time>
      </trkpt>
      <trkpt lat="46.72356" lon="6.18365">
        <ele>1008.5</ele>
        <time>2019-06-03T07:23:37Z</time>
      </trkpt>
      <trkpt lat="46.7236" lon="6.18374">
        <ele>1008</ele>
        <time>2019-06-03T07:23:41Z</time>
      </trkpt>
      <trkpt lat="46.72363" lon="6.18375">
        <ele>1007.7</ele>
        <time>2019-06-03T07:23:44Z</time>
      </trkpt>
      <trkpt lat="46.72359" lon="6.18369">
        <ele>1007.2</ele>
        <time>2019-06-03T07:23:48Z</time>
      </trkpt>
      <trkpt lat="46.72337" lon="6.18336">
        <ele>1006.3</ele>
        <time>2019-06-03T07:23:59Z</time>
      </trkpt>
      <trkpt lat="46.72329" lon="6.18331">
        <ele>1006.3</ele>
        <time>2019-06-03T07:24:09Z</time>
      </trkpt>
      <trkpt lat="46.72326" lon="6.1833">
        <ele>1006.3</ele>
        <time>2019-06-03T07:24:15Z</time>
      </trkpt>
      <trkpt lat="46.72331" lon="6.18318">
        <ele>1005.8</ele>
        <time>2019-06-03T07:24:22Z</time>
      </trkpt>
      <trkpt lat="46.72337" lon="6.18303">
        <ele>1005.5</ele>
        <time>2019-06-03T07:24:26Z</time>
      </trkpt>
      <trkpt lat="46.72348" lon="6.18284">
        <ele>1005.1</ele>
        <time>2019-06-03T07:24:30Z</time>
      </trkpt>
      <trkpt lat="46.72346" lon="6.18252">
        <ele>1004.5</ele>
        <time>2019-06-03T07:24:38Z</time>
      </trkpt>
      <trkpt lat="46.72347" lon="6.18246">
        <ele>1004.3</ele>
        <time>2019-06-03T07:24:39Z</time>
      </trkpt>
      <trkpt lat="46.72329" lon="6.18225">
        <ele>1003.6</ele>
        <time>2019-06-03T07:24:46Z</time>
      </trkpt>
      <trkpt lat="46.72327" lon="6.18218">
        <ele>1003.4</ele>
        <time>2019-06-03T07:24:48Z</time>
      </trkpt>
      <trkpt lat="46.72311" lon="6.18205">
        <ele>1002.7</ele>
        <time>2019-06-03T07:24:53Z</time>
      </trkpt>
      <trkpt lat="46.72297" lon="6.18193">
        <ele>1002.1</ele>
        <time>2019-06-03T07:24:59Z</time>
      </trkpt>
      <trkpt lat="46.72292" lon="6.18185">
        <ele>1001.8</ele>
        <time>2019-06-03T07:25:02Z</time>
      </trkpt>
      <trkpt lat="46.72274" lon="6.18169">
        <ele>1001.1</ele>
        <time>2019-06-03T07:25:11Z</time>
      </trkpt>
      <trkpt lat="46.72271" lon="6.18118">
        <ele>999.9</ele>
        <time>2019-06-03T07:25:25Z</time>
      </trkpt>
      <trkpt lat="46.72296" lon="6.18063">
        <ele>998.7</ele>
        <time>2019-06-03T07:25:40Z</time>
      </trkpt>
      <trkpt lat="46.72313" lon="6.18013">
        <ele>997.7</ele>
        <time>2019-06-03T07:25:52Z</time>
      </trkpt>
      <trkpt lat="46.72344" lon="6.17949">
        <ele>996.5</ele>
        <time>2019-06-03T07:26:07Z</time>
      </trkpt>
      <trkpt lat="46.72362" lon="6.17876">
        <ele>997.9</ele>
        <time>2019-06-03T07:26:22Z</time>
      </trkpt>
      <trkpt lat="46.72344" lon="6.17817">
        <ele>999</ele>
        <time>2019-06-03T07:26:35Z</time>
      </trkpt>
      <trkpt lat="46.72321" lon="6.17769">
        <ele>999.9</ele>
        <time>2019-06-03T07:26:47Z</time>
      </trkpt>
      <trkpt lat="46.72298" lon="6.17724">
        <ele>1000.5</ele>
        <time>2019-06-03T07:26:56Z</time>
      </trkpt>
      <trkpt lat="46.72261" lon="6.17674">
        <ele>1001.4</ele>
        <time>2019-06-03T07:27:08Z</time>
      </trkpt>
      <trkpt lat="46.72206" lon="6.17605">
        <ele>1001.9</ele>
        <time>2019-06-03T07:27:24Z</time>
      </trkpt>
      <trkpt lat="46.72148" lon="6.17538">
        <ele>1003.1</ele>
        <time>2019-06-03T07:27:39Z</time>
      </trkpt>
      <trkpt lat="46.72085" lon="6.17464">
        <ele>1003.1</ele>
        <time>2019-06-03T07:27:54Z</time>
      </trkpt>
      <trkpt lat="46.72022" lon="6.17393">
        <ele>1003.2</ele>
        <time>2019-06-03T07:28:09Z</time>
      </trkpt>
      <trkpt lat="46.71988" lon="6.1736">
        <ele>1003.3</ele>
        <time>2019-06-03T07:28:17Z</time>
      </trkpt>
      <trkpt lat="46.7198" lon="6.17352">
        <ele>1003.2</ele>
        <time>2019-06-03T07:28:19Z</time>
      </trkpt>
      <trkpt lat="46.71969" lon="6.17323">
        <ele>1004.1</ele>
        <time>2019-06-03T07:28:24Z</time>
      </trkpt>
      <trkpt lat="46.71968" lon="6.17311">
        <ele>1004.7</ele>
        <time>2019-06-03T07:28:26Z</time>
      </trkpt>
      <trkpt lat="46.71967" lon="6.17283">
        <ele>1006.1</ele>
        <time>2019-06-03T07:28:31Z</time>
      </trkpt>
      <trkpt lat="46.71964" lon="6.17209">
        <ele>1007.8</ele>
        <time>2019-06-03T07:28:45Z</time>
      </trkpt>
      <trkpt lat="46.71956" lon="6.17164">
        <ele>1008.6</ele>
        <time>2019-06-03T07:28:57Z</time>
      </trkpt>
      <trkpt lat="46.7194" lon="6.17138">
        <ele>1010.1</ele>
        <time>2019-06-03T07:29:09Z</time>
      </trkpt>
      <trkpt lat="46.7192" lon="6.17115">
        <ele>1011.7</ele>
        <time>2019-06-03T07:29:20Z</time>
      </trkpt>
      <trkpt lat="46.71913" lon="6.17128">
        <ele>1010.6</ele>
        <time>2019-06-03T07:29:31Z</time>
      </trkpt>
      <trkpt lat="46.71917" lon="6.1713">
        <ele>1010.9</ele>
        <time>2019-06-03T07:29:38Z</time>
      </trkpt>
      <trkpt lat="46.7192" lon="6.17128">
        <ele>1011.2</ele>
        <time>2019-06-03T07:29:40Z</time>
      </trkpt>
      <trkpt lat="46.71909" lon="6.171">
        <ele>1012.1</ele>
        <time>2019-06-03T07:29:50Z</time>
      </trkpt>
      <trkpt lat="46.7189" lon="6.17066">
        <ele>1012.9</ele>
        <time>2019-06-03T07:30:02Z</time>
      </trkpt>
      <trkpt lat="46.71871" lon="6.17028">
        <ele>1013.9</ele>
        <time>2019-06-03T07:30:13Z</time>
      </trkpt>
      <trkpt lat="46.71845" lon="6.16966">
        <ele>1016.1</ele>
        <time>2019-06-03T07:30:26Z</time>
      </trkpt>
      <trkpt lat="46.71815" lon="6.16908">
        <ele>1017.4</ele>
        <time>2019-06-03T07:30:39Z</time>
      </trkpt>
      <trkpt lat="46.71782" lon="6.16864">
        <ele>1018.9</ele>
        <time>2019-06-03T07:30:51Z</time>
      </trkpt>
      <trkpt lat="46.71758" lon="6.16809">
        <ele>1017.4</ele>
        <time>2019-06-03T07:31:04Z</time>
      </trkpt>
      <trkpt lat="46.71757" lon="6.16798">
        <ele>1017.3</ele>
        <time>2019-06-03T07:31:07Z</time>
      </trkpt>
      <trkpt lat="46.71755" lon="6.16806">
        <ele>1017.2</ele>
        <time>2019-06-03T07:31:13Z</time>
      </trkpt>
      <trkpt lat="46.71758" lon="6.16823">
        <ele>1017.1</ele>
        <time>2019-06-03T07:31:20Z</time>
      </trkpt>
      <trkpt lat="46.71757" lon="6.16805">
        <ele>1017</ele>
        <time>2019-06-03T07:31:27Z</time>
      </trkpt>
      <trkpt lat="46.71752" lon="6.16784">
        <ele>1017.1</ele>
        <time>2019-06-03T07:31:31Z</time>
      </trkpt>
      <trkpt lat="46.71749" lon="6.16711">
        <ele>1017.9</ele>
        <time>2019-06-03T07:31:41Z</time>
      </trkpt>
      <trkpt lat="46.71743" lon="6.16679">
        <ele>1018.4</ele>
        <time>2019-06-03T07:31:46Z</time>
      </trkpt>
      <trkpt lat="46.71738" lon="6.16667">
        <ele>1018.6</ele>
        <time>2019-06-03T07:31:48Z</time>
      </trkpt>
      <trkpt lat="46.71732" lon="6.16657">
        <ele>1018.8</ele>
        <time>2019-06-03T07:31:50Z</time>
      </trkpt>
      <trkpt lat="46.71688" lon="6.16589">
        <ele>1020.4</ele>
        <time>2019-06-03T07:32:05Z</time>
      </trkpt>
      <trkpt lat="46.7166" lon="6.1654">
        <ele>1021.1</ele>
        <time>2019-06-03T07:32:17Z</time>
      </trkpt>
      <trkpt lat="46.71654" lon="6.16491">
        <ele>1020.8</ele>
        <time>2019-06-03T07:32:27Z</time>
      </trkpt>
      <trkpt lat="46.71672" lon="6.16456">
        <ele>1021.1</ele>
        <time>2019-06-03T07:32:37Z</time>
      </trkpt>
      <trkpt lat="46.71692" lon="6.16409">
        <ele>1022.8</ele>
        <time>2019-06-03T07:32:50Z</time>
      </trkpt>
      <trkpt lat="46.71718" lon="6.16399">
        <ele>1024.1</ele>
        <time>2019-06-03T07:32:59Z</time>
      </trkpt>
      <trkpt lat="46.71723" lon="6.16393">
        <ele>1024.4</ele>
        <time>2019-06-03T07:33:11Z</time>
      </trkpt>
      <trkpt lat="46.71723" lon="6.16393">
        <ele>1024.4</ele>
        <time>2019-06-03T07:33:43Z</time>
      </trkpt>
      <trkpt lat="46.71727" lon="6.16398">
        <ele>1024.7</ele>
        <time>2019-06-03T07:33:47Z</time>
      </trkpt>
      <trkpt lat="46.71745" lon="6.16411">
        <ele>1025.6</ele>
        <time>2019-06-03T07:33:53Z</time>
      </trkpt>
      <trkpt lat="46.71807" lon="6.16421">
        <ele>1029.7</ele>
        <time>2019-06-03T07:34:10Z</time>
      </trkpt>
      <trkpt lat="46.7184" lon="6.16407">
        <ele>1031.6</ele>
        <time>2019-06-03T07:34:19Z</time>
      </trkpt>
      <trkpt lat="46.71887" lon="6.16351">
        <ele>1035.4</ele>
        <time>2019-06-03T07:34:35Z</time>
      </trkpt>
      <trkpt lat="46.71926" lon="6.16281">
        <ele>1038.9</ele>
        <time>2019-06-03T07:34:51Z</time>
      </trkpt>
      <trkpt lat="46.71939" lon="6.16195">
        <ele>1042.1</ele>
        <time>2019-06-03T07:35:07Z</time>
      </trkpt>
      <trkpt lat="46.71948" lon="6.16132">
        <ele>1044.3</ele>
        <time>2019-06-03T07:35:19Z</time>
      </trkpt>
      <trkpt lat="46.71961" lon="6.16038">
        <ele>1047.6</ele>
        <time>2019-06-03T07:35:37Z</time>
      </trkpt>
      <trkpt lat="46.71971" lon="6.1595">
        <ele>1051.3</ele>
        <time>2019-06-03T07:35:53Z</time>
      </trkpt>
      <trkpt lat="46.71958" lon="6.1589">
        <ele>1054.3</ele>
        <time>2019-06-03T07:36:05Z</time>
      </trkpt>
      <trkpt lat="46.71926" lon="6.1583">
        <ele>1058.1</ele>
        <time>2019-06-03T07:36:20Z</time>
      </trkpt>
      <trkpt lat="46.71891" lon="6.15765">
        <ele>1061.7</ele>
        <time>2019-06-03T07:36:37Z</time>
      </trkpt>
      <trkpt lat="46.7187" lon="6.1572">
        <ele>1064.4</ele>
        <time>2019-06-03T07:36:49Z</time>
      </trkpt>
      <trkpt lat="46.71854" lon="6.15687">
        <ele>1066.1</ele>
        <time>2019-06-03T07:36:58Z</time>
      </trkpt>
      <trkpt lat="46.71851" lon="6.15679">
        <ele>1066.5</ele>
        <time>2019-06-03T07:37:00Z</time>
      </trkpt>
      <trkpt lat="46.71843" lon="6.15658">
        <ele>1067.4</ele>
        <time>2019-06-03T07:37:05Z</time>
      </trkpt>
      <trkpt lat="46.71833" lon="6.15614">
        <ele>1069.2</ele>
        <time>2019-06-03T07:37:15Z</time>
      </trkpt>
      <trkpt lat="46.71818" lon="6.15545">
        <ele>1072.5</ele>
        <time>2019-06-03T07:37:29Z</time>
      </trkpt>
      <trkpt lat="46.71814" lon="6.15486">
        <ele>1075.2</ele>
        <time>2019-06-03T07:37:40Z</time>
      </trkpt>
      <trkpt lat="46.71832" lon="6.15446">
        <ele>1077.1</ele>
        <time>2019-06-03T07:37:50Z</time>
      </trkpt>
      <trkpt lat="46.71868" lon="6.1543">
        <ele>1079.1</ele>
        <time>2019-06-03T07:38:01Z</time>
      </trkpt>
      <trkpt lat="46.71912" lon="6.15421">
        <ele>1081.1</ele>
        <time>2019-06-03T07:38:14Z</time>
      </trkpt>
      <trkpt lat="46.71921" lon="6.15427">
        <ele>1081.4</ele>
        <time>2019-06-03T07:38:17Z</time>
      </trkpt>
      <trkpt lat="46.71924" lon="6.15427">
        <ele>1081.6</ele>
        <time>2019-06-03T07:38:19Z</time>
      </trkpt>
      <trkpt lat="46.71913" lon="6.15419">
        <ele>1081.1</ele>
        <time>2019-06-03T07:38:26Z</time>
      </trkpt>
      <trkpt lat="46.71881" lon="6.15421">
        <ele>1079.6</ele>
        <time>2019-06-03T07:38:38Z</time>
      </trkpt>
      <trkpt lat="46.71839" lon="6.15435">
        <ele>1077.5</ele>
        <time>2019-06-03T07:38:51Z</time>
      </trkpt>
      <trkpt lat="46.71809" lon="6.15459">
        <ele>1075.7</ele>
        <time>2019-06-03T07:39:02Z</time>
      </trkpt>
      <trkpt lat="46.71806" lon="6.15469">
        <ele>1075.3</ele>
        <time>2019-06-03T07:39:06Z</time>
      </trkpt>
      <trkpt lat="46.7181" lon="6.15473">
        <ele>1075.7</ele>
        <time>2019-06-03T07:39:11Z</time>
      </trkpt>
      <trkpt lat="46.7182" lon="6.15455">
        <ele>1076.6</ele>
        <time>2019-06-03T07:39:17Z</time>
      </trkpt>
      <trkpt lat="46.71859" lon="6.15433">
        <ele>1078.6</ele>
        <time>2019-06-03T07:39:31Z</time>
      </trkpt>
      <trkpt lat="46.71898" lon="6.15419">
        <ele>1080.4</ele>
        <time>2019-06-03T07:39:43Z</time>
      </trkpt>
      <trkpt lat="46.71932" lon="6.15434">
        <ele>1081.9</ele>
        <time>2019-06-03T07:39:56Z</time>
      </trkpt>
      <trkpt lat="46.71952" lon="6.15454">
        <ele>1082.5</ele>
        <time>2019-06-03T07:40:06Z</time>
      </trkpt>
      <trkpt lat="46.71973" lon="6.15471">
        <ele>1083</ele>
        <time>2019-06-03T07:40:17Z</time>
      </trkpt>
      <trkpt lat="46.71977" lon="6.15471">
        <ele>1083</ele>
        <time>2019-06-03T07:40:18Z</time>
      </trkpt>
      <trkpt lat="46.72004" lon="6.15479">
        <ele>1083.7</ele>
        <time>2019-06-03T07:40:28Z</time>
      </trkpt>
      <trkpt lat="46.72023" lon="6.15482">
        <ele>1084.2</ele>
        <time>2019-06-03T07:40:34Z</time>
      </trkpt>
      <trkpt lat="46.7206" lon="6.15493">
        <ele>1085.1</ele>
        <time>2019-06-03T07:40:44Z</time>
      </trkpt>
      <trkpt lat="46.72098" lon="6.1551">
        <ele>1086.5</ele>
        <time>2019-06-03T07:40:55Z</time>
      </trkpt>
      <trkpt lat="46.72134" lon="6.15523">
        <ele>1088.4</ele>
        <time>2019-06-03T07:41:05Z</time>
      </trkpt>
      <trkpt lat="46.72146" lon="6.15522">
        <ele>1089</ele>
        <time>2019-06-03T07:41:10Z</time>
      </trkpt>
      <trkpt lat="46.72152" lon="6.1552">
        <ele>1089.4</ele>
        <time>2019-06-03T07:41:13Z</time>
      </trkpt>
      <trkpt lat="46.72149" lon="6.15515">
        <ele>1089.6</ele>
        <time>2019-06-03T07:41:23Z</time>
      </trkpt>
      <trkpt lat="46.72143" lon="6.15523">
        <ele>1090.1</ele>
        <time>2019-06-03T07:41:28Z</time>
      </trkpt>
      <trkpt lat="46.72176" lon="6.15502">
        <ele>1091.9</ele>
        <time>2019-06-03T07:41:43Z</time>
      </trkpt>
      <trkpt lat="46.72191" lon="6.15487">
        <ele>1093</ele>
        <time>2019-06-03T07:41:50Z</time>
      </trkpt>
      <trkpt lat="46.72199" lon="6.15474">
        <ele>1093.7</ele>
        <time>2019-06-03T07:41:55Z</time>
      </trkpt>
      <trkpt lat="46.72204" lon="6.15467">
        <ele>1094.2</ele>
        <time>2019-06-03T07:41:58Z</time>
      </trkpt>
      <trkpt lat="46.72215" lon="6.15454">
        <ele>1095.1</ele>
        <time>2019-06-03T07:42:03Z</time>
      </trkpt>
      <trkpt lat="46.72243" lon="6.15411">
        <ele>1097.6</ele>
        <time>2019-06-03T07:42:17Z</time>
      </trkpt>
      <trkpt lat="46.7227" lon="6.15379">
        <ele>1099.4</ele>
        <time>2019-06-03T07:42:29Z</time>
      </trkpt>
      <trkpt lat="46.72301" lon="6.15358">
        <ele>1100.7</ele>
        <time>2019-06-03T07:42:40Z</time>
      </trkpt>
      <trkpt lat="46.72329" lon="6.15336">
        <ele>1101.5</ele>
        <time>2019-06-03T07:42:49Z</time>
      </trkpt>
      <trkpt lat="46.72343" lon="6.15325">
        <ele>1101.9</ele>
        <time>2019-06-03T07:42:54Z</time>
      </trkpt>
      <trkpt lat="46.72385" lon="6.15292">
        <ele>1104</ele>
        <time>2019-06-03T07:43:07Z</time>
      </trkpt>
      <trkpt lat="46.72424" lon="6.15265">
        <ele>1106.5</ele>
        <time>2019-06-03T07:43:20Z</time>
      </trkpt>
      <trkpt lat="46.72461" lon="6.15244">
        <ele>1108.9</ele>
        <time>2019-06-03T07:43:31Z</time>
      </trkpt>
      <trkpt lat="46.72472" lon="6.15241">
        <ele>1109.6</ele>
        <time>2019-06-03T07:43:36Z</time>
      </trkpt>
      <trkpt lat="46.72503" lon="6.15233">
        <ele>1110.9</ele>
        <time>2019-06-03T07:43:46Z</time>
      </trkpt>
      <trkpt lat="46.72562" lon="6.15227">
        <ele>1113.3</ele>
        <time>2019-06-03T07:43:58Z</time>
      </trkpt>
      <trkpt lat="46.72582" lon="6.15191">
        <ele>1114.1</ele>
        <time>2019-06-03T07:44:08Z</time>
      </trkpt>
      <trkpt lat="46.72574" lon="6.15176">
        <ele>1114.4</ele>
        <time>2019-06-03T07:44:12Z</time>
      </trkpt>
      <trkpt lat="46.72557" lon="6.15173">
        <ele>1114.7</ele>
        <time>2019-06-03T07:44:18Z</time>
      </trkpt>
      <trkpt lat="46.72537" lon="6.1518">
        <ele>1115.5</ele>
        <time>2019-06-03T07:44:25Z</time>
      </trkpt>
      <trkpt lat="46.72516" lon="6.15181">
        <ele>1116.2</ele>
        <time>2019-06-03T07:44:33Z</time>
      </trkpt>
      <trkpt lat="46.72513" lon="6.15183">
        <ele>1116.3</ele>
        <time>2019-06-03T07:44:34Z</time>
      </trkpt>
      <trkpt lat="46.72485" lon="6.15198">
        <ele>1117.9</ele>
        <time>2019-06-03T07:44:43Z</time>
      </trkpt>
      <trkpt lat="46.72454" lon="6.15213">
        <ele>1119.8</ele>
        <time>2019-06-03T07:44:53Z</time>
      </trkpt>
      <trkpt lat="46.72416" lon="6.15226">
        <ele>1122.5</ele>
        <time>2019-06-03T07:45:05Z</time>
      </trkpt>
      <trkpt lat="46.72387" lon="6.15228">
        <ele>1123.9</ele>
        <time>2019-06-03T07:45:12Z</time>
      </trkpt>
      <trkpt lat="46.72387" lon="6.15185">
        <ele>1125.3</ele>
        <time>2019-06-03T07:45:19Z</time>
      </trkpt>
      <trkpt lat="46.72392" lon="6.15179">
        <ele>1125.4</ele>
        <time>2019-06-03T07:45:21Z</time>
      </trkpt>
      <trkpt lat="46.72395" lon="6.15175">
        <ele>1125.5</ele>
        <time>2019-06-03T07:45:22Z</time>
      </trkpt>
      <trkpt lat="46.72405" lon="6.15138">
        <ele>1125.9</ele>
        <time>2019-06-03T07:45:27Z</time>
      </trkpt>
      <trkpt lat="46.72371" lon="6.15102">
        <ele>1126.2</ele>
        <time>2019-06-03T07:45:37Z</time>
      </trkpt>
      <trkpt lat="46.72347" lon="6.1511">
        <ele>1126.1</ele>
        <time>2019-06-03T07:45:44Z</time>
      </trkpt>
      <trkpt lat="46.72314" lon="6.15117">
        <ele>1125.7</ele>
        <time>2019-06-03T07:45:54Z</time>
      </trkpt>
      <trkpt lat="46.72303" lon="6.15116">
        <ele>1125.6</ele>
        <time>2019-06-03T07:45:59Z</time>
      </trkpt>
      <trkpt lat="46.723" lon="6.15083">
        <ele>1125.8</ele>
        <time>2019-06-03T07:46:07Z</time>
      </trkpt>
      <trkpt lat="46.72307" lon="6.1507">
        <ele>1126</ele>
        <time>2019-06-03T07:46:12Z</time>
      </trkpt>
      <trkpt lat="46.72328" lon="6.15058">
        <ele>1126.7</ele>
        <time>2019-06-03T07:46:24Z</time>
      </trkpt>
      <trkpt lat="46.72352" lon="6.15045">
        <ele>1127.6</ele>
        <time>2019-06-03T07:46:33Z</time>
      </trkpt>
      <trkpt lat="46.72378" lon="6.1503">
        <ele>1129</ele>
        <time>2019-06-03T07:46:43Z</time>
      </trkpt>
      <trkpt lat="46.72379" lon="6.15027">
        <ele>1129.1</ele>
        <time>2019-06-03T07:46:44Z</time>
      </trkpt>
      <trkpt lat="46.72381" lon="6.1502">
        <ele>1129.4</ele>
        <time>2019-06-03T07:46:51Z</time>
      </trkpt>
      <trkpt lat="46.72385" lon="6.15017">
        <ele>1129.6</ele>
        <time>2019-06-03T07:46:58Z</time>
      </trkpt>
      <trkpt lat="46.72383" lon="6.15024">
        <ele>1129.9</ele>
        <time>2019-06-03T07:47:04Z</time>
      </trkpt>
      <trkpt lat="46.72384" lon="6.15021">
        <ele>1130</ele>
        <time>2019-06-03T07:47:06Z</time>
      </trkpt>
      <trkpt lat="46.72386" lon="6.15018">
        <ele>1130.1</ele>
        <time>2019-06-03T07:47:09Z</time>
      </trkpt>
      <trkpt lat="46.72385" lon="6.15015">
        <ele>1130.2</ele>
        <time>2019-06-03T07:47:12Z</time>
      </trkpt>
      <trkpt lat="46.72379" lon="6.15018">
        <ele>1130.6</ele>
        <time>2019-06-03T07:47:15Z</time>
      </trkpt>
      <trkpt lat="46.72383" lon="6.15015">
        <ele>1130.8</ele>
        <time>2019-06-03T07:47:20Z</time>
      </trkpt>
      <trkpt lat="46.72385" lon="6.1501">
        <ele>1131</ele>
        <time>2019-06-03T07:47:24Z</time>
      </trkpt>
      <trkpt lat="46.72371" lon="6.15028">
        <ele>1132</ele>
        <time>2019-06-03T07:47:31Z</time>
      </trkpt>
      <trkpt lat="46.72357" lon="6.15037">
        <ele>1132.8</ele>
        <time>2019-06-03T07:47:39Z</time>
      </trkpt>
      <trkpt lat="46.72353" lon="6.15037">
        <ele>1132.9</ele>
        <time>2019-06-03T07:47:43Z</time>
      </trkpt>
      <trkpt lat="46.72367" lon="6.15036">
        <ele>1133.6</ele>
        <time>2019-06-03T07:47:52Z</time>
      </trkpt>
      <trkpt lat="46.72387" lon="6.15018">
        <ele>1135.1</ele>
        <time>2019-06-03T07:48:02Z</time>
      </trkpt>
      <trkpt lat="46.72389" lon="6.15015">
        <ele>1135.4</ele>
        <time>2019-06-03T07:48:03Z</time>
      </trkpt>
      <trkpt lat="46.72394" lon="6.14997">
        <ele>1136.4</ele>
        <time>2019-06-03T07:48:08Z</time>
      </trkpt>
      <trkpt lat="46.724" lon="6.14984">
        <ele>1137.2</ele>
        <time>2019-06-03T07:48:12Z</time>
      </trkpt>
      <trkpt lat="46.72408" lon="6.14962">
        <ele>1138.2</ele>
        <time>2019-06-03T07:48:18Z</time>
      </trkpt>
      <trkpt lat="46.72425" lon="6.14928">
        <ele>1140</ele>
        <time>2019-06-03T07:48:30Z</time>
      </trkpt>
      <trkpt lat="46.72427" lon="6.14926">
        <ele>1140.2</ele>
        <time>2019-06-03T07:48:31Z</time>
      </trkpt>
      <trkpt lat="46.72433" lon="6.14917">
        <ele>1140.9</ele>
        <time>2019-06-03T07:48:35Z</time>
      </trkpt>
      <trkpt lat="46.72443" lon="6.14909">
        <ele>1141.7</ele>
        <time>2019-06-03T07:48:41Z</time>
      </trkpt>
      <trkpt lat="46.72451" lon="6.14903">
        <ele>1142.4</ele>
        <time>2019-06-03T07:48:45Z</time>
      </trkpt>
      <trkpt lat="46.72472" lon="6.14887">
        <ele>1144.1</ele>
        <time>2019-06-03T07:48:54Z</time>
      </trkpt>
      <trkpt lat="46.72479" lon="6.14884">
        <ele>1144.6</ele>
        <time>2019-06-03T07:48:56Z</time>
      </trkpt>
      <trkpt lat="46.72512" lon="6.1488">
        <ele>1147</ele>
        <time>2019-06-03T07:49:06Z</time>
      </trkpt>
      <trkpt lat="46.72528" lon="6.14869">
        <ele>1148</ele>
        <time>2019-06-03T07:49:10Z</time>
      </trkpt>
      <trkpt lat="46.72535" lon="6.14863">
        <ele>1148.4</ele>
        <time>2019-06-03T07:49:12Z</time>
      </trkpt>
      <trkpt lat="46.72556" lon="6.14828">
        <ele>1149.8</ele>
        <time>2019-06-03T07:49:20Z</time>
      </trkpt>
      <trkpt lat="46.72565" lon="6.14805">
        <ele>1150.4</ele>
        <time>2019-06-03T07:49:26Z</time>
      </trkpt>
      <trkpt lat="46.72563" lon="6.14798">
        <ele>1150.6</ele>
        <time>2019-06-03T07:49:30Z</time>
      </trkpt>
      <trkpt lat="46.72562" lon="6.14802">
        <ele>1150.7</ele>
        <time>2019-06-03T07:49:32Z</time>
      </trkpt>
      <trkpt lat="46.72561" lon="6.14806">
        <ele>1150.8</ele>
        <time>2019-06-03T07:49:43Z</time>
      </trkpt>
      <trkpt lat="46.72561" lon="6.14806">
        <ele>1150.8</ele>
        <time>2019-06-03T07:50:04Z</time>
      </trkpt>
      <trkpt lat="46.72562" lon="6.14807">
        <ele>1150.8</ele>
        <time>2019-06-03T07:50:17Z</time>
      </trkpt>
      <trkpt lat="46.7257" lon="6.14796">
        <ele>1151.3</ele>
        <time>2019-06-03T07:50:24Z</time>
      </trkpt>
      <trkpt lat="46.72587" lon="6.14771">
        <ele>1152.6</ele>
        <time>2019-06-03T07:50:31Z</time>
      </trkpt>
      <trkpt lat="46.72599" lon="6.1476">
        <ele>1153.1</ele>
        <time>2019-06-03T07:50:34Z</time>
      </trkpt>
      <trkpt lat="46.72609" lon="6.1475">
        <ele>1153.5</ele>
        <time>2019-06-03T07:50:36Z</time>
      </trkpt>
      <trkpt lat="46.7263" lon="6.14728">
        <ele>1153.8</ele>
        <time>2019-06-03T07:50:40Z</time>
      </trkpt>
      <trkpt lat="46.72657" lon="6.14707">
        <ele>1153.9</ele>
        <time>2019-06-03T07:50:44Z</time>
      </trkpt>
      <trkpt lat="46.72714" lon="6.14658">
        <ele>1152.1</ele>
        <time>2019-06-03T07:50:52Z</time>
      </trkpt>
      <trkpt lat="46.72722" lon="6.14652">
        <ele>1151.7</ele>
        <time>2019-06-03T07:50:53Z</time>
      </trkpt>
      <trkpt lat="46.72738" lon="6.14639">
        <ele>1149.5</ele>
        <time>2019-06-03T07:50:55Z</time>
      </trkpt>
      <trkpt lat="46.72753" lon="6.14624">
        <ele>1147</ele>
        <time>2019-06-03T07:50:57Z</time>
      </trkpt>
      <trkpt lat="46.72782" lon="6.14587">
        <ele>1142.9</ele>
        <time>2019-06-03T07:51:01Z</time>
      </trkpt>
      <trkpt lat="46.72816" lon="6.14571">
        <ele>1137.9</ele>
        <time>2019-06-03T07:51:05Z</time>
      </trkpt>
      <trkpt lat="46.72824" lon="6.1457">
        <ele>1136.7</ele>
        <time>2019-06-03T07:51:06Z</time>
      </trkpt>
      <trkpt lat="46.72898" lon="6.14575">
        <ele>1127.6</ele>
        <time>2019-06-03T07:51:14Z</time>
      </trkpt>
      <trkpt lat="46.72917" lon="6.14573">
        <ele>1124.8</ele>
        <time>2019-06-03T07:51:16Z</time>
      </trkpt>
      <trkpt lat="46.72947" lon="6.14555">
        <ele>1120</ele>
        <time>2019-06-03T07:51:19Z</time>
      </trkpt>
      <trkpt lat="46.72976" lon="6.14534">
        <ele>1115.8</ele>
        <time>2019-06-03T07:51:22Z</time>
      </trkpt>
      <trkpt lat="46.73008" lon="6.14494">
        <ele>1112.2</ele>
        <time>2019-06-03T07:51:26Z</time>
      </trkpt>
      <trkpt lat="46.73023" lon="6.14456">
        <ele>1110.6</ele>
        <time>2019-06-03T07:51:29Z</time>
      </trkpt>
      <trkpt lat="46.73055" lon="6.14338">
        <ele>1105.6</ele>
        <time>2019-06-03T07:51:38Z</time>
      </trkpt>
      <trkpt lat="46.73082" lon="6.14267">
        <ele>1102.6</ele>
        <time>2019-06-03T07:51:44Z</time>
      </trkpt>
      <trkpt lat="46.73087" lon="6.14256">
        <ele>1102.1</ele>
        <time>2019-06-03T07:51:45Z</time>
      </trkpt>
      <trkpt lat="46.73128" lon="6.14225">
        <ele>1099.2</ele>
        <time>2019-06-03T07:51:50Z</time>
      </trkpt>
      <trkpt lat="46.73173" lon="6.14204">
        <ele>1096.8</ele>
        <time>2019-06-03T07:51:55Z</time>
      </trkpt>
      <trkpt lat="46.73193" lon="6.14175">
        <ele>1095.4</ele>
        <time>2019-06-03T07:51:58Z</time>
      </trkpt>
      <trkpt lat="46.73224" lon="6.14118">
        <ele>1092</ele>
        <time>2019-06-03T07:52:03Z</time>
      </trkpt>
      <trkpt lat="46.7324" lon="6.14068">
        <ele>1089.8</ele>
        <time>2019-06-03T07:52:07Z</time>
      </trkpt>
      <trkpt lat="46.73243" lon="6.14054">
        <ele>1089.2</ele>
        <time>2019-06-03T07:52:08Z</time>
      </trkpt>
      <trkpt lat="46.73236" lon="6.13995">
        <ele>1086.9</ele>
        <time>2019-06-03T07:52:12Z</time>
      </trkpt>
      <trkpt lat="46.73219" lon="6.13958">
        <ele>1085.4</ele>
        <time>2019-06-03T07:52:15Z</time>
      </trkpt>
      <trkpt lat="46.73204" lon="6.13922">
        <ele>1084.2</ele>
        <time>2019-06-03T07:52:18Z</time>
      </trkpt>
      <trkpt lat="46.73187" lon="6.13853">
        <ele>1082.2</ele>
        <time>2019-06-03T07:52:23Z</time>
      </trkpt>
      <trkpt lat="46.7318" lon="6.13826">
        <ele>1081.1</ele>
        <time>2019-06-03T07:52:25Z</time>
      </trkpt>
      <trkpt lat="46.73173" lon="6.13766">
        <ele>1078.4</ele>
        <time>2019-06-03T07:52:29Z</time>
      </trkpt>
      <trkpt lat="46.73156" lon="6.13679">
        <ele>1075.2</ele>
        <time>2019-06-03T07:52:35Z</time>
      </trkpt>
      <trkpt lat="46.73127" lon="6.13544">
        <ele>1069.7</ele>
        <time>2019-06-03T07:52:45Z</time>
      </trkpt>
      <trkpt lat="46.73108" lon="6.13486">
        <ele>1068.2</ele>
        <time>2019-06-03T07:52:50Z</time>
      </trkpt>
      <trkpt lat="46.73097" lon="6.1344">
        <ele>1067.6</ele>
        <time>2019-06-03T07:52:54Z</time>
      </trkpt>
      <trkpt lat="46.73082" lon="6.13369">
        <ele>1066.6</ele>
        <time>2019-06-03T07:53:00Z</time>
      </trkpt>
      <trkpt lat="46.73057" lon="6.13305">
        <ele>1065.3</ele>
        <time>2019-06-03T07:53:06Z</time>
      </trkpt>
      <trkpt lat="46.73027" lon="6.13226">
        <ele>1062.4</ele>
        <time>2019-06-03T07:53:13Z</time>
      </trkpt>
      <trkpt lat="46.73017" lon="6.13203">
        <ele>1061.4</ele>
        <time>2019-06-03T07:53:15Z</time>
      </trkpt>
      <trkpt lat="46.72989" lon="6.13131">
        <ele>1058.2</ele>
        <time>2019-06-03T07:53:21Z</time>
      </trkpt>
      <trkpt lat="46.72975" lon="6.13095">
        <ele>1056.5</ele>
        <time>2019-06-03T07:53:24Z</time>
      </trkpt>
      <trkpt lat="46.72953" lon="6.13046">
        <ele>1054.2</ele>
        <time>2019-06-03T07:53:28Z</time>
      </trkpt>
      <trkpt lat="46.72934" lon="6.12993">
        <ele>1052.1</ele>
        <time>2019-06-03T07:53:32Z</time>
      </trkpt>
      <trkpt lat="46.72908" lon="6.1291">
        <ele>1048.3</ele>
        <time>2019-06-03T07:53:38Z</time>
      </trkpt>
      <trkpt lat="46.72899" lon="6.12873">
        <ele>1046.9</ele>
        <time>2019-06-03T07:53:41Z</time>
      </trkpt>
      <trkpt lat="46.7286" lon="6.12733">
        <ele>1043.3</ele>
        <time>2019-06-03T07:53:54Z</time>
      </trkpt>
      <trkpt lat="46.72839" lon="6.12642">
        <ele>1042.5</ele>
        <time>2019-06-03T07:54:02Z</time>
      </trkpt>
      <trkpt lat="46.72837" lon="6.12629">
        <ele>1042.4</ele>
        <time>2019-06-03T07:54:03Z</time>
      </trkpt>
      <trkpt lat="46.72816" lon="6.12543">
        <ele>1041.5</ele>
        <time>2019-06-03T07:54:10Z</time>
      </trkpt>
      <trkpt lat="46.72801" lon="6.12494">
        <ele>1039.9</ele>
        <time>2019-06-03T07:54:14Z</time>
      </trkpt>
      <trkpt lat="46.72789" lon="6.12412">
        <ele>1037.6</ele>
        <time>2019-06-03T07:54:20Z</time>
      </trkpt>
      <trkpt lat="46.72766" lon="6.12334">
        <ele>1034.2</ele>
        <time>2019-06-03T07:54:26Z</time>
      </trkpt>
      <trkpt lat="46.72743" lon="6.12238">
        <ele>1030.2</ele>
        <time>2019-06-03T07:54:33Z</time>
      </trkpt>
      <trkpt lat="46.72736" lon="6.12212">
        <ele>1029</ele>
        <time>2019-06-03T07:54:35Z</time>
      </trkpt>
      <trkpt lat="46.72725" lon="6.12156">
        <ele>1026.6</ele>
        <time>2019-06-03T07:54:39Z</time>
      </trkpt>
      <trkpt lat="46.72715" lon="6.12088">
        <ele>1022.5</ele>
        <time>2019-06-03T07:54:44Z</time>
      </trkpt>
      <trkpt lat="46.72714" lon="6.12073">
        <ele>1021.5</ele>
        <time>2019-06-03T07:54:45Z</time>
      </trkpt>
      <trkpt lat="46.72744" lon="6.11981">
        <ele>1014.4</ele>
        <time>2019-06-03T07:54:52Z</time>
      </trkpt>
      <trkpt lat="46.72761" lon="6.11967">
        <ele>1012.2</ele>
        <time>2019-06-03T07:54:54Z</time>
      </trkpt>
      <trkpt lat="46.72797" lon="6.11958">
        <ele>1010</ele>
        <time>2019-06-03T07:54:58Z</time>
      </trkpt>
      <trkpt lat="46.72839" lon="6.1196">
        <ele>1009.9</ele>
        <time>2019-06-03T07:55:03Z</time>
      </trkpt>
      <trkpt lat="46.72861" lon="6.11958">
        <ele>1010</ele>
        <time>2019-06-03T07:55:06Z</time>
      </trkpt>
      <trkpt lat="46.72876" lon="6.11953">
        <ele>1009.9</ele>
        <time>2019-06-03T07:55:08Z</time>
      </trkpt>
      <trkpt lat="46.729" lon="6.11934">
        <ele>1009.7</ele>
        <time>2019-06-03T07:55:12Z</time>
      </trkpt>
      <trkpt lat="46.72917" lon="6.11907">
        <ele>1009</ele>
        <time>2019-06-03T07:55:16Z</time>
      </trkpt>
      <trkpt lat="46.7293" lon="6.11865">
        <ele>1007.8</ele>
        <time>2019-06-03T07:55:21Z</time>
      </trkpt>
      <trkpt lat="46.72934" lon="6.11837">
        <ele>1007</ele>
        <time>2019-06-03T07:55:24Z</time>
      </trkpt>
      <trkpt lat="46.72937" lon="6.1182">
        <ele>1006.5</ele>
        <time>2019-06-03T07:55:26Z</time>
      </trkpt>
      <trkpt lat="46.7295" lon="6.11776">
        <ele>1005</ele>
        <time>2019-06-03T07:55:31Z</time>
      </trkpt>
      <trkpt lat="46.72972" lon="6.1168">
        <ele>1002</ele>
        <time>2019-06-03T07:55:40Z</time>
      </trkpt>
      <trkpt lat="46.72981" lon="6.11633">
        <ele>1001.2</ele>
        <time>2019-06-03T07:55:44Z</time>
      </trkpt>
      <trkpt lat="46.73003" lon="6.11472">
        <ele>1000.5</ele>
        <time>2019-06-03T07:55:58Z</time>
      </trkpt>
      <trkpt lat="46.73017" lon="6.11326">
        <ele>1001.4</ele>
        <time>2019-06-03T07:56:13Z</time>
      </trkpt>
      <trkpt lat="46.73016" lon="6.11317">
        <ele>1001.5</ele>
        <time>2019-06-03T07:56:14Z</time>
      </trkpt>
      <trkpt lat="46.7301" lon="6.11274">
        <ele>1001.8</ele>
        <time>2019-06-03T07:56:19Z</time>
      </trkpt>
      <trkpt lat="46.73004" lon="6.11261">
        <ele>1001.9</ele>
        <time>2019-06-03T07:56:24Z</time>
      </trkpt>
      <trkpt lat="46.73015" lon="6.11323">
        <ele>1002.1</ele>
        <time>2019-06-03T07:56:37Z</time>
      </trkpt>
      <trkpt lat="46.73015" lon="6.11349">
        <ele>1002.1</ele>
        <time>2019-06-03T07:56:43Z</time>
      </trkpt>
      <trkpt lat="46.73018" lon="6.11341">
        <ele>1002</ele>
        <time>2019-06-03T07:56:50Z</time>
      </trkpt>
      <trkpt lat="46.73017" lon="6.11328">
        <ele>1002</ele>
        <time>2019-06-03T07:56:53Z</time>
      </trkpt>
      <trkpt lat="46.73014" lon="6.11298">
        <ele>1001.8</ele>
        <time>2019-06-03T07:57:00Z</time>
      </trkpt>
      <trkpt lat="46.73013" lon="6.11305">
        <ele>1001.7</ele>
        <time>2019-06-03T07:57:06Z</time>
      </trkpt>
      <trkpt lat="46.73016" lon="6.11345">
        <ele>1001</ele>
        <time>2019-06-03T07:57:16Z</time>
      </trkpt>
      <trkpt lat="46.73017" lon="6.11332">
        <ele>1000.7</ele>
        <time>2019-06-03T07:57:22Z</time>
      </trkpt>
      <trkpt lat="46.73011" lon="6.11278">
        <ele>999</ele>
        <time>2019-06-03T07:57:34Z</time>
      </trkpt>
      <trkpt lat="46.73" lon="6.11217">
        <ele>996.7</ele>
        <time>2019-06-03T07:57:46Z</time>
      </trkpt>
      <trkpt lat="46.72996" lon="6.11142">
        <ele>993.9</ele>
        <time>2019-06-03T07:57:59Z</time>
      </trkpt>
      <trkpt lat="46.73009" lon="6.11095">
        <ele>992.5</ele>
        <time>2019-06-03T07:58:06Z</time>
      </trkpt>
      <trkpt lat="46.7304" lon="6.11009">
        <ele>990.4</ele>
        <time>2019-06-03T07:58:16Z</time>
      </trkpt>
      <trkpt lat="46.73086" lon="6.10907">
        <ele>988.7</ele>
        <time>2019-06-03T07:58:26Z</time>
      </trkpt>
      <trkpt lat="46.73139" lon="6.1083">
        <ele>987</ele>
        <time>2019-06-03T07:58:35Z</time>
      </trkpt>
      <trkpt lat="46.7322" lon="6.10715">
        <ele>985.3</ele>
        <time>2019-06-03T07:58:50Z</time>
      </trkpt>
      <trkpt lat="46.73281" lon="6.10627">
        <ele>983.8</ele>
        <time>2019-06-03T07:59:04Z</time>
      </trkpt>
      <trkpt lat="46.73321" lon="6.10573">
        <ele>981.6</ele>
        <time>2019-06-03T07:59:18Z</time>
      </trkpt>
      <trkpt lat="46.73322" lon="6.10571">
        <ele>981.5</ele>
        <time>2019-06-03T07:59:19Z</time>
      </trkpt>
      <trkpt lat="46.73326" lon="6.10559">
        <ele>981.7</ele>
        <time>2019-06-03T07:59:26Z</time>
      </trkpt>
      <trkpt lat="46.73306" lon="6.10527">
        <ele>982.5</ele>
        <time>2019-06-03T07:59:39Z</time>
      </trkpt>
      <trkpt lat="46.73284" lon="6.10468">
        <ele>982.1</ele>
        <time>2019-06-03T07:59:50Z</time>
      </trkpt>
      <trkpt lat="46.73278" lon="6.10451">
        <ele>981.9</ele>
        <time>2019-06-03T07:59:53Z</time>
      </trkpt>
      <trkpt lat="46.73268" lon="6.1042">
        <ele>981.4</ele>
        <time>2019-06-03T07:59:58Z</time>
      </trkpt>
      <trkpt lat="46.73266" lon="6.10391">
        <ele>980.8</ele>
        <time>2019-06-03T08:00:02Z</time>
      </trkpt>
      <trkpt lat="46.73263" lon="6.10318">
        <ele>976.8</ele>
        <time>2019-06-03T08:00:11Z</time>
      </trkpt>
      <trkpt lat="46.73262" lon="6.10309">
        <ele>976.6</ele>
        <time>2019-06-03T08:00:12Z</time>
      </trkpt>
      <trkpt lat="46.73262" lon="6.10259">
        <ele>974.9</ele>
        <time>2019-06-03T08:00:17Z</time>
      </trkpt>
      <trkpt lat="46.73275" lon="6.1014">
        <ele>973.5</ele>
        <time>2019-06-03T08:00:30Z</time>
      </trkpt>
      <trkpt lat="46.73267" lon="6.1003">
        <ele>973.5</ele>
        <time>2019-06-03T08:00:45Z</time>
      </trkpt>
      <trkpt lat="46.73236" lon="6.09931">
        <ele>973.9</ele>
        <time>2019-06-03T08:01:01Z</time>
      </trkpt>
      <trkpt lat="46.73233" lon="6.09911">
        <ele>973.9</ele>
        <time>2019-06-03T08:01:04Z</time>
      </trkpt>
      <trkpt lat="46.73229" lon="6.09795">
        <ele>972.9</ele>
        <time>2019-06-03T08:01:21Z</time>
      </trkpt>
      <trkpt lat="46.73226" lon="6.09657">
        <ele>970.8</ele>
        <time>2019-06-03T08:01:39Z</time>
      </trkpt>
      <trkpt lat="46.73231" lon="6.09559">
        <ele>969.2</ele>
        <time>2019-06-03T08:01:52Z</time>
      </trkpt>
      <trkpt lat="46.73247" lon="6.09503">
        <ele>967.6</ele>
        <time>2019-06-03T08:02:04Z</time>
      </trkpt>
      <trkpt lat="46.73276" lon="6.09434">
        <ele>965.9</ele>
        <time>2019-06-03T08:02:13Z</time>
      </trkpt>
      <trkpt lat="46.7328" lon="6.09424">
        <ele>965.7</ele>
        <time>2019-06-03T08:02:14Z</time>
      </trkpt>
      <trkpt lat="46.73284" lon="6.09413">
        <ele>965.5</ele>
        <time>2019-06-03T08:02:15Z</time>
      </trkpt>
      <trkpt lat="46.73315" lon="6.09323">
        <ele>962.9</ele>
        <time>2019-06-03T08:02:23Z</time>
      </trkpt>
      <trkpt lat="46.73332" lon="6.09285">
        <ele>962.2</ele>
        <time>2019-06-03T08:02:27Z</time>
      </trkpt>
      <trkpt lat="46.73355" lon="6.09251">
        <ele>961.3</ele>
        <time>2019-06-03T08:02:32Z</time>
      </trkpt>
      <trkpt lat="46.73369" lon="6.09242">
        <ele>960.8</ele>
        <time>2019-06-03T08:02:36Z</time>
      </trkpt>
      <trkpt lat="46.73371" lon="6.09231">
        <ele>960.5</ele>
        <time>2019-06-03T08:02:41Z</time>
      </trkpt>
      <trkpt lat="46.73365" lon="6.09178">
        <ele>957.2</ele>
        <time>2019-06-03T08:02:50Z</time>
      </trkpt>
      <trkpt lat="46.73365" lon="6.0917">
        <ele>956.8</ele>
        <time>2019-06-03T08:02:51Z</time>
      </trkpt>
      <trkpt lat="46.73363" lon="6.09105">
        <ele>952.7</ele>
        <time>2019-06-03T08:02:58Z</time>
      </trkpt>
      <trkpt lat="46.73359" lon="6.09071">
        <ele>950.6</ele>
        <time>2019-06-03T08:03:01Z</time>
      </trkpt>
      <trkpt lat="46.7337" lon="6.09015">
        <ele>948</ele>
        <time>2019-06-03T08:03:06Z</time>
      </trkpt>
      <trkpt lat="46.73379" lon="6.08996">
        <ele>947.7</ele>
        <time>2019-06-03T08:03:08Z</time>
      </trkpt>
      <trkpt lat="46.73392" lon="6.08956">
        <ele>947.2</ele>
        <time>2019-06-03T08:03:12Z</time>
      </trkpt>
      <trkpt lat="46.73424" lon="6.08921">
        <ele>947.2</ele>
        <time>2019-06-03T08:03:18Z</time>
      </trkpt>
      <trkpt lat="46.73442" lon="6.08915">
        <ele>947.5</ele>
        <time>2019-06-03T08:03:21Z</time>
      </trkpt>
      <trkpt lat="46.73487" lon="6.08899">
        <ele>949.7</ele>
        <time>2019-06-03T08:03:30Z</time>
      </trkpt>
      <trkpt lat="46.73522" lon="6.08908">
        <ele>951.5</ele>
        <time>2019-06-03T08:03:41Z</time>
      </trkpt>
      <trkpt lat="46.73568" lon="6.08891">
        <ele>950.8</ele>
        <time>2019-06-03T08:03:54Z</time>
      </trkpt>
      <trkpt lat="46.73614" lon="6.08883">
        <ele>949.6</ele>
        <time>2019-06-03T08:04:07Z</time>
      </trkpt>
      <trkpt lat="46.73636" lon="6.08887">
        <ele>948.8</ele>
        <time>2019-06-03T08:04:15Z</time>
      </trkpt>
      <trkpt lat="46.73646" lon="6.08889">
        <ele>948.2</ele>
        <time>2019-06-03T08:04:21Z</time>
      </trkpt>
      <trkpt lat="46.73674" lon="6.08898">
        <ele>946.8</ele>
        <time>2019-06-03T08:04:32Z</time>
      </trkpt>
      <trkpt lat="46.73694" lon="6.08903">
        <ele>945.9</ele>
        <time>2019-06-03T08:04:36Z</time>
      </trkpt>
      <trkpt lat="46.73739" lon="6.08891">
        <ele>942.4</ele>
        <time>2019-06-03T08:04:43Z</time>
      </trkpt>
      <trkpt lat="46.73779" lon="6.08851">
        <ele>938.3</ele>
        <time>2019-06-03T08:04:49Z</time>
      </trkpt>
      <trkpt lat="46.73784" lon="6.0884">
        <ele>937.4</ele>
        <time>2019-06-03T08:04:50Z</time>
      </trkpt>
      <trkpt lat="46.73815" lon="6.08795">
        <ele>932.7</ele>
        <time>2019-06-03T08:04:55Z</time>
      </trkpt>
      <trkpt lat="46.73855" lon="6.08754">
        <ele>928.8</ele>
        <time>2019-06-03T08:05:00Z</time>
      </trkpt>
      <trkpt lat="46.73898" lon="6.08714">
        <ele>924.7</ele>
        <time>2019-06-03T08:05:05Z</time>
      </trkpt>
      <trkpt lat="46.73941" lon="6.08676">
        <ele>922.4</ele>
        <time>2019-06-03T08:05:10Z</time>
      </trkpt>
      <trkpt lat="46.73979" lon="6.08651">
        <ele>920.1</ele>
        <time>2019-06-03T08:05:14Z</time>
      </trkpt>
      <trkpt lat="46.74016" lon="6.08626">
        <ele>916.8</ele>
        <time>2019-06-03T08:05:18Z</time>
      </trkpt>
      <trkpt lat="46.74127" lon="6.08609">
        <ele>915.5</ele>
        <time>2019-06-03T08:05:30Z</time>
      </trkpt>
      <trkpt lat="46.74236" lon="6.08614">
        <ele>915.7</ele>
        <time>2019-06-03T08:05:44Z</time>
      </trkpt>
      <trkpt lat="46.74371" lon="6.08656">
        <ele>914.3</ele>
        <time>2019-06-03T08:06:03Z</time>
      </trkpt>
      <trkpt lat="46.74391" lon="6.08663">
        <ele>913.9</ele>
        <time>2019-06-03T08:06:06Z</time>
      </trkpt>
      <trkpt lat="46.74499" lon="6.08721">
        <ele>912.3</ele>
        <time>2019-06-03T08:06:22Z</time>
      </trkpt>
      <trkpt lat="46.74523" lon="6.08741">
        <ele>912.1</ele>
        <time>2019-06-03T08:06:26Z</time>
      </trkpt>
      <trkpt lat="46.7455" lon="6.08747">
        <ele>911.7</ele>
        <time>2019-06-03T08:06:30Z</time>
      </trkpt>
      <trkpt lat="46.74571" lon="6.08742">
        <ele>911.4</ele>
        <time>2019-06-03T08:06:33Z</time>
      </trkpt>
      <trkpt lat="46.74634" lon="6.08713">
        <ele>910.7</ele>
        <time>2019-06-03T08:06:43Z</time>
      </trkpt>
      <trkpt lat="46.74668" lon="6.08718">
        <ele>910.1</ele>
        <time>2019-06-03T08:06:48Z</time>
      </trkpt>
      <trkpt lat="46.74739" lon="6.08779">
        <ele>909.3</ele>
        <time>2019-06-03T08:06:59Z</time>
      </trkpt>
      <trkpt lat="46.74781" lon="6.08838">
        <ele>908.5</ele>
        <time>2019-06-03T08:07:06Z</time>
      </trkpt>
      <trkpt lat="46.74788" lon="6.08848">
        <ele>908.2</ele>
        <time>2019-06-03T08:07:07Z</time>
      </trkpt>
      <trkpt lat="46.74839" lon="6.08895">
        <ele>903.8</ele>
        <time>2019-06-03T08:07:13Z</time>
      </trkpt>
      <trkpt lat="46.74878" lon="6.08925">
        <ele>896.7</ele>
        <time>2019-06-03T08:07:17Z</time>
      </trkpt>
      <trkpt lat="46.74926" lon="6.08966">
        <ele>889.7</ele>
        <time>2019-06-03T08:07:22Z</time>
      </trkpt>
      <trkpt lat="46.74973" lon="6.09011">
        <ele>884.2</ele>
        <time>2019-06-03T08:07:27Z</time>
      </trkpt>
      <trkpt lat="46.74983" lon="6.09019">
        <ele>882.8</ele>
        <time>2019-06-03T08:07:28Z</time>
      </trkpt>
      <trkpt lat="46.75012" lon="6.09041">
        <ele>881.3</ele>
        <time>2019-06-03T08:07:31Z</time>
      </trkpt>
      <trkpt lat="46.75051" lon="6.09062">
        <ele>879</ele>
        <time>2019-06-03T08:07:35Z</time>
      </trkpt>
      <trkpt lat="46.75094" lon="6.09073">
        <ele>877.2</ele>
        <time>2019-06-03T08:07:40Z</time>
      </trkpt>
      <trkpt lat="46.75134" lon="6.09076">
        <ele>875.4</ele>
        <time>2019-06-03T08:07:49Z</time>
      </trkpt>
      <trkpt lat="46.75156" lon="6.09062">
        <ele>874.5</ele>
        <time>2019-06-03T08:08:00Z</time>
      </trkpt>
      <trkpt lat="46.75162" lon="6.09054">
        <ele>874.5</ele>
        <time>2019-06-03T08:08:02Z</time>
      </trkpt>
      <trkpt lat="46.75208" lon="6.09021">
        <ele>873.3</ele>
        <time>2019-06-03T08:08:12Z</time>
      </trkpt>
      <trkpt lat="46.75237" lon="6.09015">
        <ele>872.6</ele>
        <time>2019-06-03T08:08:18Z</time>
      </trkpt>
      <trkpt lat="46.75262" lon="6.09041">
        <ele>871.4</ele>
        <time>2019-06-03T08:08:30Z</time>
      </trkpt>
      <trkpt lat="46.75291" lon="6.09081">
        <ele>868.9</ele>
        <time>2019-06-03T08:08:40Z</time>
      </trkpt>
      <trkpt lat="46.753" lon="6.09091">
        <ele>868.2</ele>
        <time>2019-06-03T08:08:42Z</time>
      </trkpt>
      <trkpt lat="46.75327" lon="6.09105">
        <ele>867.2</ele>
        <time>2019-06-03T08:08:47Z</time>
      </trkpt>
      <trkpt lat="46.75369" lon="6.0911">
        <ele>865.7</ele>
        <time>2019-06-03T08:08:54Z</time>
      </trkpt>
      <trkpt lat="46.75392" lon="6.09123">
        <ele>865.2</ele>
        <time>2019-06-03T08:08:58Z</time>
      </trkpt>
      <trkpt lat="46.7541" lon="6.09146">
        <ele>865.2</ele>
        <time>2019-06-03T08:09:02Z</time>
      </trkpt>
      <trkpt lat="46.75468" lon="6.09238">
        <ele>868.5</ele>
        <time>2019-06-03T08:09:19Z</time>
      </trkpt>
      <trkpt lat="46.75495" lon="6.09278">
        <ele>870.1</ele>
        <time>2019-06-03T08:09:29Z</time>
      </trkpt>
      <trkpt lat="46.75532" lon="6.09336">
        <ele>871.7</ele>
        <time>2019-06-03T08:09:44Z</time>
      </trkpt>
      <trkpt lat="46.75582" lon="6.09371">
        <ele>872.4</ele>
        <time>2019-06-03T08:10:00Z</time>
      </trkpt>
      <trkpt lat="46.75645" lon="6.09413">
        <ele>873.3</ele>
        <time>2019-06-03T08:10:18Z</time>
      </trkpt>
      <trkpt lat="46.75674" lon="6.09432">
        <ele>873.7</ele>
        <time>2019-06-03T08:10:27Z</time>
      </trkpt>
      <trkpt lat="46.75688" lon="6.09441">
        <ele>873.9</ele>
        <time>2019-06-03T08:10:32Z</time>
      </trkpt>
      <trkpt lat="46.7569" lon="6.09443">
        <ele>874</ele>
        <time>2019-06-03T08:10:33Z</time>
      </trkpt>
      <trkpt lat="46.75733" lon="6.09449">
        <ele>874</ele>
        <time>2019-06-03T08:10:46Z</time>
      </trkpt>
      <trkpt lat="46.75775" lon="6.0941">
        <ele>873.1</ele>
        <time>2019-06-03T08:10:59Z</time>
      </trkpt>
      <trkpt lat="46.75785" lon="6.09402">
        <ele>872.9</ele>
        <time>2019-06-03T08:11:02Z</time>
      </trkpt>
      <trkpt lat="46.75801" lon="6.09394">
        <ele>872.7</ele>
        <time>2019-06-03T08:11:06Z</time>
      </trkpt>
      <trkpt lat="46.7582" lon="6.09391">
        <ele>872.5</ele>
        <time>2019-06-03T08:11:10Z</time>
      </trkpt>
      <trkpt lat="46.7583" lon="6.09392">
        <ele>872.4</ele>
        <time>2019-06-03T08:11:12Z</time>
      </trkpt>
      <trkpt lat="46.75906" lon="6.09433">
        <ele>872.2</ele>
        <time>2019-06-03T08:11:30Z</time>
      </trkpt>
      <trkpt lat="46.75966" lon="6.09447">
        <ele>871.3</ele>
        <time>2019-06-03T08:11:42Z</time>
      </trkpt>
      <trkpt lat="46.76036" lon="6.09511">
        <ele>869.5</ele>
        <time>2019-06-03T08:11:56Z</time>
      </trkpt>
      <trkpt lat="46.76116" lon="6.09626">
        <ele>869.5</ele>
        <time>2019-06-03T08:12:14Z</time>
      </trkpt>
      <trkpt lat="46.76143" lon="6.09657">
        <ele>870.7</ele>
        <time>2019-06-03T08:12:21Z</time>
      </trkpt>
      <trkpt lat="46.76155" lon="6.09665">
        <ele>871.2</ele>
        <time>2019-06-03T08:12:24Z</time>
      </trkpt>
      <trkpt lat="46.76171" lon="6.09672">
        <ele>871.9</ele>
        <time>2019-06-03T08:12:28Z</time>
      </trkpt>
      <trkpt lat="46.76179" lon="6.09677">
        <ele>872.3</ele>
        <time>2019-06-03T08:12:30Z</time>
      </trkpt>
      <trkpt lat="46.76195" lon="6.09691">
        <ele>872.9</ele>
        <time>2019-06-03T08:12:34Z</time>
      </trkpt>
      <trkpt lat="46.76233" lon="6.09759">
        <ele>873.7</ele>
        <time>2019-06-03T08:12:49Z</time>
      </trkpt>
      <trkpt lat="46.76235" lon="6.09765">
        <ele>873.7</ele>
        <time>2019-06-03T08:12:50Z</time>
      </trkpt>
      <trkpt lat="46.76246" lon="6.09781">
        <ele>873.5</ele>
        <time>2019-06-03T08:12:53Z</time>
      </trkpt>
      <trkpt lat="46.763" lon="6.09815">
        <ele>873.1</ele>
        <time>2019-06-03T08:13:04Z</time>
      </trkpt>
      <trkpt lat="46.76363" lon="6.09792">
        <ele>872.7</ele>
        <time>2019-06-03T08:13:17Z</time>
      </trkpt>
      <trkpt lat="46.76397" lon="6.09802">
        <ele>871.7</ele>
        <time>2019-06-03T08:13:23Z</time>
      </trkpt>
      <trkpt lat="46.76479" lon="6.09907">
        <ele>869.8</ele>
        <time>2019-06-03T08:13:41Z</time>
      </trkpt>
      <trkpt lat="46.76551" lon="6.09978">
        <ele>867.9</ele>
        <time>2019-06-03T08:13:55Z</time>
      </trkpt>
      <trkpt lat="46.76589" lon="6.10016">
        <ele>867.6</ele>
        <time>2019-06-03T08:14:04Z</time>
      </trkpt>
      <trkpt lat="46.76628" lon="6.10055">
        <ele>867.5</ele>
        <time>2019-06-03T08:14:19Z</time>
      </trkpt>
      <trkpt lat="46.76653" lon="6.10089">
        <ele>867.1</ele>
        <time>2019-06-03T08:14:31Z</time>
      </trkpt>
      <trkpt lat="46.76664" lon="6.1012">
        <ele>866.7</ele>
        <time>2019-06-03T08:14:37Z</time>
      </trkpt>
      <trkpt lat="46.76674" lon="6.10203">
        <ele>864.8</ele>
        <time>2019-06-03T08:14:50Z</time>
      </trkpt>
      <trkpt lat="46.76683" lon="6.10259">
        <ele>863.7</ele>
        <time>2019-06-03T08:14:57Z</time>
      </trkpt>
      <trkpt lat="46.76713" lon="6.10297">
        <ele>861</ele>
        <time>2019-06-03T08:15:03Z</time>
      </trkpt>
      <trkpt lat="46.76741" lon="6.10314">
        <ele>857.9</ele>
        <time>2019-06-03T08:15:07Z</time>
      </trkpt>
      <trkpt lat="46.76764" lon="6.10327">
        <ele>855.8</ele>
        <time>2019-06-03T08:15:10Z</time>
      </trkpt>
      <trkpt lat="46.76839" lon="6.10366">
        <ele>851.2</ele>
        <time>2019-06-03T08:15:19Z</time>
      </trkpt>
      <trkpt lat="46.76864" lon="6.10379">
        <ele>849.8</ele>
        <time>2019-06-03T08:15:22Z</time>
      </trkpt>
      <trkpt lat="46.76986" lon="6.10446">
        <ele>848.2</ele>
        <time>2019-06-03T08:15:38Z</time>
      </trkpt>
      <trkpt lat="46.77039" lon="6.10462">
        <ele>847.3</ele>
        <time>2019-06-03T08:15:48Z</time>
      </trkpt>
      <trkpt lat="46.77092" lon="6.10471">
        <ele>845</ele>
        <time>2019-06-03T08:15:56Z</time>
      </trkpt>
      <trkpt lat="46.77165" lon="6.10515">
        <ele>843</ele>
        <time>2019-06-03T08:16:06Z</time>
      </trkpt>
      <trkpt lat="46.77188" lon="6.10555">
        <ele>843.2</ele>
        <time>2019-06-03T08:16:11Z</time>
      </trkpt>
      <trkpt lat="46.7722" lon="6.10752">
        <ele>844.8</ele>
        <time>2019-06-03T08:16:31Z</time>
      </trkpt>
      <trkpt lat="46.77235" lon="6.10824">
        <ele>845.4</ele>
        <time>2019-06-03T08:16:39Z</time>
      </trkpt>
      <trkpt lat="46.77282" lon="6.10907">
        <ele>846.1</ele>
        <time>2019-06-03T08:16:52Z</time>
      </trkpt>
      <trkpt lat="46.77366" lon="6.11005">
        <ele>847.4</ele>
        <time>2019-06-03T08:17:11Z</time>
      </trkpt>
      <trkpt lat="46.77436" lon="6.11074">
        <ele>848.4</ele>
        <time>2019-06-03T08:17:27Z</time>
      </trkpt>
      <trkpt lat="46.77482" lon="6.11112">
        <ele>848.7</ele>
        <time>2019-06-03T08:17:38Z</time>
      </trkpt>
      <trkpt lat="46.77531" lon="6.11153">
        <ele>849.3</ele>
        <time>2019-06-03T08:17:50Z</time>
      </trkpt>
      <trkpt lat="46.77601" lon="6.11213">
        <ele>849.9</ele>
        <time>2019-06-03T08:18:06Z</time>
      </trkpt>
      <trkpt lat="46.77655" lon="6.11256">
        <ele>850.3</ele>
        <time>2019-06-03T08:18:18Z</time>
      </trkpt>
      <trkpt lat="46.77675" lon="6.11265">
        <ele>850.4</ele>
        <time>2019-06-03T08:18:22Z</time>
      </trkpt>
      <trkpt lat="46.7773" lon="6.1126">
        <ele>851</ele>
        <time>2019-06-03T08:18:33Z</time>
      </trkpt>
      <trkpt lat="46.77776" lon="6.11231">
        <ele>852.8</ele>
        <time>2019-06-03T08:18:43Z</time>
      </trkpt>
      <trkpt lat="46.77791" lon="6.11217">
        <ele>853.6</ele>
        <time>2019-06-03T08:18:47Z</time>
      </trkpt>
      <trkpt lat="46.77802" lon="6.11205">
        <ele>854.2</ele>
        <time>2019-06-03T08:18:50Z</time>
      </trkpt>
      <trkpt lat="46.7783" lon="6.11164">
        <ele>855.3</ele>
        <time>2019-06-03T08:18:58Z</time>
      </trkpt>
      <trkpt lat="46.77896" lon="6.11074">
        <ele>857.2</ele>
        <time>2019-06-03T08:19:18Z</time>
      </trkpt>
      <trkpt lat="46.77944" lon="6.11034">
        <ele>858.7</ele>
        <time>2019-06-03T08:19:33Z</time>
      </trkpt>
      <trkpt lat="46.77969" lon="6.1102">
        <ele>859.4</ele>
        <time>2019-06-03T08:19:46Z</time>
      </trkpt>
      <trkpt lat="46.78013" lon="6.11007">
        <ele>860</ele>
        <time>2019-06-03T08:20:01Z</time>
      </trkpt>
      <trkpt lat="46.7807" lon="6.10995">
        <ele>860.6</ele>
        <time>2019-06-03T08:20:16Z</time>
      </trkpt>
      <trkpt lat="46.78134" lon="6.10989">
        <ele>862</ele>
        <time>2019-06-03T08:20:32Z</time>
      </trkpt>
      <trkpt lat="46.78202" lon="6.10989">
        <ele>864.7</ele>
        <time>2019-06-03T08:20:49Z</time>
      </trkpt>
      <trkpt lat="46.78255" lon="6.11006">
        <ele>865.6</ele>
        <time>2019-06-03T08:21:05Z</time>
      </trkpt>
      <trkpt lat="46.78302" lon="6.11032">
        <ele>865.7</ele>
        <time>2019-06-03T08:21:21Z</time>
      </trkpt>
      <trkpt lat="46.78306" lon="6.11034">
        <ele>865.7</ele>
        <time>2019-06-03T08:21:23Z</time>
      </trkpt>
      <trkpt lat="46.78301" lon="6.11027">
        <ele>865.7</ele>
        <time>2019-06-03T08:21:30Z</time>
      </trkpt>
      <trkpt lat="46.78299" lon="6.11025">
        <ele>865.7</ele>
        <time>2019-06-03T08:21:32Z</time>
      </trkpt>
      <trkpt lat="46.78272" lon="6.11007">
        <ele>865.6</ele>
        <time>2019-06-03T08:21:45Z</time>
      </trkpt>
      <trkpt lat="46.78277" lon="6.11016">
        <ele>865.6</ele>
        <time>2019-06-03T08:21:52Z</time>
      </trkpt>
      <trkpt lat="46.78279" lon="6.11017">
        <ele>865.6</ele>
        <time>2019-06-03T08:21:53Z</time>
      </trkpt>
      <trkpt lat="46.78329" lon="6.11042">
        <ele>865.5</ele>
        <time>2019-06-03T08:22:08Z</time>
      </trkpt>
      <trkpt lat="46.78361" lon="6.11047">
        <ele>864.9</ele>
        <time>2019-06-03T08:22:16Z</time>
      </trkpt>
      <trkpt lat="46.78397" lon="6.11041">
        <ele>863.9</ele>
        <time>2019-06-03T08:22:23Z</time>
      </trkpt>
      <trkpt lat="46.78431" lon="6.11035">
        <ele>862.6</ele>
        <time>2019-06-03T08:22:30Z</time>
      </trkpt>
      <trkpt lat="46.78513" lon="6.10999">
        <ele>860.6</ele>
        <time>2019-06-03T08:22:47Z</time>
      </trkpt>
      <trkpt lat="46.78544" lon="6.1098">
        <ele>859.9</ele>
        <time>2019-06-03T08:22:55Z</time>
      </trkpt>
      <trkpt lat="46.78569" lon="6.10974">
        <ele>859.5</ele>
        <time>2019-06-03T08:23:00Z</time>
      </trkpt>
      <trkpt lat="46.78574" lon="6.10978">
        <ele>859.5</ele>
        <time>2019-06-03T08:23:01Z</time>
      </trkpt>
      <trkpt lat="46.78607" lon="6.11013">
        <ele>860</ele>
        <time>2019-06-03T08:23:11Z</time>
      </trkpt>
      <trkpt lat="46.7861" lon="6.11016">
        <ele>860</ele>
        <time>2019-06-03T08:23:12Z</time>
      </trkpt>
      <trkpt lat="46.7861" lon="6.11037">
        <ele>860.7</ele>
        <time>2019-06-03T08:23:18Z</time>
      </trkpt>
      <trkpt lat="46.78601" lon="6.11106">
        <ele>862.8</ele>
        <time>2019-06-03T08:23:32Z</time>
      </trkpt>
      <trkpt lat="46.78607" lon="6.11128">
        <ele>862.9</ele>
        <time>2019-06-03T08:23:36Z</time>
      </trkpt>
      <trkpt lat="46.78618" lon="6.11153">
        <ele>862.8</ele>
        <time>2019-06-03T08:23:41Z</time>
      </trkpt>
      <trkpt lat="46.78624" lon="6.11162">
        <ele>862.7</ele>
        <time>2019-06-03T08:23:43Z</time>
      </trkpt>
      <trkpt lat="46.7866" lon="6.11226">
        <ele>862.3</ele>
        <time>2019-06-03T08:23:56Z</time>
      </trkpt>
      <trkpt lat="46.78709" lon="6.1131">
        <ele>862.5</ele>
        <time>2019-06-03T08:24:12Z</time>
      </trkpt>
      <trkpt lat="46.78759" lon="6.11395">
        <ele>863.2</ele>
        <time>2019-06-03T08:24:28Z</time>
      </trkpt>
      <trkpt lat="46.78804" lon="6.11476">
        <ele>863.4</ele>
        <time>2019-06-03T08:24:43Z</time>
      </trkpt>
      <trkpt lat="46.78836" lon="6.11554">
        <ele>862.9</ele>
        <time>2019-06-03T08:24:57Z</time>
      </trkpt>
      <trkpt lat="46.78876" lon="6.11658">
        <ele>861.3</ele>
        <time>2019-06-03T08:25:12Z</time>
      </trkpt>
      <trkpt lat="46.78939" lon="6.11762">
        <ele>860.5</ele>
        <time>2019-06-03T08:25:27Z</time>
      </trkpt>
      <trkpt lat="46.78981" lon="6.1183">
        <ele>859.3</ele>
        <time>2019-06-03T08:25:36Z</time>
      </trkpt>
      <trkpt lat="46.79006" lon="6.11944">
        <ele>858.7</ele>
        <time>2019-06-03T08:25:47Z</time>
      </trkpt>
      <trkpt lat="46.7902" lon="6.12083">
        <ele>857.2</ele>
        <time>2019-06-03T08:26:01Z</time>
      </trkpt>
      <trkpt lat="46.79023" lon="6.12121">
        <ele>857.3</ele>
        <time>2019-06-03T08:26:06Z</time>
      </trkpt>
      <trkpt lat="46.79022" lon="6.12252">
        <ele>858.3</ele>
        <time>2019-06-03T08:26:23Z</time>
      </trkpt>
      <trkpt lat="46.79021" lon="6.12278">
        <ele>859</ele>
        <time>2019-06-03T08:26:27Z</time>
      </trkpt>
      <trkpt lat="46.79021" lon="6.12332">
        <ele>861.1</ele>
        <time>2019-06-03T08:26:35Z</time>
      </trkpt>
      <trkpt lat="46.7902" lon="6.12366">
        <ele>862.2</ele>
        <time>2019-06-03T08:26:40Z</time>
      </trkpt>
      <trkpt lat="46.79022" lon="6.12412">
        <ele>862.6</ele>
        <time>2019-06-03T08:26:47Z</time>
      </trkpt>
      <trkpt lat="46.79045" lon="6.12468">
        <ele>864</ele>
        <time>2019-06-03T08:26:57Z</time>
      </trkpt>
      <trkpt lat="46.79072" lon="6.1255">
        <ele>866.1</ele>
        <time>2019-06-03T08:27:12Z</time>
      </trkpt>
      <trkpt lat="46.79087" lon="6.12615">
        <ele>866.9</ele>
        <time>2019-06-03T08:27:25Z</time>
      </trkpt>
      <trkpt lat="46.79104" lon="6.12696">
        <ele>865.5</ele>
        <time>2019-06-03T08:27:39Z</time>
      </trkpt>
      <trkpt lat="46.79118" lon="6.12748">
        <ele>864.8</ele>
        <time>2019-06-03T08:27:49Z</time>
      </trkpt>
      <trkpt lat="46.79117" lon="6.12776">
        <ele>864.7</ele>
        <time>2019-06-03T08:27:56Z</time>
      </trkpt>
      <trkpt lat="46.79117" lon="6.12777">
        <ele>864.7</ele>
        <time>2019-06-03T08:28:06Z</time>
      </trkpt>
      <trkpt lat="46.79117" lon="6.12777">
        <ele>864.7</ele>
        <time>2019-06-03T08:28:15Z</time>
      </trkpt>
      <trkpt lat="46.79111" lon="6.12745">
        <ele>864.8</ele>
        <time>2019-06-03T08:34:07Z</time>
      </trkpt>
      <trkpt lat="46.79111" lon="6.12749">
        <ele>864.8</ele>
        <time>2019-06-03T08:34:08Z</time>
      </trkpt>
      <trkpt lat="46.79111" lon="6.12749">
        <ele>864.8</ele>
        <time>2019-06-03T08:34:19Z</time>
      </trkpt>
      <trkpt lat="46.79117" lon="6.12738">
        <ele>864.8</ele>
        <time>2019-06-03T08:34:31Z</time>
      </trkpt>
      <trkpt lat="46.79115" lon="6.12731">
        <ele>864.9</ele>
        <time>2019-06-03T08:34:34Z</time>
      </trkpt>
      <trkpt lat="46.79107" lon="6.12736">
        <ele>864.8</ele>
        <time>2019-06-03T08:34:40Z</time>
      </trkpt>
      <trkpt lat="46.79099" lon="6.12761">
        <ele>864.7</ele>
        <time>2019-06-03T08:34:48Z</time>
      </trkpt>
      <trkpt lat="46.79093" lon="6.12769">
        <ele>864.6</ele>
        <time>2019-06-03T08:34:52Z</time>
      </trkpt>
      <trkpt lat="46.79088" lon="6.12768">
        <ele>864.6</ele>
        <time>2019-06-03T08:35:06Z</time>
      </trkpt>
      <trkpt lat="46.79089" lon="6.12767">
        <ele>864.6</ele>
        <time>2019-06-03T08:35:29Z</time>
      </trkpt>
      <trkpt lat="46.79089" lon="6.12768">
        <ele>864.5</ele>
        <time>2019-06-03T08:35:59Z</time>
      </trkpt>
      <trkpt lat="46.79089" lon="6.12768">
        <ele>864.5</ele>
        <time>2019-06-03T08:36:25Z</time>
      </trkpt>
      <trkpt lat="46.79093" lon="6.12787">
        <ele>864.3</ele>
        <time>2019-06-03T08:38:35Z</time>
      </trkpt>
      <trkpt lat="46.79093" lon="6.1279">
        <ele>864.3</ele>
        <time>2019-06-03T08:38:36Z</time>
      </trkpt>
      <trkpt lat="46.79088" lon="6.12798">
        <ele>864.2</ele>
        <time>2019-06-03T08:38:42Z</time>
      </trkpt>
      <trkpt lat="46.79076" lon="6.12825">
        <ele>864.1</ele>
        <time>2019-06-03T08:38:48Z</time>
      </trkpt>
      <trkpt lat="46.79052" lon="6.12862">
        <ele>864.6</ele>
        <time>2019-06-03T08:38:57Z</time>
      </trkpt>
      <trkpt lat="46.79043" lon="6.12872">
        <ele>865.1</ele>
        <time>2019-06-03T08:39:00Z</time>
      </trkpt>
      <trkpt lat="46.79027" lon="6.12891">
        <ele>865.7</ele>
        <time>2019-06-03T08:39:05Z</time>
      </trkpt>
      <trkpt lat="46.79019" lon="6.12897">
        <ele>865.9</ele>
        <time>2019-06-03T08:39:07Z</time>
      </trkpt>
      <trkpt lat="46.79003" lon="6.12911">
        <ele>866.1</ele>
        <time>2019-06-03T08:39:12Z</time>
      </trkpt>
      <trkpt lat="46.79011" lon="6.12974">
        <ele>866.7</ele>
        <time>2019-06-03T08:39:24Z</time>
      </trkpt>
      <trkpt lat="46.79015" lon="6.12995">
        <ele>866.8</ele>
        <time>2019-06-03T08:39:28Z</time>
      </trkpt>
      <trkpt lat="46.79014" lon="6.13072">
        <ele>867</ele>
        <time>2019-06-03T08:39:41Z</time>
      </trkpt>
      <trkpt lat="46.79013" lon="6.131">
        <ele>867.2</ele>
        <time>2019-06-03T08:39:47Z</time>
      </trkpt>
      <trkpt lat="46.79012" lon="6.1311">
        <ele>867.3</ele>
        <time>2019-06-03T08:39:51Z</time>
      </trkpt>
      <trkpt lat="46.79006" lon="6.13129">
        <ele>867.4</ele>
        <time>2019-06-03T08:40:03Z</time>
      </trkpt>
      <trkpt lat="46.79008" lon="6.13125">
        <ele>867.4</ele>
        <time>2019-06-03T08:40:05Z</time>
      </trkpt>
      <trkpt lat="46.79016" lon="6.13103">
        <ele>867.7</ele>
        <time>2019-06-03T08:40:18Z</time>
      </trkpt>
      <trkpt lat="46.79016" lon="6.13103">
        <ele>867.7</ele>
        <time>2019-06-03T08:40:38Z</time>
      </trkpt>
      <trkpt lat="46.79017" lon="6.13102">
        <ele>867.7</ele>
        <time>2019-06-03T08:41:03Z</time>
      </trkpt>
      <trkpt lat="46.79017" lon="6.13102">
        <ele>867.7</ele>
        <time>2019-06-03T08:41:29Z</time>
      </trkpt>
      <trkpt lat="46.79017" lon="6.13101">
        <ele>867.7</ele>
        <time>2019-06-03T08:41:54Z</time>
      </trkpt>
      <trkpt lat="46.79017" lon="6.13101">
        <ele>867.7</ele>
        <time>2019-06-03T08:42:24Z</time>
      </trkpt>
      <trkpt lat="46.79017" lon="6.13101">
        <ele>867.7</ele>
        <time>2019-06-03T08:42:53Z</time>
      </trkpt>
      <trkpt lat="46.79014" lon="6.131">
        <ele>867.8</ele>
        <time>2019-06-03T08:43:08Z</time>
      </trkpt>
      <trkpt lat="46.79011" lon="6.13103">
        <ele>867.9</ele>
        <time>2019-06-03T08:43:13Z</time>
      </trkpt>
      <trkpt lat="46.78996" lon="6.13144">
        <ele>868.4</ele>
        <time>2019-06-03T08:43:25Z</time>
      </trkpt>
      <trkpt lat="46.78975" lon="6.13195">
        <ele>868.7</ele>
        <time>2019-06-03T08:43:39Z</time>
      </trkpt>
      <trkpt lat="46.78967" lon="6.13258">
        <ele>868.7</ele>
        <time>2019-06-03T08:43:53Z</time>
      </trkpt>
      <trkpt lat="46.78971" lon="6.13313">
        <ele>869.2</ele>
        <time>2019-06-03T08:44:04Z</time>
      </trkpt>
      <trkpt lat="46.78978" lon="6.13301">
        <ele>869.3</ele>
        <time>2019-06-03T08:44:12Z</time>
      </trkpt>
      <trkpt lat="46.78982" lon="6.13291">
        <ele>869.5</ele>
        <time>2019-06-03T08:44:22Z</time>
      </trkpt>
      <trkpt lat="46.78984" lon="6.13288">
        <ele>869.5</ele>
        <time>2019-06-03T08:44:41Z</time>
      </trkpt>
      <trkpt lat="46.78984" lon="6.13288">
        <ele>869.5</ele>
        <time>2019-06-03T08:45:13Z</time>
      </trkpt>
      <trkpt lat="46.78984" lon="6.13288">
        <ele>869.5</ele>
        <time>2019-06-03T08:45:40Z</time>
      </trkpt>
      <trkpt lat="46.78983" lon="6.13288">
        <ele>869.5</ele>
        <time>2019-06-03T08:46:05Z</time>
      </trkpt>
      <trkpt lat="46.78979" lon="6.13289">
        <ele>869.6</ele>
        <time>2019-06-03T08:46:20Z</time>
      </trkpt>
      <trkpt lat="46.78975" lon="6.13293">
        <ele>869.6</ele>
        <time>2019-06-03T08:46:24Z</time>
      </trkpt>
      <trkpt lat="46.78972" lon="6.13305">
        <ele>869.7</ele>
        <time>2019-06-03T08:46:30Z</time>
      </trkpt>
      <trkpt lat="46.78983" lon="6.13375">
        <ele>870</ele>
        <time>2019-06-03T08:46:47Z</time>
      </trkpt>
      <trkpt lat="46.79" lon="6.13458">
        <ele>871.6</ele>
        <time>2019-06-03T08:47:03Z</time>
      </trkpt>
      <trkpt lat="46.79013" lon="6.13541">
        <ele>873.5</ele>
        <time>2019-06-03T08:47:19Z</time>
      </trkpt>
      <trkpt lat="46.79007" lon="6.13611">
        <ele>875.2</ele>
        <time>2019-06-03T08:47:34Z</time>
      </trkpt>
      <trkpt lat="46.78996" lon="6.13665">
        <ele>877.3</ele>
        <time>2019-06-03T08:47:46Z</time>
      </trkpt>
      <trkpt lat="46.78978" lon="6.13707">
        <ele>879.1</ele>
        <time>2019-06-03T08:47:58Z</time>
      </trkpt>
      <trkpt lat="46.7895" lon="6.13729">
        <ele>880.7</ele>
        <time>2019-06-03T08:48:07Z</time>
      </trkpt>
      <trkpt lat="46.78925" lon="6.13755">
        <ele>883</ele>
        <time>2019-06-03T08:48:15Z</time>
      </trkpt>
      <trkpt lat="46.78897" lon="6.13813">
        <ele>886.2</ele>
        <time>2019-06-03T08:48:28Z</time>
      </trkpt>
      <trkpt lat="46.78898" lon="6.13854">
        <ele>887.3</ele>
        <time>2019-06-03T08:48:38Z</time>
      </trkpt>
      <trkpt lat="46.78912" lon="6.13912">
        <ele>888.4</ele>
        <time>2019-06-03T08:48:50Z</time>
      </trkpt>
      <trkpt lat="46.78935" lon="6.13973">
        <ele>889.3</ele>
        <time>2019-06-03T08:49:06Z</time>
      </trkpt>
      <trkpt lat="46.7895" lon="6.14002">
        <ele>889.3</ele>
        <time>2019-06-03T08:49:13Z</time>
      </trkpt>
      <trkpt lat="46.78957" lon="6.14029">
        <ele>889</ele>
        <time>2019-06-03T08:49:17Z</time>
      </trkpt>
      <trkpt lat="46.78965" lon="6.14137">
        <ele>887.2</ele>
        <time>2019-06-03T08:49:29Z</time>
      </trkpt>
      <trkpt lat="46.78995" lon="6.14263">
        <ele>887.9</ele>
        <time>2019-06-03T08:49:44Z</time>
      </trkpt>
      <trkpt lat="46.78998" lon="6.1427">
        <ele>888.1</ele>
        <time>2019-06-03T08:49:45Z</time>
      </trkpt>
      <trkpt lat="46.79017" lon="6.14333">
        <ele>890.7</ele>
        <time>2019-06-03T08:49:55Z</time>
      </trkpt>
      <trkpt lat="46.79027" lon="6.14362">
        <ele>892.2</ele>
        <time>2019-06-03T08:50:00Z</time>
      </trkpt>
      <trkpt lat="46.79032" lon="6.1438">
        <ele>892.9</ele>
        <time>2019-06-03T08:50:03Z</time>
      </trkpt>
      <trkpt lat="46.79025" lon="6.14443">
        <ele>895.6</ele>
        <time>2019-06-03T08:50:14Z</time>
      </trkpt>
      <trkpt lat="46.79016" lon="6.14508">
        <ele>898.5</ele>
        <time>2019-06-03T08:50:26Z</time>
      </trkpt>
      <trkpt lat="46.79022" lon="6.14568">
        <ele>900.3</ele>
        <time>2019-06-03T08:50:37Z</time>
      </trkpt>
      <trkpt lat="46.79034" lon="6.14608">
        <ele>901.1</ele>
        <time>2019-06-03T08:50:48Z</time>
      </trkpt>
      <trkpt lat="46.79045" lon="6.14646">
        <ele>901.2</ele>
        <time>2019-06-03T08:50:57Z</time>
      </trkpt>
      <trkpt lat="46.79048" lon="6.14687">
        <ele>901.2</ele>
        <time>2019-06-03T08:51:07Z</time>
      </trkpt>
      <trkpt lat="46.79045" lon="6.14735">
        <ele>901.1</ele>
        <time>2019-06-03T08:51:19Z</time>
      </trkpt>
      <trkpt lat="46.79037" lon="6.14786">
        <ele>901</ele>
        <time>2019-06-03T08:51:30Z</time>
      </trkpt>
      <trkpt lat="46.79029" lon="6.14828">
        <ele>901.2</ele>
        <time>2019-06-03T08:51:41Z</time>
      </trkpt>
      <trkpt lat="46.79025" lon="6.14846">
        <ele>901.3</ele>
        <time>2019-06-03T08:51:47Z</time>
      </trkpt>
      <trkpt lat="46.79016" lon="6.14871">
        <ele>901.6</ele>
        <time>2019-06-03T08:51:56Z</time>
      </trkpt>
      <trkpt lat="46.79012" lon="6.14875">
        <ele>901.7</ele>
        <time>2019-06-03T08:51:59Z</time>
      </trkpt>
      <trkpt lat="46.79003" lon="6.14898">
        <ele>902</ele>
        <time>2019-06-03T08:52:11Z</time>
      </trkpt>
      <trkpt lat="46.79009" lon="6.14883">
        <ele>902</ele>
        <time>2019-06-03T08:52:21Z</time>
      </trkpt>
      <trkpt lat="46.79005" lon="6.14889">
        <ele>902.1</ele>
        <time>2019-06-03T08:52:24Z</time>
      </trkpt>
      <trkpt lat="46.79007" lon="6.14896">
        <ele>902.1</ele>
        <time>2019-06-03T08:52:32Z</time>
      </trkpt>
      <trkpt lat="46.7901" lon="6.14896">
        <ele>902.1</ele>
        <time>2019-06-03T08:52:34Z</time>
      </trkpt>
      <trkpt lat="46.79006" lon="6.14886">
        <ele>902.2</ele>
        <time>2019-06-03T08:52:42Z</time>
      </trkpt>
      <trkpt lat="46.79004" lon="6.14892">
        <ele>902.2</ele>
        <time>2019-06-03T08:52:45Z</time>
      </trkpt>
      <trkpt lat="46.79007" lon="6.14896">
        <ele>902.2</ele>
        <time>2019-06-03T08:52:50Z</time>
      </trkpt>
      <trkpt lat="46.79011" lon="6.14894">
        <ele>902.2</ele>
        <time>2019-06-03T08:52:53Z</time>
      </trkpt>
      <trkpt lat="46.79006" lon="6.1489">
        <ele>902.3</ele>
        <time>2019-06-03T08:53:02Z</time>
      </trkpt>
      <trkpt lat="46.79008" lon="6.14888">
        <ele>902.3</ele>
        <time>2019-06-03T08:53:04Z</time>
      </trkpt>
      <trkpt lat="46.79011" lon="6.14881">
        <ele>902.3</ele>
        <time>2019-06-03T08:53:08Z</time>
      </trkpt>
      <trkpt lat="46.79008" lon="6.14882">
        <ele>902.3</ele>
        <time>2019-06-03T08:53:12Z</time>
      </trkpt>
      <trkpt lat="46.78982" lon="6.14928">
        <ele>902.3</ele>
        <time>2019-06-03T08:53:25Z</time>
      </trkpt>
      <trkpt lat="46.78979" lon="6.14932">
        <ele>902.2</ele>
        <time>2019-06-03T08:53:26Z</time>
      </trkpt>
      <trkpt lat="46.78933" lon="6.15003">
        <ele>900</ele>
        <time>2019-06-03T08:53:42Z</time>
      </trkpt>
      <trkpt lat="46.7891" lon="6.15035">
        <ele>898</ele>
        <time>2019-06-03T08:53:49Z</time>
      </trkpt>
      <trkpt lat="46.7886" lon="6.15117">
        <ele>894.7</ele>
        <time>2019-06-03T08:54:02Z</time>
      </trkpt>
      <trkpt lat="46.78838" lon="6.15169">
        <ele>893.7</ele>
        <time>2019-06-03T08:54:08Z</time>
      </trkpt>
      <trkpt lat="46.78784" lon="6.15294">
        <ele>889.8</ele>
        <time>2019-06-03T08:54:22Z</time>
      </trkpt>
      <trkpt lat="46.78731" lon="6.15406">
        <ele>886.5</ele>
        <time>2019-06-03T08:54:36Z</time>
      </trkpt>
      <trkpt lat="46.78703" lon="6.15449">
        <ele>885.2</ele>
        <time>2019-06-03T08:54:43Z</time>
      </trkpt>
      <trkpt lat="46.78655" lon="6.15524">
        <ele>890.4</ele>
        <time>2019-06-03T08:54:57Z</time>
      </trkpt>
      <trkpt lat="46.78653" lon="6.15529">
        <ele>890.8</ele>
        <time>2019-06-03T08:54:58Z</time>
      </trkpt>
      <trkpt lat="46.78642" lon="6.15563">
        <ele>892.4</ele>
        <time>2019-06-03T08:55:04Z</time>
      </trkpt>
      <trkpt lat="46.78621" lon="6.15635">
        <ele>898.3</ele>
        <time>2019-06-03T08:55:17Z</time>
      </trkpt>
      <trkpt lat="46.78605" lon="6.15691">
        <ele>902.2</ele>
        <time>2019-06-03T08:55:30Z</time>
      </trkpt>
      <trkpt lat="46.78586" lon="6.15735">
        <ele>907.4</ele>
        <time>2019-06-03T08:55:41Z</time>
      </trkpt>
      <trkpt lat="46.78561" lon="6.15776">
        <ele>911.6</ele>
        <time>2019-06-03T08:55:52Z</time>
      </trkpt>
      <trkpt lat="46.78535" lon="6.15823">
        <ele>919.2</ele>
        <time>2019-06-03T08:56:05Z</time>
      </trkpt>
      <trkpt lat="46.78518" lon="6.15845">
        <ele>926.5</ele>
        <time>2019-06-03T08:56:13Z</time>
      </trkpt>
      <trkpt lat="46.78511" lon="6.15853">
        <ele>928.5</ele>
        <time>2019-06-03T08:56:16Z</time>
      </trkpt>
      <trkpt lat="46.78504" lon="6.15866">
        <ele>930.5</ele>
        <time>2019-06-03T08:56:20Z</time>
      </trkpt>
      <trkpt lat="46.78479" lon="6.15912">
        <ele>935.2</ele>
        <time>2019-06-03T08:56:33Z</time>
      </trkpt>
      <trkpt lat="46.7846" lon="6.15944">
        <ele>937.6</ele>
        <time>2019-06-03T08:56:43Z</time>
      </trkpt>
      <trkpt lat="46.7845" lon="6.15962">
        <ele>938.8</ele>
        <time>2019-06-03T08:56:48Z</time>
      </trkpt>
      <trkpt lat="46.78433" lon="6.16001">
        <ele>940.5</ele>
        <time>2019-06-03T08:57:00Z</time>
      </trkpt>
      <trkpt lat="46.78418" lon="6.16046">
        <ele>942.5</ele>
        <time>2019-06-03T08:57:11Z</time>
      </trkpt>
      <trkpt lat="46.78406" lon="6.16088">
        <ele>944.9</ele>
        <time>2019-06-03T08:57:21Z</time>
      </trkpt>
      <trkpt lat="46.78399" lon="6.16109">
        <ele>945.7</ele>
        <time>2019-06-03T08:57:26Z</time>
      </trkpt>
      <trkpt lat="46.78398" lon="6.16139">
        <ele>946.7</ele>
        <time>2019-06-03T08:57:31Z</time>
      </trkpt>
      <trkpt lat="46.78395" lon="6.16177">
        <ele>947.7</ele>
        <time>2019-06-03T08:57:42Z</time>
      </trkpt>
      <trkpt lat="46.78394" lon="6.16164">
        <ele>948.2</ele>
        <time>2019-06-03T08:57:51Z</time>
      </trkpt>
      <trkpt lat="46.78394" lon="6.16164">
        <ele>948.2</ele>
        <time>2019-06-03T08:58:09Z</time>
      </trkpt>
      <trkpt lat="46.78394" lon="6.16165">
        <ele>948.3</ele>
        <time>2019-06-03T08:58:23Z</time>
      </trkpt>
      <trkpt lat="46.78394" lon="6.16165">
        <ele>948.3</ele>
        <time>2019-06-03T08:58:38Z</time>
      </trkpt>
      <trkpt lat="46.78394" lon="6.16164">
        <ele>948.3</ele>
        <time>2019-06-03T08:59:07Z</time>
      </trkpt>
      <trkpt lat="46.78394" lon="6.16164">
        <ele>948.3</ele>
        <time>2019-06-03T08:59:37Z</time>
      </trkpt>
      <trkpt lat="46.78395" lon="6.16163">
        <ele>948.3</ele>
        <time>2019-06-03T09:00:05Z</time>
      </trkpt>
      <trkpt lat="46.78395" lon="6.16162">
        <ele>948.4</ele>
        <time>2019-06-03T09:00:27Z</time>
      </trkpt>
      <trkpt lat="46.78397" lon="6.16165">
        <ele>948.6</ele>
        <time>2019-06-03T09:00:42Z</time>
      </trkpt>
      <trkpt lat="46.78397" lon="6.16165">
        <ele>948.6</ele>
        <time>2019-06-03T09:01:05Z</time>
      </trkpt>
      <trkpt lat="46.78396" lon="6.16165">
        <ele>948.6</ele>
        <time>2019-06-03T09:01:24Z</time>
      </trkpt>
      <trkpt lat="46.78396" lon="6.16168">
        <ele>948.8</ele>
        <time>2019-06-03T09:01:30Z</time>
      </trkpt>
      <trkpt lat="46.78399" lon="6.16199">
        <ele>950.2</ele>
        <time>2019-06-03T09:01:39Z</time>
      </trkpt>
      <trkpt lat="46.78398" lon="6.16221">
        <ele>951.3</ele>
        <time>2019-06-03T09:01:45Z</time>
      </trkpt>
      <trkpt lat="46.78396" lon="6.16251">
        <ele>952.9</ele>
        <time>2019-06-03T09:01:53Z</time>
      </trkpt>
      <trkpt lat="46.78385" lon="6.16295">
        <ele>954.8</ele>
        <time>2019-06-03T09:02:04Z</time>
      </trkpt>
      <trkpt lat="46.78379" lon="6.16322">
        <ele>956.4</ele>
        <time>2019-06-03T09:02:11Z</time>
      </trkpt>
      <trkpt lat="46.78375" lon="6.16333">
        <ele>957</ele>
        <time>2019-06-03T09:02:15Z</time>
      </trkpt>
      <trkpt lat="46.78369" lon="6.16343">
        <ele>957.8</ele>
        <time>2019-06-03T09:02:19Z</time>
      </trkpt>
      <trkpt lat="46.78347" lon="6.16388">
        <ele>958.8</ele>
        <time>2019-06-03T09:02:27Z</time>
      </trkpt>
      <trkpt lat="46.78336" lon="6.16428">
        <ele>956.1</ele>
        <time>2019-06-03T09:02:31Z</time>
      </trkpt>
      <trkpt lat="46.78323" lon="6.16492">
        <ele>950.6</ele>
        <time>2019-06-03T09:02:38Z</time>
      </trkpt>
      <trkpt lat="46.78311" lon="6.1655">
        <ele>950.4</ele>
        <time>2019-06-03T09:02:46Z</time>
      </trkpt>
      <trkpt lat="46.78307" lon="6.16601">
        <ele>952.4</ele>
        <time>2019-06-03T09:02:54Z</time>
      </trkpt>
      <trkpt lat="46.7831" lon="6.16625">
        <ele>953.3</ele>
        <time>2019-06-03T09:02:59Z</time>
      </trkpt>
      <trkpt lat="46.78311" lon="6.16679">
        <ele>954.7</ele>
        <time>2019-06-03T09:03:11Z</time>
      </trkpt>
      <trkpt lat="46.78309" lon="6.16727">
        <ele>957.3</ele>
        <time>2019-06-03T09:03:22Z</time>
      </trkpt>
      <trkpt lat="46.78307" lon="6.16743">
        <ele>958.7</ele>
        <time>2019-06-03T09:03:26Z</time>
      </trkpt>
      <trkpt lat="46.78312" lon="6.16792">
        <ele>963.7</ele>
        <time>2019-06-03T09:03:38Z</time>
      </trkpt>
      <trkpt lat="46.78322" lon="6.1684">
        <ele>967</ele>
        <time>2019-06-03T09:03:50Z</time>
      </trkpt>
      <trkpt lat="46.78323" lon="6.16849">
        <ele>967.2</ele>
        <time>2019-06-03T09:03:52Z</time>
      </trkpt>
      <trkpt lat="46.78324" lon="6.16882">
        <ele>968.2</ele>
        <time>2019-06-03T09:04:00Z</time>
      </trkpt>
      <trkpt lat="46.78326" lon="6.16889">
        <ele>968.7</ele>
        <time>2019-06-03T09:04:03Z</time>
      </trkpt>
      <trkpt lat="46.78331" lon="6.16943">
        <ele>972</ele>
        <time>2019-06-03T09:04:14Z</time>
      </trkpt>
      <trkpt lat="46.78332" lon="6.16978">
        <ele>973.8</ele>
        <time>2019-06-03T09:04:21Z</time>
      </trkpt>
      <trkpt lat="46.78345" lon="6.17042">
        <ele>976.3</ele>
        <time>2019-06-03T09:04:34Z</time>
      </trkpt>
      <trkpt lat="46.78347" lon="6.17081">
        <ele>976.7</ele>
        <time>2019-06-03T09:04:43Z</time>
      </trkpt>
      <trkpt lat="46.78352" lon="6.17145">
        <ele>978</ele>
        <time>2019-06-03T09:04:55Z</time>
      </trkpt>
      <trkpt lat="46.78346" lon="6.17212">
        <ele>980.4</ele>
        <time>2019-06-03T09:05:08Z</time>
      </trkpt>
      <trkpt lat="46.78341" lon="6.17265">
        <ele>982.5</ele>
        <time>2019-06-03T09:05:20Z</time>
      </trkpt>
      <trkpt lat="46.78333" lon="6.17314">
        <ele>985.2</ele>
        <time>2019-06-03T09:05:31Z</time>
      </trkpt>
      <trkpt lat="46.7833" lon="6.17372">
        <ele>988.2</ele>
        <time>2019-06-03T09:05:44Z</time>
      </trkpt>
      <trkpt lat="46.78335" lon="6.17402">
        <ele>989.9</ele>
        <time>2019-06-03T09:05:52Z</time>
      </trkpt>
      <trkpt lat="46.78338" lon="6.17414">
        <ele>990.4</ele>
        <time>2019-06-03T09:05:56Z</time>
      </trkpt>
      <trkpt lat="46.78348" lon="6.17446">
        <ele>991.2</ele>
        <time>2019-06-03T09:06:08Z</time>
      </trkpt>
      <trkpt lat="46.78349" lon="6.17457">
        <ele>991.4</ele>
        <time>2019-06-03T09:06:15Z</time>
      </trkpt>
      <trkpt lat="46.78346" lon="6.17453">
        <ele>991.7</ele>
        <time>2019-06-03T09:06:19Z</time>
      </trkpt>
      <trkpt lat="46.78345" lon="6.17451">
        <ele>991.8</ele>
        <time>2019-06-03T09:06:21Z</time>
      </trkpt>
      <trkpt lat="46.7834" lon="6.17435">
        <ele>992.1</ele>
        <time>2019-06-03T09:06:30Z</time>
      </trkpt>
      <trkpt lat="46.78335" lon="6.17432">
        <ele>992.2</ele>
        <time>2019-06-03T09:06:33Z</time>
      </trkpt>
      <trkpt lat="46.78341" lon="6.17438">
        <ele>992.3</ele>
        <time>2019-06-03T09:06:39Z</time>
      </trkpt>
      <trkpt lat="46.78344" lon="6.1745">
        <ele>992.3</ele>
        <time>2019-06-03T09:06:47Z</time>
      </trkpt>
      <trkpt lat="46.78342" lon="6.17442">
        <ele>992.4</ele>
        <time>2019-06-03T09:06:56Z</time>
      </trkpt>
      <trkpt lat="46.78341" lon="6.17438">
        <ele>992.4</ele>
        <time>2019-06-03T09:06:58Z</time>
      </trkpt>
      <trkpt lat="46.78333" lon="6.17416">
        <ele>992.2</ele>
        <time>2019-06-03T09:07:09Z</time>
      </trkpt>
      <trkpt lat="46.7833" lon="6.17393">
        <ele>992</ele>
        <time>2019-06-03T09:07:21Z</time>
      </trkpt>
      <trkpt lat="46.7833" lon="6.17375">
        <ele>991.8</ele>
        <time>2019-06-03T09:07:31Z</time>
      </trkpt>
      <trkpt lat="46.78327" lon="6.17376">
        <ele>991.8</ele>
        <time>2019-06-03T09:07:36Z</time>
      </trkpt>
      <trkpt lat="46.7833" lon="6.174">
        <ele>991.2</ele>
        <time>2019-06-03T09:07:47Z</time>
      </trkpt>
      <trkpt lat="46.78333" lon="6.17414">
        <ele>990.9</ele>
        <time>2019-06-03T09:07:52Z</time>
      </trkpt>
      <trkpt lat="46.78341" lon="6.17439">
        <ele>990.7</ele>
        <time>2019-06-03T09:08:01Z</time>
      </trkpt>
      <trkpt lat="46.7834" lon="6.17443">
        <ele>990.6</ele>
        <time>2019-06-03T09:08:05Z</time>
      </trkpt>
      <trkpt lat="46.78337" lon="6.17442">
        <ele>990.6</ele>
        <time>2019-06-03T09:08:12Z</time>
      </trkpt>
      <trkpt lat="46.7834" lon="6.17439">
        <ele>990.5</ele>
        <time>2019-06-03T09:08:16Z</time>
      </trkpt>
      <trkpt lat="46.7834" lon="6.17444">
        <ele>990.4</ele>
        <time>2019-06-03T09:08:22Z</time>
      </trkpt>
      <trkpt lat="46.78343" lon="6.17448">
        <ele>990.4</ele>
        <time>2019-06-03T09:08:35Z</time>
      </trkpt>
      <trkpt lat="46.78343" lon="6.17448">
        <ele>990.4</ele>
        <time>2019-06-03T09:09:05Z</time>
      </trkpt>
      <trkpt lat="46.78344" lon="6.17451">
        <ele>990.4</ele>
        <time>2019-06-03T09:09:18Z</time>
      </trkpt>
      <trkpt lat="46.78358" lon="6.17485">
        <ele>990.3</ele>
        <time>2019-06-03T09:09:28Z</time>
      </trkpt>
      <trkpt lat="46.78362" lon="6.1749">
        <ele>990.3</ele>
        <time>2019-06-03T09:09:29Z</time>
      </trkpt>
      <trkpt lat="46.78372" lon="6.17511">
        <ele>990.8</ele>
        <time>2019-06-03T09:09:33Z</time>
      </trkpt>
      <trkpt lat="46.78415" lon="6.17578">
        <ele>994.4</ele>
        <time>2019-06-03T09:09:45Z</time>
      </trkpt>
      <trkpt lat="46.78428" lon="6.17605">
        <ele>995.7</ele>
        <time>2019-06-03T09:09:49Z</time>
      </trkpt>
      <trkpt lat="46.78437" lon="6.17634">
        <ele>996.6</ele>
        <time>2019-06-03T09:09:53Z</time>
      </trkpt>
      <trkpt lat="46.78438" lon="6.17706">
        <ele>998.2</ele>
        <time>2019-06-03T09:10:05Z</time>
      </trkpt>
      <trkpt lat="46.78434" lon="6.17766">
        <ele>999</ele>
        <time>2019-06-03T09:10:17Z</time>
      </trkpt>
      <trkpt lat="46.78429" lon="6.17814">
        <ele>999.8</ele>
        <time>2019-06-03T09:10:28Z</time>
      </trkpt>
      <trkpt lat="46.78427" lon="6.17873">
        <ele>1000.1</ele>
        <time>2019-06-03T09:10:38Z</time>
      </trkpt>
      <trkpt lat="46.78425" lon="6.17898">
        <ele>999.8</ele>
        <time>2019-06-03T09:10:42Z</time>
      </trkpt>
      <trkpt lat="46.78425" lon="6.17912">
        <ele>999.6</ele>
        <time>2019-06-03T09:10:44Z</time>
      </trkpt>
      <trkpt lat="46.78431" lon="6.17956">
        <ele>999.9</ele>
        <time>2019-06-03T09:10:51Z</time>
      </trkpt>
      <trkpt lat="46.78441" lon="6.1798">
        <ele>1000.7</ele>
        <time>2019-06-03T09:10:55Z</time>
      </trkpt>
      <trkpt lat="46.78468" lon="6.18033">
        <ele>1001.8</ele>
        <time>2019-06-03T09:11:06Z</time>
      </trkpt>
      <trkpt lat="46.78487" lon="6.18075">
        <ele>1002.7</ele>
        <time>2019-06-03T09:11:14Z</time>
      </trkpt>
      <trkpt lat="46.785" lon="6.18101">
        <ele>1003.2</ele>
        <time>2019-06-03T09:11:19Z</time>
      </trkpt>
      <trkpt lat="46.7852" lon="6.1814">
        <ele>1004.3</ele>
        <time>2019-06-03T09:11:27Z</time>
      </trkpt>
      <trkpt lat="46.7853" lon="6.18165">
        <ele>1004.8</ele>
        <time>2019-06-03T09:11:32Z</time>
      </trkpt>
      <trkpt lat="46.78558" lon="6.18234">
        <ele>1006.5</ele>
        <time>2019-06-03T09:11:46Z</time>
      </trkpt>
      <trkpt lat="46.78568" lon="6.18305">
        <ele>1009.9</ele>
        <time>2019-06-03T09:11:58Z</time>
      </trkpt>
      <trkpt lat="46.78566" lon="6.18365">
        <ele>1013.1</ele>
        <time>2019-06-03T09:12:08Z</time>
      </trkpt>
      <trkpt lat="46.7858" lon="6.18452">
        <ele>1016.1</ele>
        <time>2019-06-03T09:12:23Z</time>
      </trkpt>
      <trkpt lat="46.78594" lon="6.18527">
        <ele>1017.1</ele>
        <time>2019-06-03T09:12:36Z</time>
      </trkpt>
      <trkpt lat="46.78589" lon="6.18587">
        <ele>1018.2</ele>
        <time>2019-06-03T09:12:47Z</time>
      </trkpt>
      <trkpt lat="46.7857" lon="6.18647">
        <ele>1022.4</ele>
        <time>2019-06-03T09:12:59Z</time>
      </trkpt>
      <trkpt lat="46.78547" lon="6.18702">
        <ele>1026</ele>
        <time>2019-06-03T09:13:11Z</time>
      </trkpt>
      <trkpt lat="46.78527" lon="6.18732">
        <ele>1025.9</ele>
        <time>2019-06-03T09:13:23Z</time>
      </trkpt>
      <trkpt lat="46.78526" lon="6.18733">
        <ele>1025.9</ele>
        <time>2019-06-03T09:13:24Z</time>
      </trkpt>
      <trkpt lat="46.78525" lon="6.18738">
        <ele>1025.8</ele>
        <time>2019-06-03T09:13:27Z</time>
      </trkpt>
      <trkpt lat="46.78528" lon="6.18734">
        <ele>1025.8</ele>
        <time>2019-06-03T09:13:37Z</time>
      </trkpt>
      <trkpt lat="46.78528" lon="6.18733">
        <ele>1025.8</ele>
        <time>2019-06-03T09:14:13Z</time>
      </trkpt>
      <trkpt lat="46.78529" lon="6.18732">
        <ele>1025.8</ele>
        <time>2019-06-03T09:14:38Z</time>
      </trkpt>
      <trkpt lat="46.78534" lon="6.18724">
        <ele>1025.8</ele>
        <time>2019-06-03T09:14:42Z</time>
      </trkpt>
      <trkpt lat="46.78547" lon="6.18704">
        <ele>1026</ele>
        <time>2019-06-03T09:14:55Z</time>
      </trkpt>
      <trkpt lat="46.78549" lon="6.18699">
        <ele>1026.1</ele>
        <time>2019-06-03T09:14:58Z</time>
      </trkpt>
      <trkpt lat="46.78564" lon="6.18669">
        <ele>1026.7</ele>
        <time>2019-06-03T09:15:15Z</time>
      </trkpt>
      <trkpt lat="46.78571" lon="6.18654">
        <ele>1027</ele>
        <time>2019-06-03T09:15:23Z</time>
      </trkpt>
      <trkpt lat="46.78575" lon="6.18648">
        <ele>1027.3</ele>
        <time>2019-06-03T09:15:27Z</time>
      </trkpt>
      <trkpt lat="46.7858" lon="6.18626">
        <ele>1027.9</ele>
        <time>2019-06-03T09:15:38Z</time>
      </trkpt>
      <trkpt lat="46.78575" lon="6.18637">
        <ele>1028.5</ele>
        <time>2019-06-03T09:15:43Z</time>
      </trkpt>
      <trkpt lat="46.78559" lon="6.18677">
        <ele>1030.5</ele>
        <time>2019-06-03T09:15:55Z</time>
      </trkpt>
      <trkpt lat="46.78539" lon="6.18716">
        <ele>1032.1</ele>
        <time>2019-06-03T09:16:06Z</time>
      </trkpt>
      <trkpt lat="46.78509" lon="6.1875">
        <ele>1031.2</ele>
        <time>2019-06-03T09:16:21Z</time>
      </trkpt>
      <trkpt lat="46.7848" lon="6.18769">
        <ele>1031.4</ele>
        <time>2019-06-03T09:16:33Z</time>
      </trkpt>
      <trkpt lat="46.7846" lon="6.18777">
        <ele>1033.2</ele>
        <time>2019-06-03T09:16:43Z</time>
      </trkpt>
      <trkpt lat="46.78436" lon="6.1878">
        <ele>1035.9</ele>
        <time>2019-06-03T09:16:53Z</time>
      </trkpt>
      <trkpt lat="46.7843" lon="6.18779">
        <ele>1036.6</ele>
        <time>2019-06-03T09:16:56Z</time>
      </trkpt>
      <trkpt lat="46.78406" lon="6.18781">
        <ele>1039</ele>
        <time>2019-06-03T09:17:05Z</time>
      </trkpt>
      <trkpt lat="46.78393" lon="6.18784">
        <ele>1039.9</ele>
        <time>2019-06-03T09:17:11Z</time>
      </trkpt>
      <trkpt lat="46.78359" lon="6.18795">
        <ele>1040.9</ele>
        <time>2019-06-03T09:17:21Z</time>
      </trkpt>
      <trkpt lat="46.7832" lon="6.1879">
        <ele>1039.1</ele>
        <time>2019-06-03T09:17:33Z</time>
      </trkpt>
      <trkpt lat="46.78304" lon="6.18787">
        <ele>1038.2</ele>
        <time>2019-06-03T09:17:39Z</time>
      </trkpt>
      <trkpt lat="46.78271" lon="6.18789">
        <ele>1036.9</ele>
        <time>2019-06-03T09:17:50Z</time>
      </trkpt>
      <trkpt lat="46.78242" lon="6.188">
        <ele>1037.4</ele>
        <time>2019-06-03T09:18:03Z</time>
      </trkpt>
      <trkpt lat="46.78233" lon="6.18803">
        <ele>1037.5</ele>
        <time>2019-06-03T09:18:08Z</time>
      </trkpt>
      <trkpt lat="46.78219" lon="6.18806">
        <ele>1038.1</ele>
        <time>2019-06-03T09:18:14Z</time>
      </trkpt>
      <trkpt lat="46.78208" lon="6.18811">
        <ele>1038.8</ele>
        <time>2019-06-03T09:18:20Z</time>
      </trkpt>
      <trkpt lat="46.78195" lon="6.18816">
        <ele>1039.6</ele>
        <time>2019-06-03T09:18:26Z</time>
      </trkpt>
      <trkpt lat="46.78179" lon="6.18824">
        <ele>1041.1</ele>
        <time>2019-06-03T09:18:32Z</time>
      </trkpt>
      <trkpt lat="46.78155" lon="6.18845">
        <ele>1043.3</ele>
        <time>2019-06-03T09:18:44Z</time>
      </trkpt>
      <trkpt lat="46.78124" lon="6.18862">
        <ele>1045.9</ele>
        <time>2019-06-03T09:18:57Z</time>
      </trkpt>
      <trkpt lat="46.78089" lon="6.1887">
        <ele>1050.6</ele>
        <time>2019-06-03T09:19:10Z</time>
      </trkpt>
      <trkpt lat="46.78079" lon="6.18869">
        <ele>1052.4</ele>
        <time>2019-06-03T09:19:14Z</time>
      </trkpt>
      <trkpt lat="46.78056" lon="6.18866">
        <ele>1057.1</ele>
        <time>2019-06-03T09:19:23Z</time>
      </trkpt>
      <trkpt lat="46.78053" lon="6.18865">
        <ele>1057.7</ele>
        <time>2019-06-03T09:19:24Z</time>
      </trkpt>
      <trkpt lat="46.78036" lon="6.18865">
        <ele>1060.4</ele>
        <time>2019-06-03T09:19:34Z</time>
      </trkpt>
      <trkpt lat="46.78036" lon="6.18867">
        <ele>1060.6</ele>
        <time>2019-06-03T09:19:49Z</time>
      </trkpt>
      <trkpt lat="46.78035" lon="6.18867">
        <ele>1060.7</ele>
        <time>2019-06-03T09:20:04Z</time>
      </trkpt>
      <trkpt lat="46.78035" lon="6.18867">
        <ele>1060.7</ele>
        <time>2019-06-03T09:20:28Z</time>
      </trkpt>
      <trkpt lat="46.78035" lon="6.18867">
        <ele>1060.8</ele>
        <time>2019-06-03T09:20:56Z</time>
      </trkpt>
      <trkpt lat="46.78034" lon="6.18866">
        <ele>1060.9</ele>
        <time>2019-06-03T09:21:02Z</time>
      </trkpt>
      <trkpt lat="46.78023" lon="6.18865">
        <ele>1061.9</ele>
        <time>2019-06-03T09:21:07Z</time>
      </trkpt>
      <trkpt lat="46.77984" lon="6.18864">
        <ele>1064.4</ele>
        <time>2019-06-03T09:21:18Z</time>
      </trkpt>
      <trkpt lat="46.77967" lon="6.18866">
        <ele>1064.4</ele>
        <time>2019-06-03T09:21:23Z</time>
      </trkpt>
      <trkpt lat="46.7794" lon="6.18876">
        <ele>1064.3</ele>
        <time>2019-06-03T09:21:32Z</time>
      </trkpt>
      <trkpt lat="46.77935" lon="6.18877">
        <ele>1064.4</ele>
        <time>2019-06-03T09:21:34Z</time>
      </trkpt>
      <trkpt lat="46.77924" lon="6.18879">
        <ele>1064.7</ele>
        <time>2019-06-03T09:21:38Z</time>
      </trkpt>
      <trkpt lat="46.77916" lon="6.1888">
        <ele>1065.1</ele>
        <time>2019-06-03T09:21:42Z</time>
      </trkpt>
      <trkpt lat="46.77895" lon="6.18885">
        <ele>1066.1</ele>
        <time>2019-06-03T09:21:48Z</time>
      </trkpt>
      <trkpt lat="46.77861" lon="6.18897">
        <ele>1068.4</ele>
        <time>2019-06-03T09:22:00Z</time>
      </trkpt>
      <trkpt lat="46.77834" lon="6.18903">
        <ele>1069.7</ele>
        <time>2019-06-03T09:22:11Z</time>
      </trkpt>
      <trkpt lat="46.7782" lon="6.18906">
        <ele>1070.5</ele>
        <time>2019-06-03T09:22:19Z</time>
      </trkpt>
      <trkpt lat="46.77813" lon="6.18909">
        <ele>1070.9</ele>
        <time>2019-06-03T09:22:23Z</time>
      </trkpt>
      <trkpt lat="46.77809" lon="6.18911">
        <ele>1071.3</ele>
        <time>2019-06-03T09:22:25Z</time>
      </trkpt>
      <trkpt lat="46.77779" lon="6.18914">
        <ele>1074.2</ele>
        <time>2019-06-03T09:22:35Z</time>
      </trkpt>
      <trkpt lat="46.77776" lon="6.18913">
        <ele>1074.8</ele>
        <time>2019-06-03T09:22:36Z</time>
      </trkpt>
      <trkpt lat="46.77771" lon="6.18912">
        <ele>1075.9</ele>
        <time>2019-06-03T09:22:38Z</time>
      </trkpt>
      <trkpt lat="46.77757" lon="6.18909">
        <ele>1077.6</ele>
        <time>2019-06-03T09:22:44Z</time>
      </trkpt>
      <trkpt lat="46.77745" lon="6.18911">
        <ele>1079.3</ele>
        <time>2019-06-03T09:22:48Z</time>
      </trkpt>
      <trkpt lat="46.77721" lon="6.18907">
        <ele>1081</ele>
        <time>2019-06-03T09:22:57Z</time>
      </trkpt>
      <trkpt lat="46.77717" lon="6.18907">
        <ele>1081.3</ele>
        <time>2019-06-03T09:22:59Z</time>
      </trkpt>
      <trkpt lat="46.77685" lon="6.18902">
        <ele>1083.1</ele>
        <time>2019-06-03T09:23:12Z</time>
      </trkpt>
      <trkpt lat="46.77667" lon="6.189">
        <ele>1083.7</ele>
        <time>2019-06-03T09:23:22Z</time>
      </trkpt>
      <trkpt lat="46.77643" lon="6.18904">
        <ele>1083.8</ele>
        <time>2019-06-03T09:23:34Z</time>
      </trkpt>
      <trkpt lat="46.77636" lon="6.18903">
        <ele>1083.7</ele>
        <time>2019-06-03T09:23:38Z</time>
      </trkpt>
      <trkpt lat="46.7763" lon="6.18902">
        <ele>1083.5</ele>
        <time>2019-06-03T09:23:50Z</time>
      </trkpt>
      <trkpt lat="46.7763" lon="6.18902">
        <ele>1083.5</ele>
        <time>2019-06-03T09:24:19Z</time>
      </trkpt>
      <trkpt lat="46.7763" lon="6.18902">
        <ele>1083.5</ele>
        <time>2019-06-03T09:24:52Z</time>
      </trkpt>
      <trkpt lat="46.7761" lon="6.18899">
        <ele>1082.8</ele>
        <time>2019-06-03T09:25:01Z</time>
      </trkpt>
      <trkpt lat="46.77587" lon="6.18902">
        <ele>1081.2</ele>
        <time>2019-06-03T09:25:10Z</time>
      </trkpt>
      <trkpt lat="46.77584" lon="6.189">
        <ele>1081</ele>
        <time>2019-06-03T09:25:13Z</time>
      </trkpt>
      <trkpt lat="46.77566" lon="6.18915">
        <ele>1078.7</ele>
        <time>2019-06-03T09:25:21Z</time>
      </trkpt>
      <trkpt lat="46.77538" lon="6.18938">
        <ele>1075.5</ele>
        <time>2019-06-03T09:25:33Z</time>
      </trkpt>
      <trkpt lat="46.77533" lon="6.18943">
        <ele>1074.9</ele>
        <time>2019-06-03T09:25:36Z</time>
      </trkpt>
      <trkpt lat="46.77525" lon="6.1895">
        <ele>1073.7</ele>
        <time>2019-06-03T09:25:40Z</time>
      </trkpt>
      <trkpt lat="46.77495" lon="6.1898">
        <ele>1070</ele>
        <time>2019-06-03T09:25:53Z</time>
      </trkpt>
      <trkpt lat="46.77467" lon="6.19008">
        <ele>1065.3</ele>
        <time>2019-06-03T09:26:05Z</time>
      </trkpt>
      <trkpt lat="46.77464" lon="6.19011">
        <ele>1064.7</ele>
        <time>2019-06-03T09:26:07Z</time>
      </trkpt>
      <trkpt lat="46.77454" lon="6.19031">
        <ele>1061.7</ele>
        <time>2019-06-03T09:26:15Z</time>
      </trkpt>
      <trkpt lat="46.77441" lon="6.19076">
        <ele>1057.9</ele>
        <time>2019-06-03T09:26:28Z</time>
      </trkpt>
      <trkpt lat="46.77437" lon="6.19123">
        <ele>1052</ele>
        <time>2019-06-03T09:26:40Z</time>
      </trkpt>
      <trkpt lat="46.77441" lon="6.19169">
        <ele>1050.7</ele>
        <time>2019-06-03T09:26:49Z</time>
      </trkpt>
      <trkpt lat="46.77446" lon="6.19182">
        <ele>1049.7</ele>
        <time>2019-06-03T09:26:52Z</time>
      </trkpt>
      <trkpt lat="46.7745" lon="6.19192">
        <ele>1049</ele>
        <time>2019-06-03T09:26:54Z</time>
      </trkpt>
      <trkpt lat="46.77458" lon="6.19209">
        <ele>1047.7</ele>
        <time>2019-06-03T09:26:57Z</time>
      </trkpt>
      <trkpt lat="46.77479" lon="6.19243">
        <ele>1043.4</ele>
        <time>2019-06-03T09:27:04Z</time>
      </trkpt>
      <trkpt lat="46.77508" lon="6.19314">
        <ele>1041.2</ele>
        <time>2019-06-03T09:27:18Z</time>
      </trkpt>
      <trkpt lat="46.77498" lon="6.19366">
        <ele>1042.4</ele>
        <time>2019-06-03T09:27:31Z</time>
      </trkpt>
      <trkpt lat="46.77466" lon="6.19394">
        <ele>1042.2</ele>
        <time>2019-06-03T09:27:44Z</time>
      </trkpt>
      <trkpt lat="46.77462" lon="6.19403">
        <ele>1042.2</ele>
        <time>2019-06-03T09:27:47Z</time>
      </trkpt>
      <trkpt lat="46.77438" lon="6.19442">
        <ele>1041.4</ele>
        <time>2019-06-03T09:28:00Z</time>
      </trkpt>
      <trkpt lat="46.77406" lon="6.19489">
        <ele>1038.7</ele>
        <time>2019-06-03T09:28:14Z</time>
      </trkpt>
      <trkpt lat="46.77399" lon="6.1953">
        <ele>1035.4</ele>
        <time>2019-06-03T09:28:25Z</time>
      </trkpt>
      <trkpt lat="46.77405" lon="6.19551">
        <ele>1033</ele>
        <time>2019-06-03T09:28:34Z</time>
      </trkpt>
      <trkpt lat="46.77405" lon="6.19551">
        <ele>1033</ele>
        <time>2019-06-03T09:28:59Z</time>
      </trkpt>
      <trkpt lat="46.77405" lon="6.19551">
        <ele>1033</ele>
        <time>2019-06-03T09:29:17Z</time>
      </trkpt>
      <trkpt lat="46.77405" lon="6.19553">
        <ele>1032.7</ele>
        <time>2019-06-03T09:29:19Z</time>
      </trkpt>
      <trkpt lat="46.77415" lon="6.19574">
        <ele>1029.4</ele>
        <time>2019-06-03T09:29:26Z</time>
      </trkpt>
      <trkpt lat="46.77445" lon="6.19601">
        <ele>1025.8</ele>
        <time>2019-06-03T09:29:39Z</time>
      </trkpt>
      <trkpt lat="46.77483" lon="6.196">
        <ele>1024.3</ele>
        <time>2019-06-03T09:29:49Z</time>
      </trkpt>
      <trkpt lat="46.77503" lon="6.19605">
        <ele>1024.1</ele>
        <time>2019-06-03T09:29:56Z</time>
      </trkpt>
      <trkpt lat="46.7753" lon="6.19629">
        <ele>1023.8</ele>
        <time>2019-06-03T09:30:05Z</time>
      </trkpt>
      <trkpt lat="46.77543" lon="6.19645">
        <ele>1023.6</ele>
        <time>2019-06-03T09:30:09Z</time>
      </trkpt>
      <trkpt lat="46.77553" lon="6.19656">
        <ele>1023.1</ele>
        <time>2019-06-03T09:30:12Z</time>
      </trkpt>
      <trkpt lat="46.77578" lon="6.19679">
        <ele>1022.7</ele>
        <time>2019-06-03T09:30:19Z</time>
      </trkpt>
      <trkpt lat="46.77593" lon="6.19693">
        <ele>1022.7</ele>
        <time>2019-06-03T09:30:23Z</time>
      </trkpt>
      <trkpt lat="46.77627" lon="6.19726">
        <ele>1022.8</ele>
        <time>2019-06-03T09:30:32Z</time>
      </trkpt>
      <trkpt lat="46.77661" lon="6.19751">
        <ele>1023</ele>
        <time>2019-06-03T09:30:43Z</time>
      </trkpt>
      <trkpt lat="46.77683" lon="6.19764">
        <ele>1023.1</ele>
        <time>2019-06-03T09:30:49Z</time>
      </trkpt>
      <trkpt lat="46.777" lon="6.19799">
        <ele>1023.3</ele>
        <time>2019-06-03T09:30:57Z</time>
      </trkpt>
      <trkpt lat="46.77704" lon="6.19857">
        <ele>1023.5</ele>
        <time>2019-06-03T09:31:08Z</time>
      </trkpt>
      <trkpt lat="46.77702" lon="6.19886">
        <ele>1023.6</ele>
        <time>2019-06-03T09:31:13Z</time>
      </trkpt>
      <trkpt lat="46.77702" lon="6.19905">
        <ele>1023.7</ele>
        <time>2019-06-03T09:31:16Z</time>
      </trkpt>
      <trkpt lat="46.77707" lon="6.19929">
        <ele>1023.7</ele>
        <time>2019-06-03T09:31:20Z</time>
      </trkpt>
      <trkpt lat="46.77725" lon="6.19965">
        <ele>1023.2</ele>
        <time>2019-06-03T09:31:32Z</time>
      </trkpt>
      <trkpt lat="46.77729" lon="6.19968">
        <ele>1023</ele>
        <time>2019-06-03T09:31:43Z</time>
      </trkpt>
      <trkpt lat="46.77732" lon="6.19971">
        <ele>1022.7</ele>
        <time>2019-06-03T09:31:46Z</time>
      </trkpt>
      <trkpt lat="46.77743" lon="6.19984">
        <ele>1021.8</ele>
        <time>2019-06-03T09:31:50Z</time>
      </trkpt>
      <trkpt lat="46.77755" lon="6.19999">
        <ele>1020.6</ele>
        <time>2019-06-03T09:31:53Z</time>
      </trkpt>
      <trkpt lat="46.77819" lon="6.20078">
        <ele>1017.1</ele>
        <time>2019-06-03T09:32:04Z</time>
      </trkpt>
      <trkpt lat="46.77825" lon="6.20086">
        <ele>1017</ele>
        <time>2019-06-03T09:32:05Z</time>
      </trkpt>
      <trkpt lat="46.77884" lon="6.20187">
        <ele>1016.1</ele>
        <time>2019-06-03T09:32:17Z</time>
      </trkpt>
      <trkpt lat="46.77899" lon="6.20215">
        <ele>1015.8</ele>
        <time>2019-06-03T09:32:21Z</time>
      </trkpt>
      <trkpt lat="46.77912" lon="6.20233">
        <ele>1015.2</ele>
        <time>2019-06-03T09:32:24Z</time>
      </trkpt>
      <trkpt lat="46.77954" lon="6.20282">
        <ele>1013.1</ele>
        <time>2019-06-03T09:32:32Z</time>
      </trkpt>
      <trkpt lat="46.77972" lon="6.20319">
        <ele>1012.2</ele>
        <time>2019-06-03T09:32:37Z</time>
      </trkpt>
      <trkpt lat="46.77985" lon="6.20354">
        <ele>1011.1</ele>
        <time>2019-06-03T09:32:42Z</time>
      </trkpt>
      <trkpt lat="46.77997" lon="6.20381">
        <ele>1010.1</ele>
        <time>2019-06-03T09:32:46Z</time>
      </trkpt>
      <trkpt lat="46.78031" lon="6.20425">
        <ele>1008</ele>
        <time>2019-06-03T09:32:53Z</time>
      </trkpt>
      <trkpt lat="46.78048" lon="6.20492">
        <ele>1006.9</ele>
        <time>2019-06-03T09:33:00Z</time>
      </trkpt>
      <trkpt lat="46.78047" lon="6.20538">
        <ele>1006.1</ele>
        <time>2019-06-03T09:33:05Z</time>
      </trkpt>
      <trkpt lat="46.78049" lon="6.20556">
        <ele>1005.4</ele>
        <time>2019-06-03T09:33:07Z</time>
      </trkpt>
      <trkpt lat="46.78062" lon="6.20596">
        <ele>1003.5</ele>
        <time>2019-06-03T09:33:11Z</time>
      </trkpt>
      <trkpt lat="46.78083" lon="6.20629">
        <ele>1000.8</ele>
        <time>2019-06-03T09:33:15Z</time>
      </trkpt>
      <trkpt lat="46.7809" lon="6.20634">
        <ele>999.9</ele>
        <time>2019-06-03T09:33:16Z</time>
      </trkpt>
      <trkpt lat="46.78139" lon="6.2067">
        <ele>994.4</ele>
        <time>2019-06-03T09:33:21Z</time>
      </trkpt>
      <trkpt lat="46.7815" lon="6.2068">
        <ele>993.6</ele>
        <time>2019-06-03T09:33:22Z</time>
      </trkpt>
      <trkpt lat="46.78167" lon="6.207">
        <ele>992.7</ele>
        <time>2019-06-03T09:33:24Z</time>
      </trkpt>
      <trkpt lat="46.7821" lon="6.20771">
        <ele>991.2</ele>
        <time>2019-06-03T09:33:30Z</time>
      </trkpt>
      <trkpt lat="46.78281" lon="6.20868">
        <ele>989.2</ele>
        <time>2019-06-03T09:33:41Z</time>
      </trkpt>
      <trkpt lat="46.78285" lon="6.20878">
        <ele>989.1</ele>
        <time>2019-06-03T09:33:42Z</time>
      </trkpt>
      <trkpt lat="46.78306" lon="6.20949">
        <ele>987.7</ele>
        <time>2019-06-03T09:33:49Z</time>
      </trkpt>
      <trkpt lat="46.78319" lon="6.20977">
        <ele>986.5</ele>
        <time>2019-06-03T09:33:52Z</time>
      </trkpt>
      <trkpt lat="46.78329" lon="6.20999">
        <ele>986.4</ele>
        <time>2019-06-03T09:33:54Z</time>
      </trkpt>
      <trkpt lat="46.78363" lon="6.21117">
        <ele>984.4</ele>
        <time>2019-06-03T09:34:06Z</time>
      </trkpt>
      <trkpt lat="46.78376" lon="6.21168">
        <ele>982</ele>
        <time>2019-06-03T09:34:13Z</time>
      </trkpt>
      <trkpt lat="46.78382" lon="6.2119">
        <ele>980.7</ele>
        <time>2019-06-03T09:34:18Z</time>
      </trkpt>
      <trkpt lat="46.78391" lon="6.21229">
        <ele>979.3</ele>
        <time>2019-06-03T09:34:24Z</time>
      </trkpt>
      <trkpt lat="46.78408" lon="6.21298">
        <ele>975.8</ele>
        <time>2019-06-03T09:34:31Z</time>
      </trkpt>
      <trkpt lat="46.78424" lon="6.21365">
        <ele>974.4</ele>
        <time>2019-06-03T09:34:36Z</time>
      </trkpt>
      <trkpt lat="46.78433" lon="6.21407">
        <ele>973.3</ele>
        <time>2019-06-03T09:34:39Z</time>
      </trkpt>
      <trkpt lat="46.78448" lon="6.21481">
        <ele>971.4</ele>
        <time>2019-06-03T09:34:44Z</time>
      </trkpt>
      <trkpt lat="46.78492" lon="6.21613">
        <ele>969.4</ele>
        <time>2019-06-03T09:34:53Z</time>
      </trkpt>
      <trkpt lat="46.78512" lon="6.21664">
        <ele>968</ele>
        <time>2019-06-03T09:34:57Z</time>
      </trkpt>
      <trkpt lat="46.78551" lon="6.21792">
        <ele>966.6</ele>
        <time>2019-06-03T09:35:09Z</time>
      </trkpt>
      <trkpt lat="46.78553" lon="6.21802">
        <ele>966.8</ele>
        <time>2019-06-03T09:35:10Z</time>
      </trkpt>
      <trkpt lat="46.78571" lon="6.21945">
        <ele>963.8</ele>
        <time>2019-06-03T09:35:25Z</time>
      </trkpt>
      <trkpt lat="46.78578" lon="6.21977">
        <ele>962.8</ele>
        <time>2019-06-03T09:35:29Z</time>
      </trkpt>
      <trkpt lat="46.78582" lon="6.21992">
        <ele>962.3</ele>
        <time>2019-06-03T09:35:31Z</time>
      </trkpt>
      <trkpt lat="46.78591" lon="6.22038">
        <ele>961.5</ele>
        <time>2019-06-03T09:35:37Z</time>
      </trkpt>
      <trkpt lat="46.78593" lon="6.22071">
        <ele>963.3</ele>
        <time>2019-06-03T09:35:43Z</time>
      </trkpt>
      <trkpt lat="46.78576" lon="6.22068">
        <ele>966.4</ele>
        <time>2019-06-03T09:35:51Z</time>
      </trkpt>
      <trkpt lat="46.78536" lon="6.22053">
        <ele>970.9</ele>
        <time>2019-06-03T09:36:08Z</time>
      </trkpt>
      <trkpt lat="46.78505" lon="6.22048">
        <ele>974.3</ele>
        <time>2019-06-03T09:36:21Z</time>
      </trkpt>
      <trkpt lat="46.78478" lon="6.22047">
        <ele>976.8</ele>
        <time>2019-06-03T09:36:33Z</time>
      </trkpt>
      <trkpt lat="46.78449" lon="6.22055">
        <ele>978.9</ele>
        <time>2019-06-03T09:36:47Z</time>
      </trkpt>
      <trkpt lat="46.78428" lon="6.22064">
        <ele>980.1</ele>
        <time>2019-06-03T09:36:56Z</time>
      </trkpt>
      <trkpt lat="46.78411" lon="6.22072">
        <ele>981</ele>
        <time>2019-06-03T09:37:05Z</time>
      </trkpt>
      <trkpt lat="46.78383" lon="6.22087">
        <ele>981.9</ele>
        <time>2019-06-03T09:37:17Z</time>
      </trkpt>
      <trkpt lat="46.78368" lon="6.22102">
        <ele>982.6</ele>
        <time>2019-06-03T09:37:23Z</time>
      </trkpt>
      <trkpt lat="46.78343" lon="6.2212">
        <ele>983.6</ele>
        <time>2019-06-03T09:37:34Z</time>
      </trkpt>
      <trkpt lat="46.78306" lon="6.22151">
        <ele>985</ele>
        <time>2019-06-03T09:37:47Z</time>
      </trkpt>
      <trkpt lat="46.78281" lon="6.22176">
        <ele>986</ele>
        <time>2019-06-03T09:37:58Z</time>
      </trkpt>
      <trkpt lat="46.78257" lon="6.22217">
        <ele>987.2</ele>
        <time>2019-06-03T09:38:09Z</time>
      </trkpt>
      <trkpt lat="46.78237" lon="6.22267">
        <ele>989.4</ele>
        <time>2019-06-03T09:38:21Z</time>
      </trkpt>
      <trkpt lat="46.78235" lon="6.22278">
        <ele>989.9</ele>
        <time>2019-06-03T09:38:24Z</time>
      </trkpt>
      <trkpt lat="46.78233" lon="6.22302">
        <ele>991.1</ele>
        <time>2019-06-03T09:38:29Z</time>
      </trkpt>
      <trkpt lat="46.78216" lon="6.22362">
        <ele>995.3</ele>
        <time>2019-06-03T09:38:41Z</time>
      </trkpt>
      <trkpt lat="46.782" lon="6.22405">
        <ele>998.2</ele>
        <time>2019-06-03T09:38:51Z</time>
      </trkpt>
      <trkpt lat="46.78181" lon="6.2245">
        <ele>1000</ele>
        <time>2019-06-03T09:39:02Z</time>
      </trkpt>
      <trkpt lat="46.78164" lon="6.22486">
        <ele>1001</ele>
        <time>2019-06-03T09:39:11Z</time>
      </trkpt>
      <trkpt lat="46.78162" lon="6.22489">
        <ele>1001.1</ele>
        <time>2019-06-03T09:39:12Z</time>
      </trkpt>
      <trkpt lat="46.78126" lon="6.22519">
        <ele>1002.6</ele>
        <time>2019-06-03T09:39:24Z</time>
      </trkpt>
      <trkpt lat="46.78088" lon="6.22543">
        <ele>1003.4</ele>
        <time>2019-06-03T09:39:36Z</time>
      </trkpt>
      <trkpt lat="46.78087" lon="6.22592">
        <ele>1003.7</ele>
        <time>2019-06-03T09:39:46Z</time>
      </trkpt>
      <trkpt lat="46.78088" lon="6.22657">
        <ele>1004.6</ele>
        <time>2019-06-03T09:40:01Z</time>
      </trkpt>
      <trkpt lat="46.78071" lon="6.22692">
        <ele>1005.9</ele>
        <time>2019-06-03T09:40:14Z</time>
      </trkpt>
      <trkpt lat="46.78042" lon="6.22721">
        <ele>1008.9</ele>
        <time>2019-06-03T09:40:26Z</time>
      </trkpt>
      <trkpt lat="46.78009" lon="6.22751">
        <ele>1010.8</ele>
        <time>2019-06-03T09:40:39Z</time>
      </trkpt>
      <trkpt lat="46.78004" lon="6.22756">
        <ele>1010.5</ele>
        <time>2019-06-03T09:40:42Z</time>
      </trkpt>
      <trkpt lat="46.78007" lon="6.22758">
        <ele>1010.5</ele>
        <time>2019-06-03T09:40:46Z</time>
      </trkpt>
      <trkpt lat="46.78044" lon="6.22721">
        <ele>1008.1</ele>
        <time>2019-06-03T09:40:58Z</time>
      </trkpt>
      <trkpt lat="46.78072" lon="6.22695">
        <ele>1005.7</ele>
        <time>2019-06-03T09:41:09Z</time>
      </trkpt>
      <trkpt lat="46.7809" lon="6.22648">
        <ele>1004.4</ele>
        <time>2019-06-03T09:41:22Z</time>
      </trkpt>
      <trkpt lat="46.78088" lon="6.22593">
        <ele>1003.8</ele>
        <time>2019-06-03T09:41:38Z</time>
      </trkpt>
      <trkpt lat="46.78087" lon="6.22607">
        <ele>1003.9</ele>
        <time>2019-06-03T09:41:44Z</time>
      </trkpt>
      <trkpt lat="46.78088" lon="6.22664">
        <ele>1004.8</ele>
        <time>2019-06-03T09:41:59Z</time>
      </trkpt>
      <trkpt lat="46.78062" lon="6.22706">
        <ele>1007</ele>
        <time>2019-06-03T09:42:13Z</time>
      </trkpt>
      <trkpt lat="46.78045" lon="6.2272">
        <ele>1008.8</ele>
        <time>2019-06-03T09:42:18Z</time>
      </trkpt>
      <trkpt lat="46.78037" lon="6.22724">
        <ele>1009.4</ele>
        <time>2019-06-03T09:42:20Z</time>
      </trkpt>
      <trkpt lat="46.77994" lon="6.22772">
        <ele>1011.4</ele>
        <time>2019-06-03T09:42:34Z</time>
      </trkpt>
      <trkpt lat="46.77972" lon="6.22812">
        <ele>1012</ele>
        <time>2019-06-03T09:42:44Z</time>
      </trkpt>
      <trkpt lat="46.77953" lon="6.22868">
        <ele>1012.1</ele>
        <time>2019-06-03T09:42:57Z</time>
      </trkpt>
      <trkpt lat="46.77942" lon="6.22922">
        <ele>1012.1</ele>
        <time>2019-06-03T09:43:08Z</time>
      </trkpt>
      <trkpt lat="46.77937" lon="6.22974">
        <ele>1012.2</ele>
        <time>2019-06-03T09:43:18Z</time>
      </trkpt>
      <trkpt lat="46.77936" lon="6.22981">
        <ele>1012.2</ele>
        <time>2019-06-03T09:43:19Z</time>
      </trkpt>
      <trkpt lat="46.77933" lon="6.23011">
        <ele>1012.8</ele>
        <time>2019-06-03T09:43:23Z</time>
      </trkpt>
      <trkpt lat="46.77933" lon="6.23028">
        <ele>1013.5</ele>
        <time>2019-06-03T09:43:25Z</time>
      </trkpt>
      <trkpt lat="46.77933" lon="6.23043">
        <ele>1014</ele>
        <time>2019-06-03T09:43:27Z</time>
      </trkpt>
      <trkpt lat="46.77942" lon="6.23111">
        <ele>1014.7</ele>
        <time>2019-06-03T09:43:39Z</time>
      </trkpt>
      <trkpt lat="46.77931" lon="6.23152">
        <ele>1012.1</ele>
        <time>2019-06-03T09:43:50Z</time>
      </trkpt>
      <trkpt lat="46.77926" lon="6.2316">
        <ele>1010.9</ele>
        <time>2019-06-03T09:43:55Z</time>
      </trkpt>
      <trkpt lat="46.77922" lon="6.23169">
        <ele>1009.9</ele>
        <time>2019-06-03T09:43:58Z</time>
      </trkpt>
      <trkpt lat="46.77907" lon="6.23194">
        <ele>1007.3</ele>
        <time>2019-06-03T09:44:02Z</time>
      </trkpt>
      <trkpt lat="46.77867" lon="6.23248">
        <ele>1001.5</ele>
        <time>2019-06-03T09:44:08Z</time>
      </trkpt>
      <trkpt lat="46.77851" lon="6.23269">
        <ele>999</ele>
        <time>2019-06-03T09:44:10Z</time>
      </trkpt>
      <trkpt lat="46.77828" lon="6.23295">
        <ele>994.8</ele>
        <time>2019-06-03T09:44:13Z</time>
      </trkpt>
      <trkpt lat="46.77803" lon="6.23319">
        <ele>992.6</ele>
        <time>2019-06-03T09:44:16Z</time>
      </trkpt>
      <trkpt lat="46.77782" lon="6.23337">
        <ele>992.7</ele>
        <time>2019-06-03T09:44:19Z</time>
      </trkpt>
      <trkpt lat="46.77758" lon="6.23357">
        <ele>993.6</ele>
        <time>2019-06-03T09:44:24Z</time>
      </trkpt>
      <trkpt lat="46.77744" lon="6.23374">
        <ele>994.3</ele>
        <time>2019-06-03T09:44:27Z</time>
      </trkpt>
      <trkpt lat="46.7771" lon="6.23432">
        <ele>995.7</ele>
        <time>2019-06-03T09:44:37Z</time>
      </trkpt>
      <trkpt lat="46.77682" lon="6.23477">
        <ele>996.2</ele>
        <time>2019-06-03T09:44:49Z</time>
      </trkpt>
      <trkpt lat="46.77655" lon="6.23514">
        <ele>995.9</ele>
        <time>2019-06-03T09:45:01Z</time>
      </trkpt>
      <trkpt lat="46.77637" lon="6.23528">
        <ele>995</ele>
        <time>2019-06-03T09:45:11Z</time>
      </trkpt>
      <trkpt lat="46.77632" lon="6.23531">
        <ele>994.7</ele>
        <time>2019-06-03T09:45:14Z</time>
      </trkpt>
      <trkpt lat="46.7762" lon="6.23539">
        <ele>993.7</ele>
        <time>2019-06-03T09:45:23Z</time>
      </trkpt>
      <trkpt lat="46.77597" lon="6.23559">
        <ele>991.4</ele>
        <time>2019-06-03T09:45:35Z</time>
      </trkpt>
      <trkpt lat="46.77597" lon="6.23559">
        <ele>991.4</ele>
        <time>2019-06-03T09:45:55Z</time>
      </trkpt>
      <trkpt lat="46.77597" lon="6.23559">
        <ele>991.4</ele>
        <time>2019-06-03T09:45:57Z</time>
      </trkpt>
      <trkpt lat="46.77585" lon="6.23571">
        <ele>990.6</ele>
        <time>2019-06-03T09:46:03Z</time>
      </trkpt>
      <trkpt lat="46.77577" lon="6.23579">
        <ele>989.9</ele>
        <time>2019-06-03T09:46:05Z</time>
      </trkpt>
      <trkpt lat="46.77542" lon="6.2361">
        <ele>987.2</ele>
        <time>2019-06-03T09:46:11Z</time>
      </trkpt>
      <trkpt lat="46.77514" lon="6.23636">
        <ele>985.2</ele>
        <time>2019-06-03T09:46:15Z</time>
      </trkpt>
      <trkpt lat="46.7749" lon="6.23657">
        <ele>983.9</ele>
        <time>2019-06-03T09:46:18Z</time>
      </trkpt>
      <trkpt lat="46.77414" lon="6.23718">
        <ele>980</ele>
        <time>2019-06-03T09:46:28Z</time>
      </trkpt>
      <trkpt lat="46.77387" lon="6.23732">
        <ele>977.9</ele>
        <time>2019-06-03T09:46:36Z</time>
      </trkpt>
      <trkpt lat="46.77388" lon="6.23732">
        <ele>977.9</ele>
        <time>2019-06-03T09:46:51Z</time>
      </trkpt>
      <trkpt lat="46.77388" lon="6.23732">
        <ele>977.9</ele>
        <time>2019-06-03T09:47:20Z</time>
      </trkpt>
      <trkpt lat="46.7738" lon="6.23734">
        <ele>977.4</ele>
        <time>2019-06-03T09:47:24Z</time>
      </trkpt>
      <trkpt lat="46.77371" lon="6.23735">
        <ele>976.8</ele>
        <time>2019-06-03T09:47:26Z</time>
      </trkpt>
      <trkpt lat="46.77305" lon="6.23741">
        <ele>973</ele>
        <time>2019-06-03T09:47:35Z</time>
      </trkpt>
      <trkpt lat="46.77279" lon="6.23743">
        <ele>971.6</ele>
        <time>2019-06-03T09:47:38Z</time>
      </trkpt>
      <trkpt lat="46.77241" lon="6.23727">
        <ele>969.2</ele>
        <time>2019-06-03T09:47:43Z</time>
      </trkpt>
      <trkpt lat="46.77206" lon="6.2369">
        <ele>966.9</ele>
        <time>2019-06-03T09:47:48Z</time>
      </trkpt>
      <trkpt lat="46.77177" lon="6.2366">
        <ele>965.2</ele>
        <time>2019-06-03T09:47:52Z</time>
      </trkpt>
      <trkpt lat="46.77171" lon="6.23653">
        <ele>964.9</ele>
        <time>2019-06-03T09:47:53Z</time>
      </trkpt>
      <trkpt lat="46.77139" lon="6.23634">
        <ele>961.8</ele>
        <time>2019-06-03T09:48:00Z</time>
      </trkpt>
      <trkpt lat="46.77134" lon="6.23632">
        <ele>961.1</ele>
        <time>2019-06-03T09:48:01Z</time>
      </trkpt>
      <trkpt lat="46.7712" lon="6.2363">
        <ele>959</ele>
        <time>2019-06-03T09:48:03Z</time>
      </trkpt>
      <trkpt lat="46.77097" lon="6.23631">
        <ele>956</ele>
        <time>2019-06-03T09:48:06Z</time>
      </trkpt>
      <trkpt lat="46.77072" lon="6.2364">
        <ele>953.1</ele>
        <time>2019-06-03T09:48:09Z</time>
      </trkpt>
      <trkpt lat="46.77064" lon="6.23644">
        <ele>952.3</ele>
        <time>2019-06-03T09:48:10Z</time>
      </trkpt>
      <trkpt lat="46.77029" lon="6.23653">
        <ele>947.1</ele>
        <time>2019-06-03T09:48:14Z</time>
      </trkpt>
      <trkpt lat="46.7699" lon="6.23652">
        <ele>941.3</ele>
        <time>2019-06-03T09:48:18Z</time>
      </trkpt>
      <trkpt lat="46.76951" lon="6.23641">
        <ele>937.7</ele>
        <time>2019-06-03T09:48:22Z</time>
      </trkpt>
      <trkpt lat="46.76942" lon="6.23638">
        <ele>936.7</ele>
        <time>2019-06-03T09:48:23Z</time>
      </trkpt>
      <trkpt lat="46.76902" lon="6.23629">
        <ele>931.9</ele>
        <time>2019-06-03T09:48:28Z</time>
      </trkpt>
      <trkpt lat="46.76863" lon="6.23637">
        <ele>925.6</ele>
        <time>2019-06-03T09:48:33Z</time>
      </trkpt>
      <trkpt lat="46.76839" lon="6.23665">
        <ele>921.6</ele>
        <time>2019-06-03T09:48:37Z</time>
      </trkpt>
      <trkpt lat="46.76835" lon="6.23688">
        <ele>920</ele>
        <time>2019-06-03T09:48:39Z</time>
      </trkpt>
      <trkpt lat="46.76836" lon="6.23723">
        <ele>919.1</ele>
        <time>2019-06-03T09:48:42Z</time>
      </trkpt>
      <trkpt lat="46.76848" lon="6.23777">
        <ele>915.7</ele>
        <time>2019-06-03T09:48:47Z</time>
      </trkpt>
      <trkpt lat="46.76851" lon="6.23787">
        <ele>914.9</ele>
        <time>2019-06-03T09:48:48Z</time>
      </trkpt>
      <trkpt lat="46.76862" lon="6.23828">
        <ele>913.8</ele>
        <time>2019-06-03T09:48:52Z</time>
      </trkpt>
      <trkpt lat="46.76867" lon="6.23854">
        <ele>913</ele>
        <time>2019-06-03T09:48:55Z</time>
      </trkpt>
      <trkpt lat="46.76867" lon="6.23867">
        <ele>912.6</ele>
        <time>2019-06-03T09:48:57Z</time>
      </trkpt>
      <trkpt lat="46.76861" lon="6.2389">
        <ele>911.3</ele>
        <time>2019-06-03T09:49:01Z</time>
      </trkpt>
      <trkpt lat="46.7685" lon="6.23907">
        <ele>910.6</ele>
        <time>2019-06-03T09:49:04Z</time>
      </trkpt>
      <trkpt lat="46.76839" lon="6.23931">
        <ele>909.9</ele>
        <time>2019-06-03T09:49:08Z</time>
      </trkpt>
      <trkpt lat="46.76851" lon="6.23951">
        <ele>909</ele>
        <time>2019-06-03T09:49:14Z</time>
      </trkpt>
      <trkpt lat="46.76856" lon="6.23952">
        <ele>908.9</ele>
        <time>2019-06-03T09:49:15Z</time>
      </trkpt>
      <trkpt lat="46.76872" lon="6.2399">
        <ele>908.1</ele>
        <time>2019-06-03T09:49:22Z</time>
      </trkpt>
      <trkpt lat="46.76869" lon="6.24008">
        <ele>907.8</ele>
        <time>2019-06-03T09:49:24Z</time>
      </trkpt>
      <trkpt lat="46.76855" lon="6.24139">
        <ele>905.8</ele>
        <time>2019-06-03T09:49:38Z</time>
      </trkpt>
      <trkpt lat="46.76854" lon="6.24149">
        <ele>905.9</ele>
        <time>2019-06-03T09:49:39Z</time>
      </trkpt>
      <trkpt lat="46.76844" lon="6.24185">
        <ele>905.7</ele>
        <time>2019-06-03T09:49:43Z</time>
      </trkpt>
      <trkpt lat="46.7681" lon="6.24247">
        <ele>904.8</ele>
        <time>2019-06-03T09:49:51Z</time>
      </trkpt>
      <trkpt lat="46.76806" lon="6.24255">
        <ele>904.7</ele>
        <time>2019-06-03T09:49:52Z</time>
      </trkpt>
      <trkpt lat="46.76802" lon="6.24263">
        <ele>904.6</ele>
        <time>2019-06-03T09:49:53Z</time>
      </trkpt>
      <trkpt lat="46.76755" lon="6.24357">
        <ele>903.7</ele>
        <time>2019-06-03T09:50:03Z</time>
      </trkpt>
      <trkpt lat="46.7675" lon="6.24367">
        <ele>903.7</ele>
        <time>2019-06-03T09:50:04Z</time>
      </trkpt>
      <trkpt lat="46.7674" lon="6.24431">
        <ele>903.7</ele>
        <time>2019-06-03T09:50:09Z</time>
      </trkpt>
      <trkpt lat="46.7674" lon="6.24458">
        <ele>902.7</ele>
        <time>2019-06-03T09:50:11Z</time>
      </trkpt>
      <trkpt lat="46.76743" lon="6.24485">
        <ele>901.6</ele>
        <time>2019-06-03T09:50:13Z</time>
      </trkpt>
      <trkpt lat="46.76745" lon="6.24499">
        <ele>901</ele>
        <time>2019-06-03T09:50:14Z</time>
      </trkpt>
      <trkpt lat="46.76741" lon="6.24577">
        <ele>896.9</ele>
        <time>2019-06-03T09:50:19Z</time>
      </trkpt>
      <trkpt lat="46.76736" lon="6.24593">
        <ele>895.9</ele>
        <time>2019-06-03T09:50:20Z</time>
      </trkpt>
      <trkpt lat="46.76722" lon="6.2464">
        <ele>892.9</ele>
        <time>2019-06-03T09:50:23Z</time>
      </trkpt>
      <trkpt lat="46.76687" lon="6.2471">
        <ele>888</ele>
        <time>2019-06-03T09:50:28Z</time>
      </trkpt>
      <trkpt lat="46.76678" lon="6.24722">
        <ele>887</ele>
        <time>2019-06-03T09:50:29Z</time>
      </trkpt>
      <trkpt lat="46.76634" lon="6.24774">
        <ele>881.9</ele>
        <time>2019-06-03T09:50:34Z</time>
      </trkpt>
      <trkpt lat="46.76557" lon="6.24821">
        <ele>876.4</ele>
        <time>2019-06-03T09:50:41Z</time>
      </trkpt>
      <trkpt lat="46.76546" lon="6.24828">
        <ele>875.6</ele>
        <time>2019-06-03T09:50:42Z</time>
      </trkpt>
      <trkpt lat="46.76502" lon="6.24831">
        <ele>872.2</ele>
        <time>2019-06-03T09:50:46Z</time>
      </trkpt>
      <trkpt lat="46.76461" lon="6.24813">
        <ele>871</ele>
        <time>2019-06-03T09:50:50Z</time>
      </trkpt>
      <trkpt lat="46.76392" lon="6.24783">
        <ele>869</ele>
        <time>2019-06-03T09:50:58Z</time>
      </trkpt>
      <trkpt lat="46.76384" lon="6.24779">
        <ele>868.8</ele>
        <time>2019-06-03T09:50:59Z</time>
      </trkpt>
      <trkpt lat="46.76354" lon="6.2474">
        <ele>867.5</ele>
        <time>2019-06-03T09:51:04Z</time>
      </trkpt>
      <trkpt lat="46.76333" lon="6.24671">
        <ele>865.7</ele>
        <time>2019-06-03T09:51:11Z</time>
      </trkpt>
      <trkpt lat="46.76289" lon="6.24574">
        <ele>863.2</ele>
        <time>2019-06-03T09:51:23Z</time>
      </trkpt>
      <trkpt lat="46.76266" lon="6.24549">
        <ele>862.1</ele>
        <time>2019-06-03T09:51:27Z</time>
      </trkpt>
      <trkpt lat="46.76177" lon="6.24509">
        <ele>859.4</ele>
        <time>2019-06-03T09:51:40Z</time>
      </trkpt>
      <trkpt lat="46.76141" lon="6.2451">
        <ele>858.6</ele>
        <time>2019-06-03T09:51:45Z</time>
      </trkpt>
      <trkpt lat="46.7606" lon="6.24565">
        <ele>857.5</ele>
        <time>2019-06-03T09:51:57Z</time>
      </trkpt>
      <trkpt lat="46.75951" lon="6.24649">
        <ele>857.7</ele>
        <time>2019-06-03T09:52:14Z</time>
      </trkpt>
      <trkpt lat="46.75861" lon="6.24718">
        <ele>859.4</ele>
        <time>2019-06-03T09:52:28Z</time>
      </trkpt>
      <trkpt lat="46.75833" lon="6.24791">
        <ele>862.9</ele>
        <time>2019-06-03T09:52:36Z</time>
      </trkpt>
      <trkpt lat="46.75834" lon="6.24802">
        <ele>863.2</ele>
        <time>2019-06-03T09:52:37Z</time>
      </trkpt>
      <trkpt lat="46.75836" lon="6.24824">
        <ele>863.9</ele>
        <time>2019-06-03T09:52:39Z</time>
      </trkpt>
      <trkpt lat="46.75848" lon="6.2496">
        <ele>868.3</ele>
        <time>2019-06-03T09:52:52Z</time>
      </trkpt>
      <trkpt lat="46.75844" lon="6.25123">
        <ele>875.6</ele>
        <time>2019-06-03T09:53:08Z</time>
      </trkpt>
      <trkpt lat="46.75838" lon="6.25173">
        <ele>877.4</ele>
        <time>2019-06-03T09:53:13Z</time>
      </trkpt>
      <trkpt lat="46.75818" lon="6.25213">
        <ele>877.8</ele>
        <time>2019-06-03T09:53:18Z</time>
      </trkpt>
      <trkpt lat="46.75797" lon="6.25234">
        <ele>878.7</ele>
        <time>2019-06-03T09:53:22Z</time>
      </trkpt>
      <trkpt lat="46.75779" lon="6.25267">
        <ele>879.9</ele>
        <time>2019-06-03T09:53:26Z</time>
      </trkpt>
      <trkpt lat="46.75769" lon="6.25357">
        <ele>882</ele>
        <time>2019-06-03T09:53:36Z</time>
      </trkpt>
      <trkpt lat="46.75767" lon="6.25374">
        <ele>882.5</ele>
        <time>2019-06-03T09:53:38Z</time>
      </trkpt>
      <trkpt lat="46.75756" lon="6.25423">
        <ele>883.8</ele>
        <time>2019-06-03T09:53:44Z</time>
      </trkpt>
      <trkpt lat="46.75747" lon="6.25475">
        <ele>884.7</ele>
        <time>2019-06-03T09:53:50Z</time>
      </trkpt>
      <trkpt lat="46.7574" lon="6.25508">
        <ele>885.6</ele>
        <time>2019-06-03T09:53:54Z</time>
      </trkpt>
      <trkpt lat="46.75723" lon="6.25552">
        <ele>887</ele>
        <time>2019-06-03T09:54:00Z</time>
      </trkpt>
      <trkpt lat="46.75707" lon="6.25585">
        <ele>888.1</ele>
        <time>2019-06-03T09:54:05Z</time>
      </trkpt>
      <trkpt lat="46.75684" lon="6.25631">
        <ele>889.6</ele>
        <time>2019-06-03T09:54:12Z</time>
      </trkpt>
      <trkpt lat="46.7565" lon="6.25688">
        <ele>890.5</ele>
        <time>2019-06-03T09:54:22Z</time>
      </trkpt>
      <trkpt lat="46.7563" lon="6.25719">
        <ele>890.4</ele>
        <time>2019-06-03T09:54:31Z</time>
      </trkpt>
      <trkpt lat="46.75637" lon="6.25726">
        <ele>890.4</ele>
        <time>2019-06-03T09:54:37Z</time>
      </trkpt>
      <trkpt lat="46.7564" lon="6.25716">
        <ele>890.3</ele>
        <time>2019-06-03T09:54:40Z</time>
      </trkpt>
      <trkpt lat="46.75661" lon="6.25677">
        <ele>890.6</ele>
        <time>2019-06-03T09:54:49Z</time>
      </trkpt>
      <trkpt lat="46.75683" lon="6.25641">
        <ele>889.7</ele>
        <time>2019-06-03T09:54:59Z</time>
      </trkpt>
      <trkpt lat="46.75706" lon="6.25601">
        <ele>888.5</ele>
        <time>2019-06-03T09:55:10Z</time>
      </trkpt>
      <trkpt lat="46.75708" lon="6.25597">
        <ele>888.4</ele>
        <time>2019-06-03T09:55:12Z</time>
      </trkpt>
      <trkpt lat="46.75699" lon="6.25606">
        <ele>888.8</ele>
        <time>2019-06-03T09:55:19Z</time>
      </trkpt>
      <trkpt lat="46.75697" lon="6.2561">
        <ele>888.9</ele>
        <time>2019-06-03T09:55:20Z</time>
      </trkpt>
      <trkpt lat="46.75681" lon="6.25643">
        <ele>889.8</ele>
        <time>2019-06-03T09:55:27Z</time>
      </trkpt>
      <trkpt lat="46.75663" lon="6.2567">
        <ele>890.5</ele>
        <time>2019-06-03T09:55:33Z</time>
      </trkpt>
      <trkpt lat="46.75654" lon="6.25685">
        <ele>890.5</ele>
        <time>2019-06-03T09:55:36Z</time>
      </trkpt>
      <trkpt lat="46.75633" lon="6.25722">
        <ele>890.4</ele>
        <time>2019-06-03T09:55:44Z</time>
      </trkpt>
      <trkpt lat="46.75638" lon="6.25757">
        <ele>889.6</ele>
        <time>2019-06-03T09:55:50Z</time>
      </trkpt>
      <trkpt lat="46.7565" lon="6.25782">
        <ele>888.9</ele>
        <time>2019-06-03T09:55:54Z</time>
      </trkpt>
      <trkpt lat="46.75694" lon="6.25898">
        <ele>885.2</ele>
        <time>2019-06-03T09:56:08Z</time>
      </trkpt>
      <trkpt lat="46.75732" lon="6.2603">
        <ele>881.2</ele>
        <time>2019-06-03T09:56:20Z</time>
      </trkpt>
      <trkpt lat="46.75769" lon="6.26177">
        <ele>877.5</ele>
        <time>2019-06-03T09:56:32Z</time>
      </trkpt>
      <trkpt lat="46.75783" lon="6.26212">
        <ele>875.9</ele>
        <time>2019-06-03T09:56:35Z</time>
      </trkpt>
      <trkpt lat="46.75844" lon="6.26345">
        <ele>879.6</ele>
        <time>2019-06-03T09:56:47Z</time>
      </trkpt>
      <trkpt lat="46.75922" lon="6.26444">
        <ele>875.4</ele>
        <time>2019-06-03T09:57:00Z</time>
      </trkpt>
      <trkpt lat="46.75999" lon="6.26538">
        <ele>869.4</ele>
        <time>2019-06-03T09:57:16Z</time>
      </trkpt>
      <trkpt lat="46.76065" lon="6.26609">
        <ele>868.2</ele>
        <time>2019-06-03T09:57:32Z</time>
      </trkpt>
      <trkpt lat="46.76118" lon="6.26657">
        <ele>868</ele>
        <time>2019-06-03T09:57:45Z</time>
      </trkpt>
      <trkpt lat="46.76137" lon="6.26673">
        <ele>867.9</ele>
        <time>2019-06-03T09:57:50Z</time>
      </trkpt>
      <trkpt lat="46.76143" lon="6.26679">
        <ele>867.9</ele>
        <time>2019-06-03T09:57:52Z</time>
      </trkpt>
      <trkpt lat="46.76159" lon="6.2669">
        <ele>868.4</ele>
        <time>2019-06-03T09:57:56Z</time>
      </trkpt>
      <trkpt lat="46.76192" lon="6.26712">
        <ele>869.5</ele>
        <time>2019-06-03T09:58:04Z</time>
      </trkpt>
      <trkpt lat="46.76225" lon="6.26728">
        <ele>869.5</ele>
        <time>2019-06-03T09:58:11Z</time>
      </trkpt>
      <trkpt lat="46.76292" lon="6.26768">
        <ele>868.9</ele>
        <time>2019-06-03T09:58:26Z</time>
      </trkpt>
      <trkpt lat="46.76307" lon="6.26783">
        <ele>868.6</ele>
        <time>2019-06-03T09:58:30Z</time>
      </trkpt>
      <trkpt lat="46.76315" lon="6.2679">
        <ele>868.4</ele>
        <time>2019-06-03T09:58:32Z</time>
      </trkpt>
      <trkpt lat="46.76373" lon="6.2686">
        <ele>869.6</ele>
        <time>2019-06-03T09:58:47Z</time>
      </trkpt>
      <trkpt lat="46.76426" lon="6.26922">
        <ele>870.9</ele>
        <time>2019-06-03T09:59:01Z</time>
      </trkpt>
      <trkpt lat="46.76441" lon="6.26942">
        <ele>871.1</ele>
        <time>2019-06-03T09:59:06Z</time>
      </trkpt>
      <trkpt lat="46.76483" lon="6.26999">
        <ele>872.7</ele>
        <time>2019-06-03T09:59:21Z</time>
      </trkpt>
      <trkpt lat="46.76505" lon="6.27051">
        <ele>873.4</ele>
        <time>2019-06-03T09:59:32Z</time>
      </trkpt>
      <trkpt lat="46.76518" lon="6.27097">
        <ele>873.5</ele>
        <time>2019-06-03T09:59:39Z</time>
      </trkpt>
      <trkpt lat="46.7653" lon="6.27227">
        <ele>873.8</ele>
        <time>2019-06-03T09:59:53Z</time>
      </trkpt>
      <trkpt lat="46.76546" lon="6.27387">
        <ele>871.5</ele>
        <time>2019-06-03T10:00:07Z</time>
      </trkpt>
      <trkpt lat="46.76599" lon="6.27502">
        <ele>865</ele>
        <time>2019-06-03T10:00:18Z</time>
      </trkpt>
      <trkpt lat="46.76688" lon="6.27586">
        <ele>863.1</ele>
        <time>2019-06-03T10:00:31Z</time>
      </trkpt>
      <trkpt lat="46.76822" lon="6.27681">
        <ele>862.2</ele>
        <time>2019-06-03T10:00:49Z</time>
      </trkpt>
      <trkpt lat="46.7691" lon="6.27751">
        <ele>862.7</ele>
        <time>2019-06-03T10:01:01Z</time>
      </trkpt>
      <trkpt lat="46.76981" lon="6.27845">
        <ele>862.9</ele>
        <time>2019-06-03T10:01:12Z</time>
      </trkpt>
      <trkpt lat="46.77005" lon="6.27894">
        <ele>857.8</ele>
        <time>2019-06-03T10:01:17Z</time>
      </trkpt>
      <trkpt lat="46.7703" lon="6.27921">
        <ele>857.2</ele>
        <time>2019-06-03T10:01:21Z</time>
      </trkpt>
      <trkpt lat="46.77092" lon="6.27946">
        <ele>856</ele>
        <time>2019-06-03T10:01:29Z</time>
      </trkpt>
      <trkpt lat="46.77109" lon="6.27931">
        <ele>855.7</ele>
        <time>2019-06-03T10:01:33Z</time>
      </trkpt>
      <trkpt lat="46.77122" lon="6.27889">
        <ele>855</ele>
        <time>2019-06-03T10:01:39Z</time>
      </trkpt>
      <trkpt lat="46.77128" lon="6.27876">
        <ele>854.8</ele>
        <time>2019-06-03T10:01:41Z</time>
      </trkpt>
      <trkpt lat="46.77134" lon="6.27861">
        <ele>854.6</ele>
        <time>2019-06-03T10:01:43Z</time>
      </trkpt>
      <trkpt lat="46.77158" lon="6.27755">
        <ele>853.5</ele>
        <time>2019-06-03T10:01:58Z</time>
      </trkpt>
      <trkpt lat="46.77161" lon="6.27742">
        <ele>853.3</ele>
        <time>2019-06-03T10:02:00Z</time>
      </trkpt>
      <trkpt lat="46.77164" lon="6.27717">
        <ele>852.9</ele>
        <time>2019-06-03T10:02:04Z</time>
      </trkpt>
      <trkpt lat="46.77162" lon="6.27679">
        <ele>852.9</ele>
        <time>2019-06-03T10:02:10Z</time>
      </trkpt>
      <trkpt lat="46.77161" lon="6.27651">
        <ele>853.1</ele>
        <time>2019-06-03T10:02:14Z</time>
      </trkpt>
      <trkpt lat="46.7715" lon="6.27575">
        <ele>852.6</ele>
        <time>2019-06-03T10:02:25Z</time>
      </trkpt>
      <trkpt lat="46.7715" lon="6.27553">
        <ele>852.2</ele>
        <time>2019-06-03T10:02:29Z</time>
      </trkpt>
      <trkpt lat="46.77153" lon="6.27541">
        <ele>851.9</ele>
        <time>2019-06-03T10:02:31Z</time>
      </trkpt>
      <trkpt lat="46.77141" lon="6.27518">
        <ele>851.4</ele>
        <time>2019-06-03T10:02:37Z</time>
      </trkpt>
      <trkpt lat="46.77138" lon="6.27517">
        <ele>851.4</ele>
        <time>2019-06-03T10:02:44Z</time>
      </trkpt>
      <trkpt lat="46.77139" lon="6.27515">
        <ele>851.4</ele>
        <time>2019-06-03T10:02:50Z</time>
      </trkpt>
      <trkpt lat="46.77115" lon="6.27504">
        <ele>851.9</ele>
        <time>2019-06-03T10:03:00Z</time>
      </trkpt>
      <trkpt lat="46.77112" lon="6.27504">
        <ele>852.1</ele>
        <time>2019-06-03T10:03:01Z</time>
      </trkpt>
      <trkpt lat="46.77096" lon="6.27542">
        <ele>854.4</ele>
        <time>2019-06-03T10:03:12Z</time>
      </trkpt>
      <trkpt lat="46.77097" lon="6.27559">
        <ele>855</ele>
        <time>2019-06-03T10:03:17Z</time>
      </trkpt>
      <trkpt lat="46.77106" lon="6.27573">
        <ele>854.7</ele>
        <time>2019-06-03T10:03:29Z</time>
      </trkpt>
      <trkpt lat="46.77106" lon="6.27573">
        <ele>854.7</ele>
        <time>2019-06-03T10:03:30Z</time>
      </trkpt>
    </trkseg>
  </trk>
</gpx>